<?xml version="1.0" encoding="UTF-8" standalone="no" ?>
<gpx xmlns="http://www.topografix.com/GPX/1/1" xmlns:xsi="http://www.w3.org/2001/XMLSchema-instance" xsi:schemaLocation="http://www.topografix.com/GPX/1/1 http://www.topografix.com/GPX/1/1/gpx.xsd" version="1.1" creator="VisuGPX - https://www.visugpx.com">
  <metadata>
    <name>Autour de Font Jouvale</name>
    <desc><![CDATA[Balade autour de la combe de Font Jouvale en passant par Vevouil]]></desc>
  </metadata>
  <trk>
    <name><![CDATA[2018-04-23 15:48:03]]></name>
    <trkseg>
      <trkpt lat="43.96264" lon="5.33661">
        <ele>437.54</ele>
        <time>2018-04-23T07:27:08Z</time>
      </trkpt>
      <trkpt lat="43.96265" lon="5.33662">
        <ele>437.54</ele>
        <time>2018-04-23T07:27:09Z</time>
      </trkpt>
      <trkpt lat="43.96267" lon="5.33665">
        <ele>437.06</ele>
        <time>2018-04-23T07:27:49Z</time>
      </trkpt>
      <trkpt lat="43.96267" lon="5.33668">
        <ele>437.06</ele>
        <time>2018-04-23T07:28:11Z</time>
      </trkpt>
      <trkpt lat="43.96266" lon="5.3367">
        <ele>437.06</ele>
        <time>2018-04-23T07:28:22Z</time>
      </trkpt>
      <trkpt lat="43.96267" lon="5.3367">
        <ele>437.06</ele>
        <time>2018-04-23T07:28:41Z</time>
      </trkpt>
      <trkpt lat="43.96267" lon="5.3367">
        <ele>436.58</ele>
        <time>2018-04-23T07:28:55Z</time>
      </trkpt>
      <trkpt lat="43.96266" lon="5.33674">
        <ele>437.54</ele>
        <time>2018-04-23T07:29:11Z</time>
      </trkpt>
      <trkpt lat="43.96266" lon="5.33673">
        <ele>436.1</ele>
        <time>2018-04-23T07:29:13Z</time>
      </trkpt>
      <trkpt lat="43.96266" lon="5.33674">
        <ele>435.13</ele>
        <time>2018-04-23T07:29:26Z</time>
      </trkpt>
      <trkpt lat="43.96266" lon="5.33678">
        <ele>436.58</ele>
        <time>2018-04-23T07:29:51Z</time>
      </trkpt>
      <trkpt lat="43.96267" lon="5.33676">
        <ele>435.13</ele>
        <time>2018-04-23T07:30:01Z</time>
      </trkpt>
      <trkpt lat="43.96267" lon="5.33676">
        <ele>438.5</ele>
        <time>2018-04-23T07:30:02Z</time>
      </trkpt>
      <trkpt lat="43.96267" lon="5.33676">
        <ele>437.06</ele>
        <time>2018-04-23T07:30:03Z</time>
      </trkpt>
      <trkpt lat="43.96263" lon="5.33683">
        <ele>437.06</ele>
        <time>2018-04-23T07:30:32Z</time>
      </trkpt>
      <trkpt lat="43.96258" lon="5.33691">
        <ele>437.06</ele>
        <time>2018-04-23T07:31:00Z</time>
      </trkpt>
      <trkpt lat="43.96268" lon="5.33677">
        <ele>438.02</ele>
        <time>2018-04-23T07:31:20Z</time>
      </trkpt>
      <trkpt lat="43.96267" lon="5.33677">
        <ele>438.02</ele>
        <time>2018-04-23T07:31:42Z</time>
      </trkpt>
      <trkpt lat="43.96266" lon="5.33674">
        <ele>438.02</ele>
        <time>2018-04-23T07:32:03Z</time>
      </trkpt>
      <trkpt lat="43.96266" lon="5.33667">
        <ele>438.02</ele>
        <time>2018-04-23T07:32:20Z</time>
      </trkpt>
      <trkpt lat="43.96266" lon="5.33671">
        <ele>438.02</ele>
        <time>2018-04-23T07:32:51Z</time>
      </trkpt>
      <trkpt lat="43.96265" lon="5.33667">
        <ele>438.5</ele>
        <time>2018-04-23T07:33:19Z</time>
      </trkpt>
      <trkpt lat="43.96268" lon="5.33671">
        <ele>438.5</ele>
        <time>2018-04-23T07:33:41Z</time>
      </trkpt>
      <trkpt lat="43.96266" lon="5.33671">
        <ele>438.5</ele>
        <time>2018-04-23T07:34:11Z</time>
      </trkpt>
      <trkpt lat="43.96267" lon="5.33669">
        <ele>438.5</ele>
        <time>2018-04-23T07:34:33Z</time>
      </trkpt>
      <trkpt lat="43.96267" lon="5.33671">
        <ele>438.5</ele>
        <time>2018-04-23T07:34:54Z</time>
      </trkpt>
      <trkpt lat="43.96267" lon="5.33672">
        <ele>438.02</ele>
        <time>2018-04-23T07:35:14Z</time>
      </trkpt>
      <trkpt lat="43.96267" lon="5.33669">
        <ele>438.02</ele>
        <time>2018-04-23T07:35:30Z</time>
      </trkpt>
      <trkpt lat="43.96268" lon="5.33666">
        <ele>438.02</ele>
        <time>2018-04-23T07:36:01Z</time>
      </trkpt>
      <trkpt lat="43.96266" lon="5.33662">
        <ele>438.5</ele>
        <time>2018-04-23T07:36:33Z</time>
      </trkpt>
      <trkpt lat="43.96269" lon="5.33661">
        <ele>438.5</ele>
        <time>2018-04-23T07:37:00Z</time>
      </trkpt>
      <trkpt lat="43.96268" lon="5.3366">
        <ele>438.02</ele>
        <time>2018-04-23T07:37:25Z</time>
      </trkpt>
      <trkpt lat="43.96267" lon="5.33663">
        <ele>438.02</ele>
        <time>2018-04-23T07:37:48Z</time>
      </trkpt>
      <trkpt lat="43.96266" lon="5.33663">
        <ele>438.02</ele>
        <time>2018-04-23T07:38:13Z</time>
      </trkpt>
      <trkpt lat="43.96265" lon="5.3366">
        <ele>438.5</ele>
        <time>2018-04-23T07:38:39Z</time>
      </trkpt>
      <trkpt lat="43.96266" lon="5.33664">
        <ele>438.5</ele>
        <time>2018-04-23T07:39:07Z</time>
      </trkpt>
      <trkpt lat="43.96266" lon="5.33659">
        <ele>438.5</ele>
        <time>2018-04-23T07:39:30Z</time>
      </trkpt>
      <trkpt lat="43.96263" lon="5.33668">
        <ele>438.5</ele>
        <time>2018-04-23T07:39:48Z</time>
      </trkpt>
      <trkpt lat="43.96254" lon="5.33666">
        <ele>437.06</ele>
        <time>2018-04-23T07:40:06Z</time>
      </trkpt>
      <trkpt lat="43.96255" lon="5.33664">
        <ele>437.06</ele>
        <time>2018-04-23T07:40:36Z</time>
      </trkpt>
      <trkpt lat="43.96249" lon="5.33667">
        <ele>436.1</ele>
        <time>2018-04-23T07:41:12Z</time>
      </trkpt>
      <trkpt lat="43.96235" lon="5.33666">
        <ele>436.1</ele>
        <time>2018-04-23T07:41:29Z</time>
      </trkpt>
      <trkpt lat="43.96227" lon="5.3367">
        <ele>436.1</ele>
        <time>2018-04-23T07:41:47Z</time>
      </trkpt>
      <trkpt lat="43.9622" lon="5.3367">
        <ele>436.1</ele>
        <time>2018-04-23T07:42:04Z</time>
      </trkpt>
      <trkpt lat="43.96221" lon="5.33672">
        <ele>436.1</ele>
        <time>2018-04-23T07:42:32Z</time>
      </trkpt>
      <trkpt lat="43.96222" lon="5.33673">
        <ele>436.1</ele>
        <time>2018-04-23T07:43:03Z</time>
      </trkpt>
      <trkpt lat="43.96222" lon="5.33674">
        <ele>436.1</ele>
        <time>2018-04-23T07:43:18Z</time>
      </trkpt>
      <trkpt lat="43.96234" lon="5.33674">
        <ele>436.1</ele>
        <time>2018-04-23T07:43:44Z</time>
      </trkpt>
      <trkpt lat="43.96249" lon="5.33672">
        <ele>435.61</ele>
        <time>2018-04-23T07:44:01Z</time>
      </trkpt>
      <trkpt lat="43.96254" lon="5.33671">
        <ele>435.61</ele>
        <time>2018-04-23T07:44:24Z</time>
      </trkpt>
      <trkpt lat="43.96251" lon="5.33677">
        <ele>435.61</ele>
        <time>2018-04-23T07:44:54Z</time>
      </trkpt>
      <trkpt lat="43.9625" lon="5.33676">
        <ele>435.61</ele>
        <time>2018-04-23T07:45:24Z</time>
      </trkpt>
      <trkpt lat="43.96253" lon="5.33672">
        <ele>436.1</ele>
        <time>2018-04-23T07:45:54Z</time>
      </trkpt>
      <trkpt lat="43.96252" lon="5.33669">
        <ele>436.1</ele>
        <time>2018-04-23T07:46:16Z</time>
      </trkpt>
      <trkpt lat="43.96253" lon="5.33669">
        <ele>436.1</ele>
        <time>2018-04-23T07:46:17Z</time>
      </trkpt>
      <trkpt lat="43.9626" lon="5.33679">
        <ele>436.1</ele>
        <time>2018-04-23T07:46:32Z</time>
      </trkpt>
      <trkpt lat="43.96266" lon="5.3368">
        <ele>438.02</ele>
        <time>2018-04-23T07:46:49Z</time>
      </trkpt>
      <trkpt lat="43.96267" lon="5.33679">
        <ele>438.02</ele>
        <time>2018-04-23T07:47:12Z</time>
      </trkpt>
      <trkpt lat="43.96267" lon="5.33677">
        <ele>438.02</ele>
        <time>2018-04-23T07:47:28Z</time>
      </trkpt>
      <trkpt lat="43.96267" lon="5.33678">
        <ele>438.02</ele>
        <time>2018-04-23T07:47:49Z</time>
      </trkpt>
      <trkpt lat="43.96269" lon="5.33679">
        <ele>438.02</ele>
        <time>2018-04-23T07:48:11Z</time>
      </trkpt>
      <trkpt lat="43.96272" lon="5.33679">
        <ele>438.98</ele>
        <time>2018-04-23T07:48:28Z</time>
      </trkpt>
      <trkpt lat="43.96272" lon="5.33677">
        <ele>438.98</ele>
        <time>2018-04-23T07:48:56Z</time>
      </trkpt>
      <trkpt lat="43.96271" lon="5.33679">
        <ele>438.98</ele>
        <time>2018-04-23T07:49:16Z</time>
      </trkpt>
      <trkpt lat="43.96271" lon="5.33679">
        <ele>438.98</ele>
        <time>2018-04-23T07:49:44Z</time>
      </trkpt>
      <trkpt lat="43.96271" lon="5.33679">
        <ele>438.98</ele>
        <time>2018-04-23T07:50:13Z</time>
      </trkpt>
      <trkpt lat="43.96272" lon="5.3368">
        <ele>438.98</ele>
        <time>2018-04-23T07:50:49Z</time>
      </trkpt>
      <trkpt lat="43.9627" lon="5.33678">
        <ele>438.98</ele>
        <time>2018-04-23T07:51:12Z</time>
      </trkpt>
      <trkpt lat="43.96271" lon="5.33678">
        <ele>438.98</ele>
        <time>2018-04-23T07:51:43Z</time>
      </trkpt>
      <trkpt lat="43.96269" lon="5.3368">
        <ele>439.94</ele>
        <time>2018-04-23T07:52:06Z</time>
      </trkpt>
      <trkpt lat="43.9627" lon="5.3368">
        <ele>439.94</ele>
        <time>2018-04-23T07:52:16Z</time>
      </trkpt>
      <trkpt lat="43.96271" lon="5.33679">
        <ele>439.94</ele>
        <time>2018-04-23T07:52:36Z</time>
      </trkpt>
      <trkpt lat="43.96269" lon="5.33678">
        <ele>439.94</ele>
        <time>2018-04-23T07:52:47Z</time>
      </trkpt>
      <trkpt lat="43.96268" lon="5.33677">
        <ele>438.5</ele>
        <time>2018-04-23T07:52:56Z</time>
      </trkpt>
      <trkpt lat="43.96267" lon="5.33672">
        <ele>437.54</ele>
        <time>2018-04-23T07:53:10Z</time>
      </trkpt>
      <trkpt lat="43.96267" lon="5.33672">
        <ele>437.54</ele>
        <time>2018-04-23T07:53:26Z</time>
      </trkpt>
      <trkpt lat="43.96268" lon="5.33674">
        <ele>438.5</ele>
        <time>2018-04-23T07:53:50Z</time>
      </trkpt>
      <trkpt lat="43.96268" lon="5.33677">
        <ele>438.5</ele>
        <time>2018-04-23T07:54:13Z</time>
      </trkpt>
      <trkpt lat="43.96267" lon="5.33682">
        <ele>438.5</ele>
        <time>2018-04-23T07:54:26Z</time>
      </trkpt>
      <trkpt lat="43.96269" lon="5.33682">
        <ele>441.38</ele>
        <time>2018-04-23T07:54:30Z</time>
      </trkpt>
      <trkpt lat="43.96267" lon="5.33681">
        <ele>438.98</ele>
        <time>2018-04-23T07:54:45Z</time>
      </trkpt>
      <trkpt lat="43.9627" lon="5.33683">
        <ele>438.98</ele>
        <time>2018-04-23T07:55:11Z</time>
      </trkpt>
      <trkpt lat="43.96282" lon="5.3369">
        <ele>441.38</ele>
        <time>2018-04-23T07:55:25Z</time>
      </trkpt>
      <trkpt lat="43.96299" lon="5.33689">
        <ele>443.31</ele>
        <time>2018-04-23T07:55:42Z</time>
      </trkpt>
      <trkpt lat="43.96317" lon="5.33688">
        <ele>445.23</ele>
        <time>2018-04-23T07:56:00Z</time>
      </trkpt>
      <trkpt lat="43.96332" lon="5.3368">
        <ele>447.15</ele>
        <time>2018-04-23T07:56:16Z</time>
      </trkpt>
      <trkpt lat="43.96346" lon="5.33672">
        <ele>448.59</ele>
        <time>2018-04-23T07:56:33Z</time>
      </trkpt>
      <trkpt lat="43.96362" lon="5.33664">
        <ele>449.55</ele>
        <time>2018-04-23T07:56:49Z</time>
      </trkpt>
      <trkpt lat="43.96376" lon="5.33661">
        <ele>451</ele>
        <time>2018-04-23T07:57:03Z</time>
      </trkpt>
      <trkpt lat="43.96396" lon="5.33662">
        <ele>452.44</ele>
        <time>2018-04-23T07:57:21Z</time>
      </trkpt>
      <trkpt lat="43.96407" lon="5.3366">
        <ele>452.44</ele>
        <time>2018-04-23T07:57:36Z</time>
      </trkpt>
      <trkpt lat="43.96405" lon="5.3366">
        <ele>452.44</ele>
        <time>2018-04-23T07:57:57Z</time>
      </trkpt>
      <trkpt lat="43.96407" lon="5.3366">
        <ele>452.44</ele>
        <time>2018-04-23T07:58:19Z</time>
      </trkpt>
      <trkpt lat="43.96409" lon="5.3366">
        <ele>454.84</ele>
        <time>2018-04-23T07:58:21Z</time>
      </trkpt>
      <trkpt lat="43.96426" lon="5.3366">
        <ele>452.44</ele>
        <time>2018-04-23T07:58:39Z</time>
      </trkpt>
      <trkpt lat="43.96447" lon="5.33664">
        <ele>452.44</ele>
        <time>2018-04-23T07:58:59Z</time>
      </trkpt>
      <trkpt lat="43.96457" lon="5.33676">
        <ele>454.36</ele>
        <time>2018-04-23T07:59:14Z</time>
      </trkpt>
      <trkpt lat="43.96469" lon="5.33688">
        <ele>455.32</ele>
        <time>2018-04-23T07:59:30Z</time>
      </trkpt>
      <trkpt lat="43.9648" lon="5.33704">
        <ele>457.24</ele>
        <time>2018-04-23T07:59:48Z</time>
      </trkpt>
      <trkpt lat="43.96481" lon="5.33703">
        <ele>453.88</ele>
        <time>2018-04-23T07:59:53Z</time>
      </trkpt>
      <trkpt lat="43.9648" lon="5.33703">
        <ele>461.57</ele>
        <time>2018-04-23T07:59:54Z</time>
      </trkpt>
      <trkpt lat="43.9648" lon="5.33703">
        <ele>458.21</ele>
        <time>2018-04-23T07:59:55Z</time>
      </trkpt>
      <trkpt lat="43.9648" lon="5.33703">
        <ele>457.24</ele>
        <time>2018-04-23T07:59:57Z</time>
      </trkpt>
      <trkpt lat="43.96481" lon="5.33704">
        <ele>457.72</ele>
        <time>2018-04-23T08:00:02Z</time>
      </trkpt>
      <trkpt lat="43.96489" lon="5.33713">
        <ele>457.72</ele>
        <time>2018-04-23T08:00:15Z</time>
      </trkpt>
      <trkpt lat="43.96491" lon="5.33715">
        <ele>458.69</ele>
        <time>2018-04-23T08:00:19Z</time>
      </trkpt>
      <trkpt lat="43.96501" lon="5.33726">
        <ele>460.13</ele>
        <time>2018-04-23T08:00:32Z</time>
      </trkpt>
      <trkpt lat="43.96512" lon="5.33739">
        <ele>461.09</ele>
        <time>2018-04-23T08:00:48Z</time>
      </trkpt>
      <trkpt lat="43.96518" lon="5.33753">
        <ele>463.01</ele>
        <time>2018-04-23T08:01:04Z</time>
      </trkpt>
      <trkpt lat="43.96527" lon="5.33764">
        <ele>464.45</ele>
        <time>2018-04-23T08:01:18Z</time>
      </trkpt>
      <trkpt lat="43.96533" lon="5.33782">
        <ele>466.38</ele>
        <time>2018-04-23T08:01:36Z</time>
      </trkpt>
      <trkpt lat="43.96548" lon="5.33792">
        <ele>468.3</ele>
        <time>2018-04-23T08:01:52Z</time>
      </trkpt>
      <trkpt lat="43.96557" lon="5.33802">
        <ele>469.26</ele>
        <time>2018-04-23T08:02:07Z</time>
      </trkpt>
      <trkpt lat="43.96564" lon="5.33813">
        <ele>470.7</ele>
        <time>2018-04-23T08:02:21Z</time>
      </trkpt>
      <trkpt lat="43.96572" lon="5.33824">
        <ele>472.63</ele>
        <time>2018-04-23T08:02:37Z</time>
      </trkpt>
      <trkpt lat="43.96579" lon="5.33836">
        <ele>473.59</ele>
        <time>2018-04-23T08:02:52Z</time>
      </trkpt>
      <trkpt lat="43.96587" lon="5.3385">
        <ele>474.55</ele>
        <time>2018-04-23T08:03:08Z</time>
      </trkpt>
      <trkpt lat="43.966" lon="5.33869">
        <ele>475.99</ele>
        <time>2018-04-23T08:03:26Z</time>
      </trkpt>
      <trkpt lat="43.96609" lon="5.33881">
        <ele>475.99</ele>
        <time>2018-04-23T08:03:43Z</time>
      </trkpt>
      <trkpt lat="43.96612" lon="5.33882">
        <ele>475.03</ele>
        <time>2018-04-23T08:04:03Z</time>
      </trkpt>
      <trkpt lat="43.96612" lon="5.33881">
        <ele>475.03</ele>
        <time>2018-04-23T08:04:33Z</time>
      </trkpt>
      <trkpt lat="43.96609" lon="5.33885">
        <ele>475.99</ele>
        <time>2018-04-23T08:04:49Z</time>
      </trkpt>
      <trkpt lat="43.96608" lon="5.33878">
        <ele>476.47</ele>
        <time>2018-04-23T08:05:04Z</time>
      </trkpt>
      <trkpt lat="43.96608" lon="5.33873">
        <ele>476.47</ele>
        <time>2018-04-23T08:05:31Z</time>
      </trkpt>
      <trkpt lat="43.96609" lon="5.33882">
        <ele>476.47</ele>
        <time>2018-04-23T08:05:47Z</time>
      </trkpt>
      <trkpt lat="43.96613" lon="5.33888">
        <ele>476.47</ele>
        <time>2018-04-23T08:05:59Z</time>
      </trkpt>
      <trkpt lat="43.96617" lon="5.33895">
        <ele>476.47</ele>
        <time>2018-04-23T08:06:16Z</time>
      </trkpt>
      <trkpt lat="43.96622" lon="5.33908">
        <ele>478.87</ele>
        <time>2018-04-23T08:06:28Z</time>
      </trkpt>
      <trkpt lat="43.96622" lon="5.33912">
        <ele>477.43</ele>
        <time>2018-04-23T08:06:32Z</time>
      </trkpt>
      <trkpt lat="43.96636" lon="5.33929">
        <ele>478.87</ele>
        <time>2018-04-23T08:06:53Z</time>
      </trkpt>
      <trkpt lat="43.96643" lon="5.3394">
        <ele>479.84</ele>
        <time>2018-04-23T08:07:09Z</time>
      </trkpt>
      <trkpt lat="43.96649" lon="5.33953">
        <ele>480.8</ele>
        <time>2018-04-23T08:07:23Z</time>
      </trkpt>
      <trkpt lat="43.96652" lon="5.33962">
        <ele>481.76</ele>
        <time>2018-04-23T08:07:36Z</time>
      </trkpt>
      <trkpt lat="43.96658" lon="5.33977">
        <ele>482.72</ele>
        <time>2018-04-23T08:07:53Z</time>
      </trkpt>
      <trkpt lat="43.96669" lon="5.33996">
        <ele>483.68</ele>
        <time>2018-04-23T08:08:10Z</time>
      </trkpt>
      <trkpt lat="43.96676" lon="5.34014">
        <ele>484.16</ele>
        <time>2018-04-23T08:08:26Z</time>
      </trkpt>
      <trkpt lat="43.96685" lon="5.3403">
        <ele>485.12</ele>
        <time>2018-04-23T08:08:41Z</time>
      </trkpt>
      <trkpt lat="43.96696" lon="5.34048">
        <ele>485.6</ele>
        <time>2018-04-23T08:08:56Z</time>
      </trkpt>
      <trkpt lat="43.96704" lon="5.34066">
        <ele>486.08</ele>
        <time>2018-04-23T08:09:13Z</time>
      </trkpt>
      <trkpt lat="43.96709" lon="5.34082">
        <ele>486.56</ele>
        <time>2018-04-23T08:09:30Z</time>
      </trkpt>
      <trkpt lat="43.9671" lon="5.34089">
        <ele>486.56</ele>
        <time>2018-04-23T08:09:35Z</time>
      </trkpt>
      <trkpt lat="43.96713" lon="5.34108">
        <ele>487.05</ele>
        <time>2018-04-23T08:09:52Z</time>
      </trkpt>
      <trkpt lat="43.96715" lon="5.34132">
        <ele>486.56</ele>
        <time>2018-04-23T08:10:12Z</time>
      </trkpt>
      <trkpt lat="43.96722" lon="5.34152">
        <ele>486.56</ele>
        <time>2018-04-23T08:10:28Z</time>
      </trkpt>
      <trkpt lat="43.96728" lon="5.34164">
        <ele>485.12</ele>
        <time>2018-04-23T08:10:36Z</time>
      </trkpt>
      <trkpt lat="43.96732" lon="5.34182">
        <ele>484.16</ele>
        <time>2018-04-23T08:10:52Z</time>
      </trkpt>
      <trkpt lat="43.96736" lon="5.34205">
        <ele>483.68</ele>
        <time>2018-04-23T08:11:08Z</time>
      </trkpt>
      <trkpt lat="43.96733" lon="5.34228">
        <ele>482.72</ele>
        <time>2018-04-23T08:11:25Z</time>
      </trkpt>
      <trkpt lat="43.96734" lon="5.34257">
        <ele>482.24</ele>
        <time>2018-04-23T08:11:44Z</time>
      </trkpt>
      <trkpt lat="43.9674" lon="5.34281">
        <ele>482.24</ele>
        <time>2018-04-23T08:12:02Z</time>
      </trkpt>
      <trkpt lat="43.96746" lon="5.343">
        <ele>481.76</ele>
        <time>2018-04-23T08:12:17Z</time>
      </trkpt>
      <trkpt lat="43.96755" lon="5.34317">
        <ele>480.8</ele>
        <time>2018-04-23T08:12:34Z</time>
      </trkpt>
      <trkpt lat="43.96773" lon="5.34338">
        <ele>480.32</ele>
        <time>2018-04-23T08:12:52Z</time>
      </trkpt>
      <trkpt lat="43.96792" lon="5.3436">
        <ele>480.32</ele>
        <time>2018-04-23T08:13:12Z</time>
      </trkpt>
      <trkpt lat="43.96804" lon="5.34374">
        <ele>480.32</ele>
        <time>2018-04-23T08:13:28Z</time>
      </trkpt>
      <trkpt lat="43.96809" lon="5.3438">
        <ele>481.28</ele>
        <time>2018-04-23T08:13:34Z</time>
      </trkpt>
      <trkpt lat="43.96826" lon="5.344">
        <ele>481.28</ele>
        <time>2018-04-23T08:13:53Z</time>
      </trkpt>
      <trkpt lat="43.96841" lon="5.34422">
        <ele>481.28</ele>
        <time>2018-04-23T08:14:15Z</time>
      </trkpt>
      <trkpt lat="43.96847" lon="5.34437">
        <ele>481.28</ele>
        <time>2018-04-23T08:14:30Z</time>
      </trkpt>
      <trkpt lat="43.96852" lon="5.34456">
        <ele>481.28</ele>
        <time>2018-04-23T08:14:46Z</time>
      </trkpt>
      <trkpt lat="43.96857" lon="5.34477">
        <ele>481.28</ele>
        <time>2018-04-23T08:15:02Z</time>
      </trkpt>
      <trkpt lat="43.96872" lon="5.34494">
        <ele>481.76</ele>
        <time>2018-04-23T08:15:17Z</time>
      </trkpt>
      <trkpt lat="43.96873" lon="5.34495">
        <ele>481.76</ele>
        <time>2018-04-23T08:15:18Z</time>
      </trkpt>
      <trkpt lat="43.96885" lon="5.34506">
        <ele>481.76</ele>
        <time>2018-04-23T08:15:33Z</time>
      </trkpt>
      <trkpt lat="43.96897" lon="5.34506">
        <ele>481.28</ele>
        <time>2018-04-23T08:15:48Z</time>
      </trkpt>
      <trkpt lat="43.96901" lon="5.34492">
        <ele>481.28</ele>
        <time>2018-04-23T08:16:03Z</time>
      </trkpt>
      <trkpt lat="43.96897" lon="5.3447">
        <ele>482.72</ele>
        <time>2018-04-23T08:16:19Z</time>
      </trkpt>
      <trkpt lat="43.96893" lon="5.34447">
        <ele>483.68</ele>
        <time>2018-04-23T08:16:37Z</time>
      </trkpt>
      <trkpt lat="43.96893" lon="5.34446">
        <ele>483.68</ele>
        <time>2018-04-23T08:16:38Z</time>
      </trkpt>
      <trkpt lat="43.96894" lon="5.34419">
        <ele>484.64</ele>
        <time>2018-04-23T08:16:59Z</time>
      </trkpt>
      <trkpt lat="43.96892" lon="5.34401">
        <ele>486.08</ele>
        <time>2018-04-23T08:17:16Z</time>
      </trkpt>
      <trkpt lat="43.96888" lon="5.34383">
        <ele>487.05</ele>
        <time>2018-04-23T08:17:34Z</time>
      </trkpt>
      <trkpt lat="43.96883" lon="5.34358">
        <ele>488.49</ele>
        <time>2018-04-23T08:17:54Z</time>
      </trkpt>
      <trkpt lat="43.96872" lon="5.34329">
        <ele>489.93</ele>
        <time>2018-04-23T08:18:13Z</time>
      </trkpt>
      <trkpt lat="43.96863" lon="5.34308">
        <ele>490.41</ele>
        <time>2018-04-23T08:18:30Z</time>
      </trkpt>
      <trkpt lat="43.96857" lon="5.34286">
        <ele>490.89</ele>
        <time>2018-04-23T08:18:45Z</time>
      </trkpt>
      <trkpt lat="43.9687" lon="5.34267">
        <ele>491.37</ele>
        <time>2018-04-23T08:19:04Z</time>
      </trkpt>
      <trkpt lat="43.96886" lon="5.34263">
        <ele>492.33</ele>
        <time>2018-04-23T08:19:20Z</time>
      </trkpt>
      <trkpt lat="43.96901" lon="5.34264">
        <ele>493.77</ele>
        <time>2018-04-23T08:19:36Z</time>
      </trkpt>
      <trkpt lat="43.96916" lon="5.34266">
        <ele>495.22</ele>
        <time>2018-04-23T08:19:51Z</time>
      </trkpt>
      <trkpt lat="43.9693" lon="5.34272">
        <ele>496.18</ele>
        <time>2018-04-23T08:20:08Z</time>
      </trkpt>
      <trkpt lat="43.96946" lon="5.34282">
        <ele>497.62</ele>
        <time>2018-04-23T08:20:27Z</time>
      </trkpt>
      <trkpt lat="43.96958" lon="5.34295">
        <ele>499.06</ele>
        <time>2018-04-23T08:20:46Z</time>
      </trkpt>
      <trkpt lat="43.96968" lon="5.34307">
        <ele>500.5</ele>
        <time>2018-04-23T08:21:01Z</time>
      </trkpt>
      <trkpt lat="43.96978" lon="5.34318">
        <ele>501.95</ele>
        <time>2018-04-23T08:21:16Z</time>
      </trkpt>
      <trkpt lat="43.96985" lon="5.34328">
        <ele>503.39</ele>
        <time>2018-04-23T08:21:31Z</time>
      </trkpt>
      <trkpt lat="43.96994" lon="5.3434">
        <ele>504.35</ele>
        <time>2018-04-23T08:21:45Z</time>
      </trkpt>
      <trkpt lat="43.97012" lon="5.34354">
        <ele>506.27</ele>
        <time>2018-04-23T08:22:04Z</time>
      </trkpt>
      <trkpt lat="43.97019" lon="5.34368">
        <ele>507.23</ele>
        <time>2018-04-23T08:22:20Z</time>
      </trkpt>
      <trkpt lat="43.9703" lon="5.34382">
        <ele>509.16</ele>
        <time>2018-04-23T08:22:36Z</time>
      </trkpt>
      <trkpt lat="43.97037" lon="5.34398">
        <ele>510.12</ele>
        <time>2018-04-23T08:22:49Z</time>
      </trkpt>
      <trkpt lat="43.97042" lon="5.34411">
        <ele>511.56</ele>
        <time>2018-04-23T08:23:03Z</time>
      </trkpt>
      <trkpt lat="43.97044" lon="5.34414">
        <ele>512.04</ele>
        <time>2018-04-23T08:23:22Z</time>
      </trkpt>
      <trkpt lat="43.97042" lon="5.34416">
        <ele>512.04</ele>
        <time>2018-04-23T08:23:45Z</time>
      </trkpt>
      <trkpt lat="43.9704" lon="5.34416">
        <ele>512.04</ele>
        <time>2018-04-23T08:24:03Z</time>
      </trkpt>
      <trkpt lat="43.97042" lon="5.34415">
        <ele>512.04</ele>
        <time>2018-04-23T08:24:18Z</time>
      </trkpt>
      <trkpt lat="43.97045" lon="5.34414">
        <ele>512.52</ele>
        <time>2018-04-23T08:24:39Z</time>
      </trkpt>
      <trkpt lat="43.97044" lon="5.34414">
        <ele>512.52</ele>
        <time>2018-04-23T08:25:00Z</time>
      </trkpt>
      <trkpt lat="43.97048" lon="5.34415">
        <ele>512.52</ele>
        <time>2018-04-23T08:25:23Z</time>
      </trkpt>
      <trkpt lat="43.97049" lon="5.34414">
        <ele>511.56</ele>
        <time>2018-04-23T08:25:45Z</time>
      </trkpt>
      <trkpt lat="43.97048" lon="5.34416">
        <ele>511.56</ele>
        <time>2018-04-23T08:26:07Z</time>
      </trkpt>
      <trkpt lat="43.97045" lon="5.34414">
        <ele>512.04</ele>
        <time>2018-04-23T08:26:38Z</time>
      </trkpt>
      <trkpt lat="43.97047" lon="5.34414">
        <ele>512.04</ele>
        <time>2018-04-23T08:27:06Z</time>
      </trkpt>
      <trkpt lat="43.97044" lon="5.34415">
        <ele>512.04</ele>
        <time>2018-04-23T08:27:34Z</time>
      </trkpt>
      <trkpt lat="43.97047" lon="5.34414">
        <ele>512.52</ele>
        <time>2018-04-23T08:28:06Z</time>
      </trkpt>
      <trkpt lat="43.97047" lon="5.34414">
        <ele>512.52</ele>
        <time>2018-04-23T08:28:33Z</time>
      </trkpt>
      <trkpt lat="43.97047" lon="5.34416">
        <ele>512.52</ele>
        <time>2018-04-23T08:29:00Z</time>
      </trkpt>
      <trkpt lat="43.97046" lon="5.34416">
        <ele>513</ele>
        <time>2018-04-23T08:29:24Z</time>
      </trkpt>
      <trkpt lat="43.97046" lon="5.34414">
        <ele>513</ele>
        <time>2018-04-23T08:29:46Z</time>
      </trkpt>
      <trkpt lat="43.97047" lon="5.34413">
        <ele>513</ele>
        <time>2018-04-23T08:30:12Z</time>
      </trkpt>
      <trkpt lat="43.97045" lon="5.34413">
        <ele>513.48</ele>
        <time>2018-04-23T08:30:41Z</time>
      </trkpt>
      <trkpt lat="43.97045" lon="5.34415">
        <ele>513.48</ele>
        <time>2018-04-23T08:31:05Z</time>
      </trkpt>
      <trkpt lat="43.97044" lon="5.34414">
        <ele>513.48</ele>
        <time>2018-04-23T08:31:26Z</time>
      </trkpt>
      <trkpt lat="43.97045" lon="5.34413">
        <ele>513.48</ele>
        <time>2018-04-23T08:31:50Z</time>
      </trkpt>
      <trkpt lat="43.97043" lon="5.34413">
        <ele>513.96</ele>
        <time>2018-04-23T08:32:17Z</time>
      </trkpt>
      <trkpt lat="43.97043" lon="5.34412">
        <ele>513.96</ele>
        <time>2018-04-23T08:32:40Z</time>
      </trkpt>
      <trkpt lat="43.97045" lon="5.34414">
        <ele>513.96</ele>
        <time>2018-04-23T08:33:05Z</time>
      </trkpt>
      <trkpt lat="43.97042" lon="5.34413">
        <ele>513.96</ele>
        <time>2018-04-23T08:33:30Z</time>
      </trkpt>
      <trkpt lat="43.9704" lon="5.34411">
        <ele>513.96</ele>
        <time>2018-04-23T08:33:59Z</time>
      </trkpt>
      <trkpt lat="43.9704" lon="5.34411">
        <ele>514.92</ele>
        <time>2018-04-23T08:34:16Z</time>
      </trkpt>
      <trkpt lat="43.97041" lon="5.34409">
        <ele>514.92</ele>
        <time>2018-04-23T08:34:40Z</time>
      </trkpt>
      <trkpt lat="43.9704" lon="5.34409">
        <ele>513.48</ele>
        <time>2018-04-23T08:34:54Z</time>
      </trkpt>
      <trkpt lat="43.97041" lon="5.3441">
        <ele>514.92</ele>
        <time>2018-04-23T08:34:56Z</time>
      </trkpt>
      <trkpt lat="43.97044" lon="5.34418">
        <ele>514.92</ele>
        <time>2018-04-23T08:35:16Z</time>
      </trkpt>
      <trkpt lat="43.97045" lon="5.34424">
        <ele>515.88</ele>
        <time>2018-04-23T08:35:35Z</time>
      </trkpt>
      <trkpt lat="43.97049" lon="5.34435">
        <ele>515.88</ele>
        <time>2018-04-23T08:35:50Z</time>
      </trkpt>
      <trkpt lat="43.97054" lon="5.34447">
        <ele>517.33</ele>
        <time>2018-04-23T08:36:03Z</time>
      </trkpt>
      <trkpt lat="43.97058" lon="5.34461">
        <ele>518.29</ele>
        <time>2018-04-23T08:36:17Z</time>
      </trkpt>
      <trkpt lat="43.97064" lon="5.34474">
        <ele>519.25</ele>
        <time>2018-04-23T08:36:30Z</time>
      </trkpt>
      <trkpt lat="43.97067" lon="5.34483">
        <ele>519.73</ele>
        <time>2018-04-23T08:36:42Z</time>
      </trkpt>
      <trkpt lat="43.97073" lon="5.34498">
        <ele>521.17</ele>
        <time>2018-04-23T08:36:57Z</time>
      </trkpt>
      <trkpt lat="43.97079" lon="5.34515">
        <ele>522.61</ele>
        <time>2018-04-23T08:37:11Z</time>
      </trkpt>
      <trkpt lat="43.97084" lon="5.34528">
        <ele>524.06</ele>
        <time>2018-04-23T08:37:25Z</time>
      </trkpt>
      <trkpt lat="43.97089" lon="5.34544">
        <ele>525.5</ele>
        <time>2018-04-23T08:37:40Z</time>
      </trkpt>
      <trkpt lat="43.97093" lon="5.34557">
        <ele>526.94</ele>
        <time>2018-04-23T08:37:53Z</time>
      </trkpt>
      <trkpt lat="43.97099" lon="5.34567">
        <ele>527.9</ele>
        <time>2018-04-23T08:38:05Z</time>
      </trkpt>
      <trkpt lat="43.97105" lon="5.3458">
        <ele>529.34</ele>
        <time>2018-04-23T08:38:18Z</time>
      </trkpt>
      <trkpt lat="43.97097" lon="5.3458">
        <ele>530.79</ele>
        <time>2018-04-23T08:38:31Z</time>
      </trkpt>
      <trkpt lat="43.97094" lon="5.34577">
        <ele>530.79</ele>
        <time>2018-04-23T08:38:35Z</time>
      </trkpt>
      <trkpt lat="43.97081" lon="5.34568">
        <ele>531.27</ele>
        <time>2018-04-23T08:38:50Z</time>
      </trkpt>
      <trkpt lat="43.97074" lon="5.3456">
        <ele>532.23</ele>
        <time>2018-04-23T08:39:04Z</time>
      </trkpt>
      <trkpt lat="43.97073" lon="5.3456">
        <ele>532.23</ele>
        <time>2018-04-23T08:39:25Z</time>
      </trkpt>
      <trkpt lat="43.9706" lon="5.34551">
        <ele>532.71</ele>
        <time>2018-04-23T08:39:40Z</time>
      </trkpt>
      <trkpt lat="43.97057" lon="5.34561">
        <ele>533.67</ele>
        <time>2018-04-23T08:39:53Z</time>
      </trkpt>
      <trkpt lat="43.97064" lon="5.34573">
        <ele>535.59</ele>
        <time>2018-04-23T08:40:06Z</time>
      </trkpt>
      <trkpt lat="43.97068" lon="5.34583">
        <ele>536.55</ele>
        <time>2018-04-23T08:40:19Z</time>
      </trkpt>
      <trkpt lat="43.97074" lon="5.34596">
        <ele>538.48</ele>
        <time>2018-04-23T08:40:34Z</time>
      </trkpt>
      <trkpt lat="43.97081" lon="5.3461">
        <ele>538.96</ele>
        <time>2018-04-23T08:40:49Z</time>
      </trkpt>
      <trkpt lat="43.97084" lon="5.34615">
        <ele>539.44</ele>
        <time>2018-04-23T08:40:55Z</time>
      </trkpt>
      <trkpt lat="43.97092" lon="5.34631">
        <ele>540.88</ele>
        <time>2018-04-23T08:41:10Z</time>
      </trkpt>
      <trkpt lat="43.97099" lon="5.34643">
        <ele>541.84</ele>
        <time>2018-04-23T08:41:23Z</time>
      </trkpt>
      <trkpt lat="43.97107" lon="5.34656">
        <ele>542.8</ele>
        <time>2018-04-23T08:41:38Z</time>
      </trkpt>
      <trkpt lat="43.97114" lon="5.34668">
        <ele>544.72</ele>
        <time>2018-04-23T08:41:52Z</time>
      </trkpt>
      <trkpt lat="43.97122" lon="5.34679">
        <ele>545.2</ele>
        <time>2018-04-23T08:42:04Z</time>
      </trkpt>
      <trkpt lat="43.97128" lon="5.34689">
        <ele>546.17</ele>
        <time>2018-04-23T08:42:17Z</time>
      </trkpt>
      <trkpt lat="43.97133" lon="5.34702">
        <ele>547.13</ele>
        <time>2018-04-23T08:42:31Z</time>
      </trkpt>
      <trkpt lat="43.97134" lon="5.34711">
        <ele>548.09</ele>
        <time>2018-04-23T08:42:39Z</time>
      </trkpt>
      <trkpt lat="43.97135" lon="5.34716">
        <ele>549.05</ele>
        <time>2018-04-23T08:42:43Z</time>
      </trkpt>
      <trkpt lat="43.97141" lon="5.34732">
        <ele>549.05</ele>
        <time>2018-04-23T08:42:59Z</time>
      </trkpt>
      <trkpt lat="43.97142" lon="5.3474">
        <ele>550.01</ele>
        <time>2018-04-23T08:43:05Z</time>
      </trkpt>
      <trkpt lat="43.97147" lon="5.34754">
        <ele>550.97</ele>
        <time>2018-04-23T08:43:16Z</time>
      </trkpt>
      <trkpt lat="43.97155" lon="5.34768">
        <ele>551.45</ele>
        <time>2018-04-23T08:43:30Z</time>
      </trkpt>
      <trkpt lat="43.97163" lon="5.34784">
        <ele>551.45</ele>
        <time>2018-04-23T08:43:44Z</time>
      </trkpt>
      <trkpt lat="43.97171" lon="5.34802">
        <ele>552.41</ele>
        <time>2018-04-23T08:43:59Z</time>
      </trkpt>
      <trkpt lat="43.97178" lon="5.34817">
        <ele>553.86</ele>
        <time>2018-04-23T08:44:12Z</time>
      </trkpt>
      <trkpt lat="43.9718" lon="5.34822">
        <ele>554.34</ele>
        <time>2018-04-23T08:44:16Z</time>
      </trkpt>
      <trkpt lat="43.97186" lon="5.34835">
        <ele>554.82</ele>
        <time>2018-04-23T08:44:28Z</time>
      </trkpt>
      <trkpt lat="43.97194" lon="5.3485">
        <ele>555.3</ele>
        <time>2018-04-23T08:44:42Z</time>
      </trkpt>
      <trkpt lat="43.97198" lon="5.34857">
        <ele>555.78</ele>
        <time>2018-04-23T08:44:48Z</time>
      </trkpt>
      <trkpt lat="43.97205" lon="5.34874">
        <ele>556.74</ele>
        <time>2018-04-23T08:45:02Z</time>
      </trkpt>
      <trkpt lat="43.97209" lon="5.34886">
        <ele>556.74</ele>
        <time>2018-04-23T08:45:16Z</time>
      </trkpt>
      <trkpt lat="43.97215" lon="5.34892">
        <ele>557.22</ele>
        <time>2018-04-23T08:45:31Z</time>
      </trkpt>
      <trkpt lat="43.97215" lon="5.34891">
        <ele>558.66</ele>
        <time>2018-04-23T08:45:36Z</time>
      </trkpt>
      <trkpt lat="43.97213" lon="5.34899">
        <ele>558.66</ele>
        <time>2018-04-23T08:45:50Z</time>
      </trkpt>
      <trkpt lat="43.97216" lon="5.34902">
        <ele>558.66</ele>
        <time>2018-04-23T08:46:10Z</time>
      </trkpt>
      <trkpt lat="43.97216" lon="5.34898">
        <ele>558.66</ele>
        <time>2018-04-23T08:46:28Z</time>
      </trkpt>
      <trkpt lat="43.97214" lon="5.34896">
        <ele>558.66</ele>
        <time>2018-04-23T08:46:50Z</time>
      </trkpt>
      <trkpt lat="43.97214" lon="5.34897">
        <ele>559.14</ele>
        <time>2018-04-23T08:47:15Z</time>
      </trkpt>
      <trkpt lat="43.97213" lon="5.34898">
        <ele>559.14</ele>
        <time>2018-04-23T08:47:33Z</time>
      </trkpt>
      <trkpt lat="43.97214" lon="5.34899">
        <ele>559.14</ele>
        <time>2018-04-23T08:47:49Z</time>
      </trkpt>
      <trkpt lat="43.97218" lon="5.34913">
        <ele>559.14</ele>
        <time>2018-04-23T08:48:05Z</time>
      </trkpt>
      <trkpt lat="43.97217" lon="5.34912">
        <ele>559.14</ele>
        <time>2018-04-23T08:48:28Z</time>
      </trkpt>
      <trkpt lat="43.97217" lon="5.34912">
        <ele>559.14</ele>
        <time>2018-04-23T08:48:45Z</time>
      </trkpt>
      <trkpt lat="43.97216" lon="5.34911">
        <ele>559.14</ele>
        <time>2018-04-23T08:49:09Z</time>
      </trkpt>
      <trkpt lat="43.97221" lon="5.34919">
        <ele>559.62</ele>
        <time>2018-04-23T08:49:25Z</time>
      </trkpt>
      <trkpt lat="43.9723" lon="5.34935">
        <ele>560.59</ele>
        <time>2018-04-23T08:49:41Z</time>
      </trkpt>
      <trkpt lat="43.97233" lon="5.34953">
        <ele>561.55</ele>
        <time>2018-04-23T08:49:57Z</time>
      </trkpt>
      <trkpt lat="43.97229" lon="5.34971">
        <ele>562.51</ele>
        <time>2018-04-23T08:50:14Z</time>
      </trkpt>
      <trkpt lat="43.97223" lon="5.34994">
        <ele>562.51</ele>
        <time>2018-04-23T08:50:33Z</time>
      </trkpt>
      <trkpt lat="43.97224" lon="5.35009">
        <ele>562.99</ele>
        <time>2018-04-23T08:50:50Z</time>
      </trkpt>
      <trkpt lat="43.97228" lon="5.35021">
        <ele>562.99</ele>
        <time>2018-04-23T08:51:09Z</time>
      </trkpt>
      <trkpt lat="43.97229" lon="5.35043">
        <ele>564.43</ele>
        <time>2018-04-23T08:51:25Z</time>
      </trkpt>
      <trkpt lat="43.97228" lon="5.35056">
        <ele>564.43</ele>
        <time>2018-04-23T08:51:34Z</time>
      </trkpt>
      <trkpt lat="43.97228" lon="5.35059">
        <ele>567.32</ele>
        <time>2018-04-23T08:51:36Z</time>
      </trkpt>
      <trkpt lat="43.97228" lon="5.35062">
        <ele>563.95</ele>
        <time>2018-04-23T08:51:37Z</time>
      </trkpt>
      <trkpt lat="43.97228" lon="5.35081">
        <ele>563.95</ele>
        <time>2018-04-23T08:51:51Z</time>
      </trkpt>
      <trkpt lat="43.97228" lon="5.35081">
        <ele>567.8</ele>
        <time>2018-04-23T08:51:56Z</time>
      </trkpt>
      <trkpt lat="43.97227" lon="5.35079">
        <ele>564.91</ele>
        <time>2018-04-23T08:52:10Z</time>
      </trkpt>
      <trkpt lat="43.97224" lon="5.35076">
        <ele>564.43</ele>
        <time>2018-04-23T08:52:29Z</time>
      </trkpt>
      <trkpt lat="43.97221" lon="5.35079">
        <ele>563.95</ele>
        <time>2018-04-23T08:52:35Z</time>
      </trkpt>
      <trkpt lat="43.97217" lon="5.35084">
        <ele>562.51</ele>
        <time>2018-04-23T08:52:38Z</time>
      </trkpt>
      <trkpt lat="43.97215" lon="5.35085">
        <ele>562.51</ele>
        <time>2018-04-23T08:52:39Z</time>
      </trkpt>
      <trkpt lat="43.97218" lon="5.35085">
        <ele>562.51</ele>
        <time>2018-04-23T08:52:42Z</time>
      </trkpt>
      <trkpt lat="43.97219" lon="5.3508">
        <ele>564.43</ele>
        <time>2018-04-23T08:52:46Z</time>
      </trkpt>
      <trkpt lat="43.97217" lon="5.35083">
        <ele>562.03</ele>
        <time>2018-04-23T08:52:54Z</time>
      </trkpt>
      <trkpt lat="43.97216" lon="5.35084">
        <ele>566.35</ele>
        <time>2018-04-23T08:52:55Z</time>
      </trkpt>
      <trkpt lat="43.97212" lon="5.35084">
        <ele>562.99</ele>
        <time>2018-04-23T08:52:59Z</time>
      </trkpt>
      <trkpt lat="43.97202" lon="5.35082">
        <ele>562.51</ele>
        <time>2018-04-23T08:53:15Z</time>
      </trkpt>
      <trkpt lat="43.972" lon="5.35082">
        <ele>561.55</ele>
        <time>2018-04-23T08:53:19Z</time>
      </trkpt>
      <trkpt lat="43.97196" lon="5.3508">
        <ele>560.11</ele>
        <time>2018-04-23T08:53:24Z</time>
      </trkpt>
      <trkpt lat="43.97187" lon="5.35086">
        <ele>559.62</ele>
        <time>2018-04-23T08:53:38Z</time>
      </trkpt>
      <trkpt lat="43.97185" lon="5.35101">
        <ele>559.14</ele>
        <time>2018-04-23T08:53:54Z</time>
      </trkpt>
      <trkpt lat="43.97189" lon="5.35109">
        <ele>559.62</ele>
        <time>2018-04-23T08:54:12Z</time>
      </trkpt>
      <trkpt lat="43.97194" lon="5.35127">
        <ele>560.59</ele>
        <time>2018-04-23T08:54:30Z</time>
      </trkpt>
      <trkpt lat="43.972" lon="5.35144">
        <ele>563.47</ele>
        <time>2018-04-23T08:54:45Z</time>
      </trkpt>
      <trkpt lat="43.972" lon="5.35146">
        <ele>561.55</ele>
        <time>2018-04-23T08:54:47Z</time>
      </trkpt>
      <trkpt lat="43.97202" lon="5.35168">
        <ele>562.99</ele>
        <time>2018-04-23T08:55:04Z</time>
      </trkpt>
      <trkpt lat="43.97206" lon="5.35187">
        <ele>563.47</ele>
        <time>2018-04-23T08:55:23Z</time>
      </trkpt>
      <trkpt lat="43.9721" lon="5.35205">
        <ele>563.95</ele>
        <time>2018-04-23T08:55:40Z</time>
      </trkpt>
      <trkpt lat="43.97215" lon="5.35228">
        <ele>564.43</ele>
        <time>2018-04-23T08:55:58Z</time>
      </trkpt>
      <trkpt lat="43.9722" lon="5.35253">
        <ele>564.91</ele>
        <time>2018-04-23T08:56:16Z</time>
      </trkpt>
      <trkpt lat="43.97227" lon="5.35275">
        <ele>564.43</ele>
        <time>2018-04-23T08:56:36Z</time>
      </trkpt>
      <trkpt lat="43.97229" lon="5.35284">
        <ele>564.43</ele>
        <time>2018-04-23T08:57:03Z</time>
      </trkpt>
      <trkpt lat="43.97229" lon="5.35287">
        <ele>564.43</ele>
        <time>2018-04-23T08:57:35Z</time>
      </trkpt>
      <trkpt lat="43.97234" lon="5.35297">
        <ele>564.43</ele>
        <time>2018-04-23T08:57:51Z</time>
      </trkpt>
      <trkpt lat="43.97243" lon="5.35312">
        <ele>564.43</ele>
        <time>2018-04-23T08:58:08Z</time>
      </trkpt>
      <trkpt lat="43.97246" lon="5.35327">
        <ele>562.99</ele>
        <time>2018-04-23T08:58:24Z</time>
      </trkpt>
      <trkpt lat="43.97232" lon="5.35339">
        <ele>561.55</ele>
        <time>2018-04-23T08:58:42Z</time>
      </trkpt>
      <trkpt lat="43.97231" lon="5.35339">
        <ele>561.55</ele>
        <time>2018-04-23T08:58:43Z</time>
      </trkpt>
      <trkpt lat="43.9722" lon="5.35352">
        <ele>560.59</ele>
        <time>2018-04-23T08:59:00Z</time>
      </trkpt>
      <trkpt lat="43.9722" lon="5.35376">
        <ele>560.11</ele>
        <time>2018-04-23T08:59:19Z</time>
      </trkpt>
      <trkpt lat="43.97229" lon="5.35401">
        <ele>558.66</ele>
        <time>2018-04-23T08:59:40Z</time>
      </trkpt>
      <trkpt lat="43.97239" lon="5.35415">
        <ele>557.22</ele>
        <time>2018-04-23T08:59:57Z</time>
      </trkpt>
      <trkpt lat="43.9725" lon="5.35423">
        <ele>555.3</ele>
        <time>2018-04-23T09:00:13Z</time>
      </trkpt>
      <trkpt lat="43.97252" lon="5.35435">
        <ele>554.34</ele>
        <time>2018-04-23T09:00:28Z</time>
      </trkpt>
      <trkpt lat="43.9725" lon="5.35442">
        <ele>554.34</ele>
        <time>2018-04-23T09:00:46Z</time>
      </trkpt>
      <trkpt lat="43.97236" lon="5.35448">
        <ele>554.34</ele>
        <time>2018-04-23T09:01:04Z</time>
      </trkpt>
      <trkpt lat="43.97222" lon="5.35442">
        <ele>556.26</ele>
        <time>2018-04-23T09:01:24Z</time>
      </trkpt>
      <trkpt lat="43.97208" lon="5.35439">
        <ele>557.7</ele>
        <time>2018-04-23T09:01:39Z</time>
      </trkpt>
      <trkpt lat="43.97196" lon="5.35456">
        <ele>558.66</ele>
        <time>2018-04-23T09:01:55Z</time>
      </trkpt>
      <trkpt lat="43.97197" lon="5.35471">
        <ele>560.11</ele>
        <time>2018-04-23T09:02:11Z</time>
      </trkpt>
      <trkpt lat="43.97205" lon="5.35485">
        <ele>562.03</ele>
        <time>2018-04-23T09:02:29Z</time>
      </trkpt>
      <trkpt lat="43.9722" lon="5.35482">
        <ele>562.99</ele>
        <time>2018-04-23T09:02:43Z</time>
      </trkpt>
      <trkpt lat="43.97232" lon="5.35485">
        <ele>564.91</ele>
        <time>2018-04-23T09:03:01Z</time>
      </trkpt>
      <trkpt lat="43.97234" lon="5.35502">
        <ele>566.35</ele>
        <time>2018-04-23T09:03:18Z</time>
      </trkpt>
      <trkpt lat="43.97237" lon="5.35521">
        <ele>568.28</ele>
        <time>2018-04-23T09:03:36Z</time>
      </trkpt>
      <trkpt lat="43.97243" lon="5.35538">
        <ele>569.24</ele>
        <time>2018-04-23T09:03:51Z</time>
      </trkpt>
      <trkpt lat="43.97242" lon="5.3554">
        <ele>569.72</ele>
        <time>2018-04-23T09:04:08Z</time>
      </trkpt>
      <trkpt lat="43.97242" lon="5.35541">
        <ele>569.72</ele>
        <time>2018-04-23T09:04:27Z</time>
      </trkpt>
      <trkpt lat="43.97243" lon="5.35542">
        <ele>568.76</ele>
        <time>2018-04-23T09:04:43Z</time>
      </trkpt>
      <trkpt lat="43.97243" lon="5.35541">
        <ele>572.12</ele>
        <time>2018-04-23T09:04:44Z</time>
      </trkpt>
      <trkpt lat="43.97246" lon="5.35549">
        <ele>569.72</ele>
        <time>2018-04-23T09:04:56Z</time>
      </trkpt>
      <trkpt lat="43.97249" lon="5.35555">
        <ele>571.16</ele>
        <time>2018-04-23T09:05:03Z</time>
      </trkpt>
      <trkpt lat="43.9726" lon="5.35577">
        <ele>572.12</ele>
        <time>2018-04-23T09:05:23Z</time>
      </trkpt>
      <trkpt lat="43.97269" lon="5.35598">
        <ele>574.04</ele>
        <time>2018-04-23T09:05:41Z</time>
      </trkpt>
      <trkpt lat="43.97275" lon="5.35623">
        <ele>575.49</ele>
        <time>2018-04-23T09:06:02Z</time>
      </trkpt>
      <trkpt lat="43.97277" lon="5.35648">
        <ele>575.97</ele>
        <time>2018-04-23T09:06:21Z</time>
      </trkpt>
      <trkpt lat="43.97271" lon="5.35659">
        <ele>576.45</ele>
        <time>2018-04-23T09:06:35Z</time>
      </trkpt>
      <trkpt lat="43.9726" lon="5.35674">
        <ele>577.89</ele>
        <time>2018-04-23T09:06:53Z</time>
      </trkpt>
      <trkpt lat="43.97254" lon="5.35692">
        <ele>578.85</ele>
        <time>2018-04-23T09:07:07Z</time>
      </trkpt>
      <trkpt lat="43.97252" lon="5.35715">
        <ele>580.77</ele>
        <time>2018-04-23T09:07:24Z</time>
      </trkpt>
      <trkpt lat="43.97251" lon="5.35736">
        <ele>582.22</ele>
        <time>2018-04-23T09:07:41Z</time>
      </trkpt>
      <trkpt lat="43.9725" lon="5.35754">
        <ele>584.14</ele>
        <time>2018-04-23T09:07:57Z</time>
      </trkpt>
      <trkpt lat="43.97246" lon="5.35776">
        <ele>585.1</ele>
        <time>2018-04-23T09:08:15Z</time>
      </trkpt>
      <trkpt lat="43.97241" lon="5.358">
        <ele>586.06</ele>
        <time>2018-04-23T09:08:32Z</time>
      </trkpt>
      <trkpt lat="43.9724" lon="5.35822">
        <ele>587.5</ele>
        <time>2018-04-23T09:08:50Z</time>
      </trkpt>
      <trkpt lat="43.97239" lon="5.3584">
        <ele>588.95</ele>
        <time>2018-04-23T09:09:05Z</time>
      </trkpt>
      <trkpt lat="43.97239" lon="5.35865">
        <ele>590.39</ele>
        <time>2018-04-23T09:09:24Z</time>
      </trkpt>
      <trkpt lat="43.9724" lon="5.3589">
        <ele>591.35</ele>
        <time>2018-04-23T09:09:42Z</time>
      </trkpt>
      <trkpt lat="43.97242" lon="5.35917">
        <ele>591.35</ele>
        <time>2018-04-23T09:10:02Z</time>
      </trkpt>
      <trkpt lat="43.97244" lon="5.3594">
        <ele>591.35</ele>
        <time>2018-04-23T09:10:19Z</time>
      </trkpt>
      <trkpt lat="43.97247" lon="5.35966">
        <ele>591.35</ele>
        <time>2018-04-23T09:10:39Z</time>
      </trkpt>
      <trkpt lat="43.97248" lon="5.35967">
        <ele>594.23</ele>
        <time>2018-04-23T09:10:43Z</time>
      </trkpt>
      <trkpt lat="43.97249" lon="5.3597">
        <ele>591.35</ele>
        <time>2018-04-23T09:10:52Z</time>
      </trkpt>
      <trkpt lat="43.97247" lon="5.35979">
        <ele>592.31</ele>
        <time>2018-04-23T09:11:07Z</time>
      </trkpt>
      <trkpt lat="43.97247" lon="5.35979">
        <ele>592.31</ele>
        <time>2018-04-23T09:11:08Z</time>
      </trkpt>
      <trkpt lat="43.9724" lon="5.35978">
        <ele>592.31</ele>
        <time>2018-04-23T09:11:23Z</time>
      </trkpt>
      <trkpt lat="43.9724" lon="5.35977">
        <ele>592.31</ele>
        <time>2018-04-23T09:11:43Z</time>
      </trkpt>
      <trkpt lat="43.97242" lon="5.35981">
        <ele>592.79</ele>
        <time>2018-04-23T09:12:16Z</time>
      </trkpt>
      <trkpt lat="43.97244" lon="5.35979">
        <ele>593.27</ele>
        <time>2018-04-23T09:12:50Z</time>
      </trkpt>
      <trkpt lat="43.97242" lon="5.35979">
        <ele>593.27</ele>
        <time>2018-04-23T09:13:12Z</time>
      </trkpt>
      <trkpt lat="43.97245" lon="5.35977">
        <ele>592.79</ele>
        <time>2018-04-23T09:13:38Z</time>
      </trkpt>
      <trkpt lat="43.97247" lon="5.35978">
        <ele>592.79</ele>
        <time>2018-04-23T09:13:59Z</time>
      </trkpt>
      <trkpt lat="43.97252" lon="5.35982">
        <ele>592.79</ele>
        <time>2018-04-23T09:14:15Z</time>
      </trkpt>
      <trkpt lat="43.97252" lon="5.35983">
        <ele>592.31</ele>
        <time>2018-04-23T09:14:33Z</time>
      </trkpt>
      <trkpt lat="43.9725" lon="5.35979">
        <ele>592.31</ele>
        <time>2018-04-23T09:15:01Z</time>
      </trkpt>
      <trkpt lat="43.97243" lon="5.35981">
        <ele>592.79</ele>
        <time>2018-04-23T09:15:24Z</time>
      </trkpt>
      <trkpt lat="43.97242" lon="5.35985">
        <ele>593.27</ele>
        <time>2018-04-23T09:15:52Z</time>
      </trkpt>
      <trkpt lat="43.97241" lon="5.35985">
        <ele>593.27</ele>
        <time>2018-04-23T09:16:10Z</time>
      </trkpt>
      <trkpt lat="43.9724" lon="5.35984">
        <ele>587.98</ele>
        <time>2018-04-23T09:16:26Z</time>
      </trkpt>
      <trkpt lat="43.9724" lon="5.35984">
        <ele>599.04</ele>
        <time>2018-04-23T09:16:27Z</time>
      </trkpt>
      <trkpt lat="43.9724" lon="5.35984">
        <ele>593.27</ele>
        <time>2018-04-23T09:16:28Z</time>
      </trkpt>
      <trkpt lat="43.9724" lon="5.35981">
        <ele>593.27</ele>
        <time>2018-04-23T09:16:53Z</time>
      </trkpt>
      <trkpt lat="43.97241" lon="5.35981">
        <ele>593.27</ele>
        <time>2018-04-23T09:17:20Z</time>
      </trkpt>
      <trkpt lat="43.97239" lon="5.35975">
        <ele>593.75</ele>
        <time>2018-04-23T09:17:55Z</time>
      </trkpt>
      <trkpt lat="43.9724" lon="5.35973">
        <ele>593.75</ele>
        <time>2018-04-23T09:18:30Z</time>
      </trkpt>
      <trkpt lat="43.97241" lon="5.35975">
        <ele>593.75</ele>
        <time>2018-04-23T09:18:55Z</time>
      </trkpt>
      <trkpt lat="43.97241" lon="5.35975">
        <ele>593.75</ele>
        <time>2018-04-23T09:19:17Z</time>
      </trkpt>
      <trkpt lat="43.97241" lon="5.35975">
        <ele>593.75</ele>
        <time>2018-04-23T09:19:49Z</time>
      </trkpt>
      <trkpt lat="43.9724" lon="5.35974">
        <ele>594.23</ele>
        <time>2018-04-23T09:20:18Z</time>
      </trkpt>
      <trkpt lat="43.9724" lon="5.35974">
        <ele>594.23</ele>
        <time>2018-04-23T09:20:35Z</time>
      </trkpt>
      <trkpt lat="43.97231" lon="5.35971">
        <ele>594.23</ele>
        <time>2018-04-23T09:20:52Z</time>
      </trkpt>
      <trkpt lat="43.97224" lon="5.35966">
        <ele>595.67</ele>
        <time>2018-04-23T09:21:02Z</time>
      </trkpt>
      <trkpt lat="43.9721" lon="5.35951">
        <ele>595.67</ele>
        <time>2018-04-23T09:21:25Z</time>
      </trkpt>
      <trkpt lat="43.97201" lon="5.35938">
        <ele>595.67</ele>
        <time>2018-04-23T09:21:43Z</time>
      </trkpt>
      <trkpt lat="43.97186" lon="5.35917">
        <ele>596.15</ele>
        <time>2018-04-23T09:22:04Z</time>
      </trkpt>
      <trkpt lat="43.97176" lon="5.359">
        <ele>596.64</ele>
        <time>2018-04-23T09:22:21Z</time>
      </trkpt>
      <trkpt lat="43.97169" lon="5.35882">
        <ele>595.19</ele>
        <time>2018-04-23T09:22:37Z</time>
      </trkpt>
      <trkpt lat="43.97164" lon="5.35865">
        <ele>594.23</ele>
        <time>2018-04-23T09:22:52Z</time>
      </trkpt>
      <trkpt lat="43.97156" lon="5.35846">
        <ele>593.75</ele>
        <time>2018-04-23T09:23:09Z</time>
      </trkpt>
      <trkpt lat="43.97149" lon="5.35833">
        <ele>593.75</ele>
        <time>2018-04-23T09:23:24Z</time>
      </trkpt>
      <trkpt lat="43.97143" lon="5.35821">
        <ele>593.75</ele>
        <time>2018-04-23T09:23:40Z</time>
      </trkpt>
      <trkpt lat="43.97141" lon="5.35818">
        <ele>595.19</ele>
        <time>2018-04-23T09:23:45Z</time>
      </trkpt>
      <trkpt lat="43.97134" lon="5.35795">
        <ele>595.19</ele>
        <time>2018-04-23T09:24:02Z</time>
      </trkpt>
      <trkpt lat="43.97125" lon="5.35777">
        <ele>595.19</ele>
        <time>2018-04-23T09:24:16Z</time>
      </trkpt>
      <trkpt lat="43.97114" lon="5.35756">
        <ele>594.71</ele>
        <time>2018-04-23T09:24:35Z</time>
      </trkpt>
      <trkpt lat="43.97108" lon="5.35744">
        <ele>595.67</ele>
        <time>2018-04-23T09:24:49Z</time>
      </trkpt>
      <trkpt lat="43.971" lon="5.35729">
        <ele>596.64</ele>
        <time>2018-04-23T09:25:05Z</time>
      </trkpt>
      <trkpt lat="43.97091" lon="5.35715">
        <ele>597.12</ele>
        <time>2018-04-23T09:25:22Z</time>
      </trkpt>
      <trkpt lat="43.97084" lon="5.35702">
        <ele>597.12</ele>
        <time>2018-04-23T09:25:35Z</time>
      </trkpt>
      <trkpt lat="43.97078" lon="5.35686">
        <ele>596.15</ele>
        <time>2018-04-23T09:25:46Z</time>
      </trkpt>
      <trkpt lat="43.97068" lon="5.35665">
        <ele>595.19</ele>
        <time>2018-04-23T09:26:00Z</time>
      </trkpt>
      <trkpt lat="43.97058" lon="5.35648">
        <ele>595.19</ele>
        <time>2018-04-23T09:26:16Z</time>
      </trkpt>
      <trkpt lat="43.97049" lon="5.35627">
        <ele>595.19</ele>
        <time>2018-04-23T09:26:32Z</time>
      </trkpt>
      <trkpt lat="43.97046" lon="5.35627">
        <ele>597.12</ele>
        <time>2018-04-23T09:26:44Z</time>
      </trkpt>
      <trkpt lat="43.97046" lon="5.3563">
        <ele>594.71</ele>
        <time>2018-04-23T09:27:07Z</time>
      </trkpt>
      <trkpt lat="43.97045" lon="5.35624">
        <ele>594.71</ele>
        <time>2018-04-23T09:27:28Z</time>
      </trkpt>
      <trkpt lat="43.97038" lon="5.35615">
        <ele>595.19</ele>
        <time>2018-04-23T09:27:44Z</time>
      </trkpt>
      <trkpt lat="43.97028" lon="5.35607">
        <ele>595.19</ele>
        <time>2018-04-23T09:28:00Z</time>
      </trkpt>
      <trkpt lat="43.97015" lon="5.35594">
        <ele>594.71</ele>
        <time>2018-04-23T09:28:18Z</time>
      </trkpt>
      <trkpt lat="43.97004" lon="5.35581">
        <ele>593.75</ele>
        <time>2018-04-23T09:28:34Z</time>
      </trkpt>
      <trkpt lat="43.96993" lon="5.35567">
        <ele>592.31</ele>
        <time>2018-04-23T09:28:49Z</time>
      </trkpt>
      <trkpt lat="43.96977" lon="5.35549">
        <ele>592.31</ele>
        <time>2018-04-23T09:29:07Z</time>
      </trkpt>
      <trkpt lat="43.96965" lon="5.35534">
        <ele>595.19</ele>
        <time>2018-04-23T09:29:25Z</time>
      </trkpt>
      <trkpt lat="43.96965" lon="5.35528">
        <ele>593.75</ele>
        <time>2018-04-23T09:29:31Z</time>
      </trkpt>
      <trkpt lat="43.96957" lon="5.35518">
        <ele>592.79</ele>
        <time>2018-04-23T09:29:47Z</time>
      </trkpt>
      <trkpt lat="43.96956" lon="5.35518">
        <ele>594.23</ele>
        <time>2018-04-23T09:29:49Z</time>
      </trkpt>
      <trkpt lat="43.96945" lon="5.35505">
        <ele>596.15</ele>
        <time>2018-04-23T09:30:06Z</time>
      </trkpt>
      <trkpt lat="43.96936" lon="5.35487">
        <ele>596.15</ele>
        <time>2018-04-23T09:30:24Z</time>
      </trkpt>
      <trkpt lat="43.96934" lon="5.35481">
        <ele>596.15</ele>
        <time>2018-04-23T09:30:40Z</time>
      </trkpt>
      <trkpt lat="43.9693" lon="5.35473">
        <ele>596.15</ele>
        <time>2018-04-23T09:31:03Z</time>
      </trkpt>
      <trkpt lat="43.96928" lon="5.35465">
        <ele>596.15</ele>
        <time>2018-04-23T09:31:21Z</time>
      </trkpt>
      <trkpt lat="43.96927" lon="5.35462">
        <ele>594.71</ele>
        <time>2018-04-23T09:31:32Z</time>
      </trkpt>
      <trkpt lat="43.96927" lon="5.35462">
        <ele>595.67</ele>
        <time>2018-04-23T09:31:35Z</time>
      </trkpt>
      <trkpt lat="43.96924" lon="5.35459">
        <ele>594.71</ele>
        <time>2018-04-23T09:31:48Z</time>
      </trkpt>
      <trkpt lat="43.96916" lon="5.3545">
        <ele>594.71</ele>
        <time>2018-04-23T09:32:05Z</time>
      </trkpt>
      <trkpt lat="43.96908" lon="5.35438">
        <ele>596.15</ele>
        <time>2018-04-23T09:32:22Z</time>
      </trkpt>
      <trkpt lat="43.96901" lon="5.35423">
        <ele>596.64</ele>
        <time>2018-04-23T09:32:37Z</time>
      </trkpt>
      <trkpt lat="43.96892" lon="5.35412">
        <ele>591.35</ele>
        <time>2018-04-23T09:32:55Z</time>
      </trkpt>
      <trkpt lat="43.96892" lon="5.35412">
        <ele>597.12</ele>
        <time>2018-04-23T09:32:56Z</time>
      </trkpt>
      <trkpt lat="43.96893" lon="5.35412">
        <ele>600.96</ele>
        <time>2018-04-23T09:32:57Z</time>
      </trkpt>
      <trkpt lat="43.96892" lon="5.35411">
        <ele>597.6</ele>
        <time>2018-04-23T09:32:58Z</time>
      </trkpt>
      <trkpt lat="43.96886" lon="5.35399">
        <ele>597.12</ele>
        <time>2018-04-23T09:33:13Z</time>
      </trkpt>
      <trkpt lat="43.96877" lon="5.35383">
        <ele>598.08</ele>
        <time>2018-04-23T09:33:30Z</time>
      </trkpt>
      <trkpt lat="43.96867" lon="5.35365">
        <ele>599.04</ele>
        <time>2018-04-23T09:33:47Z</time>
      </trkpt>
      <trkpt lat="43.96856" lon="5.35344">
        <ele>600.48</ele>
        <time>2018-04-23T09:34:04Z</time>
      </trkpt>
      <trkpt lat="43.96844" lon="5.35322">
        <ele>601.44</ele>
        <time>2018-04-23T09:34:25Z</time>
      </trkpt>
      <trkpt lat="43.96833" lon="5.35308">
        <ele>602.4</ele>
        <time>2018-04-23T09:34:43Z</time>
      </trkpt>
      <trkpt lat="43.96823" lon="5.35288">
        <ele>603.85</ele>
        <time>2018-04-23T09:35:01Z</time>
      </trkpt>
      <trkpt lat="43.96813" lon="5.35269">
        <ele>604.81</ele>
        <time>2018-04-23T09:35:18Z</time>
      </trkpt>
      <trkpt lat="43.96803" lon="5.3525">
        <ele>606.73</ele>
        <time>2018-04-23T09:35:37Z</time>
      </trkpt>
      <trkpt lat="43.96793" lon="5.35233">
        <ele>608.17</ele>
        <time>2018-04-23T09:35:54Z</time>
      </trkpt>
      <trkpt lat="43.96788" lon="5.35223">
        <ele>608.65</ele>
        <time>2018-04-23T09:36:13Z</time>
      </trkpt>
      <trkpt lat="43.96787" lon="5.35222">
        <ele>608.65</ele>
        <time>2018-04-23T09:36:38Z</time>
      </trkpt>
      <trkpt lat="43.96786" lon="5.35219">
        <ele>608.65</ele>
        <time>2018-04-23T09:36:52Z</time>
      </trkpt>
      <trkpt lat="43.96778" lon="5.35208">
        <ele>609.61</ele>
        <time>2018-04-23T09:37:09Z</time>
      </trkpt>
      <trkpt lat="43.96775" lon="5.35202">
        <ele>610.57</ele>
        <time>2018-04-23T09:37:27Z</time>
      </trkpt>
      <trkpt lat="43.96774" lon="5.352">
        <ele>610.57</ele>
        <time>2018-04-23T09:37:47Z</time>
      </trkpt>
      <trkpt lat="43.96769" lon="5.35189">
        <ele>611.54</ele>
        <time>2018-04-23T09:38:03Z</time>
      </trkpt>
      <trkpt lat="43.96757" lon="5.35172">
        <ele>612.98</ele>
        <time>2018-04-23T09:38:23Z</time>
      </trkpt>
      <trkpt lat="43.96744" lon="5.35158">
        <ele>614.42</ele>
        <time>2018-04-23T09:38:41Z</time>
      </trkpt>
      <trkpt lat="43.96733" lon="5.3514">
        <ele>614.9</ele>
        <time>2018-04-23T09:38:58Z</time>
      </trkpt>
      <trkpt lat="43.96725" lon="5.35131">
        <ele>615.86</ele>
        <time>2018-04-23T09:39:08Z</time>
      </trkpt>
      <trkpt lat="43.9672" lon="5.35122">
        <ele>616.82</ele>
        <time>2018-04-23T09:39:25Z</time>
      </trkpt>
      <trkpt lat="43.96718" lon="5.35118">
        <ele>614.9</ele>
        <time>2018-04-23T09:39:33Z</time>
      </trkpt>
      <trkpt lat="43.96716" lon="5.35116">
        <ele>618.75</ele>
        <time>2018-04-23T09:39:35Z</time>
      </trkpt>
      <trkpt lat="43.96716" lon="5.35115">
        <ele>616.82</ele>
        <time>2018-04-23T09:39:36Z</time>
      </trkpt>
      <trkpt lat="43.96704" lon="5.35099">
        <ele>616.82</ele>
        <time>2018-04-23T09:39:54Z</time>
      </trkpt>
      <trkpt lat="43.96692" lon="5.35081">
        <ele>616.82</ele>
        <time>2018-04-23T09:40:14Z</time>
      </trkpt>
      <trkpt lat="43.9668" lon="5.35057">
        <ele>618.26</ele>
        <time>2018-04-23T09:40:33Z</time>
      </trkpt>
      <trkpt lat="43.96671" lon="5.35037">
        <ele>619.71</ele>
        <time>2018-04-23T09:40:49Z</time>
      </trkpt>
      <trkpt lat="43.96662" lon="5.35016">
        <ele>619.71</ele>
        <time>2018-04-23T09:41:06Z</time>
      </trkpt>
      <trkpt lat="43.96649" lon="5.34991">
        <ele>620.19</ele>
        <time>2018-04-23T09:41:27Z</time>
      </trkpt>
      <trkpt lat="43.96641" lon="5.34972">
        <ele>620.67</ele>
        <time>2018-04-23T09:41:44Z</time>
      </trkpt>
      <trkpt lat="43.96632" lon="5.34953">
        <ele>621.63</ele>
        <time>2018-04-23T09:42:00Z</time>
      </trkpt>
      <trkpt lat="43.96623" lon="5.34932">
        <ele>623.07</ele>
        <time>2018-04-23T09:42:18Z</time>
      </trkpt>
      <trkpt lat="43.96616" lon="5.34912">
        <ele>624.03</ele>
        <time>2018-04-23T09:42:35Z</time>
      </trkpt>
      <trkpt lat="43.96606" lon="5.34894">
        <ele>626.44</ele>
        <time>2018-04-23T09:42:54Z</time>
      </trkpt>
      <trkpt lat="43.96604" lon="5.34886">
        <ele>627.4</ele>
        <time>2018-04-23T09:43:08Z</time>
      </trkpt>
      <trkpt lat="43.96601" lon="5.34881">
        <ele>627.88</ele>
        <time>2018-04-23T09:43:29Z</time>
      </trkpt>
      <trkpt lat="43.96602" lon="5.34881">
        <ele>627.88</ele>
        <time>2018-04-23T09:43:52Z</time>
      </trkpt>
      <trkpt lat="43.96602" lon="5.34881">
        <ele>623.07</ele>
        <time>2018-04-23T09:44:17Z</time>
      </trkpt>
      <trkpt lat="43.96602" lon="5.34881">
        <ele>627.4</ele>
        <time>2018-04-23T09:44:18Z</time>
      </trkpt>
      <trkpt lat="43.96602" lon="5.34881">
        <ele>629.8</ele>
        <time>2018-04-23T09:44:21Z</time>
      </trkpt>
      <trkpt lat="43.96601" lon="5.3488">
        <ele>627.4</ele>
        <time>2018-04-23T09:44:23Z</time>
      </trkpt>
      <trkpt lat="43.96595" lon="5.34865">
        <ele>628.84</ele>
        <time>2018-04-23T09:44:40Z</time>
      </trkpt>
      <trkpt lat="43.96587" lon="5.34847">
        <ele>630.76</ele>
        <time>2018-04-23T09:44:57Z</time>
      </trkpt>
      <trkpt lat="43.96578" lon="5.34828">
        <ele>632.2</ele>
        <time>2018-04-23T09:45:13Z</time>
      </trkpt>
      <trkpt lat="43.96574" lon="5.3482">
        <ele>632.68</ele>
        <time>2018-04-23T09:45:20Z</time>
      </trkpt>
      <trkpt lat="43.96566" lon="5.34805">
        <ele>633.65</ele>
        <time>2018-04-23T09:45:36Z</time>
      </trkpt>
      <trkpt lat="43.96557" lon="5.34785">
        <ele>635.09</ele>
        <time>2018-04-23T09:45:53Z</time>
      </trkpt>
      <trkpt lat="43.96551" lon="5.34768">
        <ele>636.53</ele>
        <time>2018-04-23T09:46:11Z</time>
      </trkpt>
      <trkpt lat="43.9655" lon="5.3476">
        <ele>637.49</ele>
        <time>2018-04-23T09:46:26Z</time>
      </trkpt>
      <trkpt lat="43.96549" lon="5.3476">
        <ele>634.13</ele>
        <time>2018-04-23T09:46:32Z</time>
      </trkpt>
      <trkpt lat="43.96549" lon="5.3476">
        <ele>638.93</ele>
        <time>2018-04-23T09:46:35Z</time>
      </trkpt>
      <trkpt lat="43.96547" lon="5.3475">
        <ele>636.53</ele>
        <time>2018-04-23T09:46:47Z</time>
      </trkpt>
      <trkpt lat="43.96538" lon="5.34732">
        <ele>638.93</ele>
        <time>2018-04-23T09:47:06Z</time>
      </trkpt>
      <trkpt lat="43.9653" lon="5.34717">
        <ele>640.86</ele>
        <time>2018-04-23T09:47:23Z</time>
      </trkpt>
      <trkpt lat="43.96523" lon="5.34703">
        <ele>641.82</ele>
        <time>2018-04-23T09:47:40Z</time>
      </trkpt>
      <trkpt lat="43.96523" lon="5.34701">
        <ele>641.82</ele>
        <time>2018-04-23T09:47:51Z</time>
      </trkpt>
      <trkpt lat="43.96524" lon="5.34699">
        <ele>639.89</ele>
        <time>2018-04-23T09:47:53Z</time>
      </trkpt>
      <trkpt lat="43.96525" lon="5.34699">
        <ele>649.99</ele>
        <time>2018-04-23T09:47:54Z</time>
      </trkpt>
      <trkpt lat="43.96523" lon="5.34698">
        <ele>641.82</ele>
        <time>2018-04-23T09:47:55Z</time>
      </trkpt>
      <trkpt lat="43.96524" lon="5.34687">
        <ele>640.38</ele>
        <time>2018-04-23T09:48:10Z</time>
      </trkpt>
      <trkpt lat="43.96524" lon="5.34684">
        <ele>640.38</ele>
        <time>2018-04-23T09:48:24Z</time>
      </trkpt>
      <trkpt lat="43.96523" lon="5.34685">
        <ele>640.38</ele>
        <time>2018-04-23T09:48:28Z</time>
      </trkpt>
      <trkpt lat="43.96522" lon="5.34679">
        <ele>640.38</ele>
        <time>2018-04-23T09:48:44Z</time>
      </trkpt>
      <trkpt lat="43.96518" lon="5.34673">
        <ele>640.38</ele>
        <time>2018-04-23T09:49:00Z</time>
      </trkpt>
      <trkpt lat="43.96523" lon="5.34676">
        <ele>640.38</ele>
        <time>2018-04-23T09:49:15Z</time>
      </trkpt>
      <trkpt lat="43.96523" lon="5.34665">
        <ele>639.89</ele>
        <time>2018-04-23T09:49:32Z</time>
      </trkpt>
      <trkpt lat="43.96522" lon="5.34651">
        <ele>639.89</ele>
        <time>2018-04-23T09:49:48Z</time>
      </trkpt>
      <trkpt lat="43.9652" lon="5.3464">
        <ele>639.89</ele>
        <time>2018-04-23T09:50:02Z</time>
      </trkpt>
      <trkpt lat="43.96517" lon="5.3463">
        <ele>640.86</ele>
        <time>2018-04-23T09:50:16Z</time>
      </trkpt>
      <trkpt lat="43.96519" lon="5.34621">
        <ele>639.41</ele>
        <time>2018-04-23T09:50:29Z</time>
      </trkpt>
      <trkpt lat="43.96519" lon="5.34621">
        <ele>639.41</ele>
        <time>2018-04-23T09:50:30Z</time>
      </trkpt>
      <trkpt lat="43.96521" lon="5.34618">
        <ele>639.41</ele>
        <time>2018-04-23T09:50:47Z</time>
      </trkpt>
      <trkpt lat="43.96523" lon="5.34617">
        <ele>639.89</ele>
        <time>2018-04-23T09:51:13Z</time>
      </trkpt>
      <trkpt lat="43.96523" lon="5.34617">
        <ele>644.22</ele>
        <time>2018-04-23T09:51:23Z</time>
      </trkpt>
      <trkpt lat="43.96523" lon="5.34617">
        <ele>639.41</ele>
        <time>2018-04-23T09:51:24Z</time>
      </trkpt>
      <trkpt lat="43.96524" lon="5.34611">
        <ele>638.93</ele>
        <time>2018-04-23T09:51:40Z</time>
      </trkpt>
      <trkpt lat="43.96524" lon="5.34609">
        <ele>640.38</ele>
        <time>2018-04-23T09:51:47Z</time>
      </trkpt>
      <trkpt lat="43.96525" lon="5.34612">
        <ele>640.38</ele>
        <time>2018-04-23T09:52:13Z</time>
      </trkpt>
      <trkpt lat="43.96525" lon="5.34613">
        <ele>640.38</ele>
        <time>2018-04-23T09:52:38Z</time>
      </trkpt>
      <trkpt lat="43.96525" lon="5.34613">
        <ele>640.38</ele>
        <time>2018-04-23T09:52:56Z</time>
      </trkpt>
      <trkpt lat="43.96525" lon="5.34613">
        <ele>640.38</ele>
        <time>2018-04-23T09:53:13Z</time>
      </trkpt>
      <trkpt lat="43.96524" lon="5.34615">
        <ele>640.38</ele>
        <time>2018-04-23T09:53:34Z</time>
      </trkpt>
      <trkpt lat="43.96521" lon="5.34617">
        <ele>639.89</ele>
        <time>2018-04-23T09:54:00Z</time>
      </trkpt>
      <trkpt lat="43.96523" lon="5.34615">
        <ele>641.34</ele>
        <time>2018-04-23T09:54:13Z</time>
      </trkpt>
      <trkpt lat="43.96521" lon="5.3462">
        <ele>639.89</ele>
        <time>2018-04-23T09:54:18Z</time>
      </trkpt>
      <trkpt lat="43.96521" lon="5.3462">
        <ele>641.34</ele>
        <time>2018-04-23T09:54:31Z</time>
      </trkpt>
      <trkpt lat="43.96518" lon="5.34618">
        <ele>641.82</ele>
        <time>2018-04-23T09:54:42Z</time>
      </trkpt>
      <trkpt lat="43.96517" lon="5.34618">
        <ele>641.82</ele>
        <time>2018-04-23T09:55:13Z</time>
      </trkpt>
      <trkpt lat="43.96518" lon="5.34619">
        <ele>641.82</ele>
        <time>2018-04-23T09:55:32Z</time>
      </trkpt>
      <trkpt lat="43.96519" lon="5.34618">
        <ele>642.3</ele>
        <time>2018-04-23T09:55:55Z</time>
      </trkpt>
      <trkpt lat="43.96519" lon="5.34617">
        <ele>642.3</ele>
        <time>2018-04-23T09:56:23Z</time>
      </trkpt>
      <trkpt lat="43.9652" lon="5.34619">
        <ele>642.3</ele>
        <time>2018-04-23T09:56:50Z</time>
      </trkpt>
      <trkpt lat="43.96524" lon="5.34619">
        <ele>641.34</ele>
        <time>2018-04-23T09:57:17Z</time>
      </trkpt>
      <trkpt lat="43.96524" lon="5.3462">
        <ele>640.86</ele>
        <time>2018-04-23T09:57:28Z</time>
      </trkpt>
      <trkpt lat="43.96522" lon="5.34617">
        <ele>640.86</ele>
        <time>2018-04-23T09:57:43Z</time>
      </trkpt>
      <trkpt lat="43.96521" lon="5.34611">
        <ele>642.3</ele>
        <time>2018-04-23T09:57:52Z</time>
      </trkpt>
      <trkpt lat="43.96524" lon="5.34612">
        <ele>642.3</ele>
        <time>2018-04-23T09:58:02Z</time>
      </trkpt>
      <trkpt lat="43.96526" lon="5.34608">
        <ele>640.86</ele>
        <time>2018-04-23T09:58:09Z</time>
      </trkpt>
      <trkpt lat="43.96527" lon="5.34601">
        <ele>641.34</ele>
        <time>2018-04-23T09:58:21Z</time>
      </trkpt>
      <trkpt lat="43.96527" lon="5.34601">
        <ele>641.34</ele>
        <time>2018-04-23T09:58:22Z</time>
      </trkpt>
      <trkpt lat="43.96525" lon="5.346">
        <ele>641.82</ele>
        <time>2018-04-23T09:58:27Z</time>
      </trkpt>
      <trkpt lat="43.96523" lon="5.34598">
        <ele>641.82</ele>
        <time>2018-04-23T09:58:29Z</time>
      </trkpt>
      <trkpt lat="43.96518" lon="5.34594">
        <ele>643.26</ele>
        <time>2018-04-23T09:58:39Z</time>
      </trkpt>
      <trkpt lat="43.96514" lon="5.3459">
        <ele>644.22</ele>
        <time>2018-04-23T09:58:53Z</time>
      </trkpt>
      <trkpt lat="43.96516" lon="5.34592">
        <ele>644.22</ele>
        <time>2018-04-23T09:59:06Z</time>
      </trkpt>
      <trkpt lat="43.96516" lon="5.3459">
        <ele>644.22</ele>
        <time>2018-04-23T09:59:11Z</time>
      </trkpt>
      <trkpt lat="43.96505" lon="5.34591">
        <ele>646.14</ele>
        <time>2018-04-23T09:59:25Z</time>
      </trkpt>
      <trkpt lat="43.96506" lon="5.34592">
        <ele>646.14</ele>
        <time>2018-04-23T09:59:28Z</time>
      </trkpt>
      <trkpt lat="43.96503" lon="5.34603">
        <ele>646.62</ele>
        <time>2018-04-23T09:59:44Z</time>
      </trkpt>
      <trkpt lat="43.96507" lon="5.3459">
        <ele>646.62</ele>
        <time>2018-04-23T09:59:57Z</time>
      </trkpt>
      <trkpt lat="43.96515" lon="5.34588">
        <ele>644.22</ele>
        <time>2018-04-23T10:00:11Z</time>
      </trkpt>
      <trkpt lat="43.96516" lon="5.34592">
        <ele>644.7</ele>
        <time>2018-04-23T10:00:24Z</time>
      </trkpt>
      <trkpt lat="43.96516" lon="5.34593">
        <ele>644.22</ele>
        <time>2018-04-23T10:00:41Z</time>
      </trkpt>
      <trkpt lat="43.96513" lon="5.34586">
        <ele>644.22</ele>
        <time>2018-04-23T10:00:56Z</time>
      </trkpt>
      <trkpt lat="43.96512" lon="5.34585">
        <ele>643.74</ele>
        <time>2018-04-23T10:00:57Z</time>
      </trkpt>
      <trkpt lat="43.9651" lon="5.34583">
        <ele>643.26</ele>
        <time>2018-04-23T10:01:00Z</time>
      </trkpt>
      <trkpt lat="43.96507" lon="5.34577">
        <ele>645.18</ele>
        <time>2018-04-23T10:01:08Z</time>
      </trkpt>
      <trkpt lat="43.96506" lon="5.34574">
        <ele>645.66</ele>
        <time>2018-04-23T10:01:19Z</time>
      </trkpt>
      <trkpt lat="43.96506" lon="5.34572">
        <ele>645.66</ele>
        <time>2018-04-23T10:01:24Z</time>
      </trkpt>
      <trkpt lat="43.96505" lon="5.34569">
        <ele>645.66</ele>
        <time>2018-04-23T10:01:26Z</time>
      </trkpt>
      <trkpt lat="43.96504" lon="5.34568">
        <ele>646.14</ele>
        <time>2018-04-23T10:01:32Z</time>
      </trkpt>
      <trkpt lat="43.96507" lon="5.34576">
        <ele>645.66</ele>
        <time>2018-04-23T10:01:45Z</time>
      </trkpt>
      <trkpt lat="43.9651" lon="5.34578">
        <ele>644.7</ele>
        <time>2018-04-23T10:02:01Z</time>
      </trkpt>
      <trkpt lat="43.96505" lon="5.34576">
        <ele>646.14</ele>
        <time>2018-04-23T10:02:18Z</time>
      </trkpt>
      <trkpt lat="43.96506" lon="5.34573">
        <ele>646.14</ele>
        <time>2018-04-23T10:02:28Z</time>
      </trkpt>
      <trkpt lat="43.96503" lon="5.34568">
        <ele>644.7</ele>
        <time>2018-04-23T10:02:37Z</time>
      </trkpt>
      <trkpt lat="43.965" lon="5.34568">
        <ele>644.7</ele>
        <time>2018-04-23T10:02:41Z</time>
      </trkpt>
      <trkpt lat="43.965" lon="5.34569">
        <ele>646.14</ele>
        <time>2018-04-23T10:02:52Z</time>
      </trkpt>
      <trkpt lat="43.96501" lon="5.34566">
        <ele>646.14</ele>
        <time>2018-04-23T10:02:58Z</time>
      </trkpt>
      <trkpt lat="43.965" lon="5.34564">
        <ele>646.14</ele>
        <time>2018-04-23T10:03:01Z</time>
      </trkpt>
      <trkpt lat="43.96496" lon="5.3456">
        <ele>646.14</ele>
        <time>2018-04-23T10:03:10Z</time>
      </trkpt>
      <trkpt lat="43.96495" lon="5.3456">
        <ele>646.14</ele>
        <time>2018-04-23T10:03:11Z</time>
      </trkpt>
      <trkpt lat="43.96492" lon="5.34558">
        <ele>646.62</ele>
        <time>2018-04-23T10:03:16Z</time>
      </trkpt>
      <trkpt lat="43.96488" lon="5.34562">
        <ele>647.59</ele>
        <time>2018-04-23T10:03:27Z</time>
      </trkpt>
      <trkpt lat="43.96493" lon="5.34558">
        <ele>647.1</ele>
        <time>2018-04-23T10:03:38Z</time>
      </trkpt>
      <trkpt lat="43.96498" lon="5.34556">
        <ele>645.66</ele>
        <time>2018-04-23T10:03:50Z</time>
      </trkpt>
      <trkpt lat="43.96501" lon="5.34556">
        <ele>644.7</ele>
        <time>2018-04-23T10:03:59Z</time>
      </trkpt>
      <trkpt lat="43.96504" lon="5.34557">
        <ele>643.26</ele>
        <time>2018-04-23T10:04:11Z</time>
      </trkpt>
      <trkpt lat="43.96503" lon="5.34554">
        <ele>643.26</ele>
        <time>2018-04-23T10:04:13Z</time>
      </trkpt>
      <trkpt lat="43.96508" lon="5.34543">
        <ele>641.34</ele>
        <time>2018-04-23T10:04:27Z</time>
      </trkpt>
      <trkpt lat="43.96509" lon="5.34538">
        <ele>640.86</ele>
        <time>2018-04-23T10:04:44Z</time>
      </trkpt>
      <trkpt lat="43.96503" lon="5.34543">
        <ele>642.3</ele>
        <time>2018-04-23T10:04:56Z</time>
      </trkpt>
      <trkpt lat="43.96503" lon="5.3455">
        <ele>644.22</ele>
        <time>2018-04-23T10:05:09Z</time>
      </trkpt>
      <trkpt lat="43.96503" lon="5.34549">
        <ele>642.78</ele>
        <time>2018-04-23T10:05:11Z</time>
      </trkpt>
      <trkpt lat="43.96504" lon="5.34549">
        <ele>643.74</ele>
        <time>2018-04-23T10:05:25Z</time>
      </trkpt>
      <trkpt lat="43.965" lon="5.34545">
        <ele>643.74</ele>
        <time>2018-04-23T10:05:36Z</time>
      </trkpt>
      <trkpt lat="43.96496" lon="5.34539">
        <ele>645.66</ele>
        <time>2018-04-23T10:05:53Z</time>
      </trkpt>
      <trkpt lat="43.96495" lon="5.34541">
        <ele>644.22</ele>
        <time>2018-04-23T10:06:06Z</time>
      </trkpt>
      <trkpt lat="43.96493" lon="5.34546">
        <ele>646.14</ele>
        <time>2018-04-23T10:06:23Z</time>
      </trkpt>
      <trkpt lat="43.9649" lon="5.34551">
        <ele>647.1</ele>
        <time>2018-04-23T10:06:38Z</time>
      </trkpt>
      <trkpt lat="43.9649" lon="5.34558">
        <ele>647.1</ele>
        <time>2018-04-23T10:06:54Z</time>
      </trkpt>
      <trkpt lat="43.96491" lon="5.34558">
        <ele>647.59</ele>
        <time>2018-04-23T10:07:10Z</time>
      </trkpt>
      <trkpt lat="43.96491" lon="5.34558">
        <ele>646.62</ele>
        <time>2018-04-23T10:07:25Z</time>
      </trkpt>
      <trkpt lat="43.96488" lon="5.3456">
        <ele>646.62</ele>
        <time>2018-04-23T10:07:36Z</time>
      </trkpt>
      <trkpt lat="43.96484" lon="5.34556">
        <ele>646.62</ele>
        <time>2018-04-23T10:07:48Z</time>
      </trkpt>
      <trkpt lat="43.96481" lon="5.34559">
        <ele>646.62</ele>
        <time>2018-04-23T10:07:58Z</time>
      </trkpt>
      <trkpt lat="43.96475" lon="5.34557">
        <ele>646.62</ele>
        <time>2018-04-23T10:08:12Z</time>
      </trkpt>
      <trkpt lat="43.96478" lon="5.34556">
        <ele>646.62</ele>
        <time>2018-04-23T10:08:24Z</time>
      </trkpt>
      <trkpt lat="43.96477" lon="5.34553">
        <ele>646.62</ele>
        <time>2018-04-23T10:08:40Z</time>
      </trkpt>
      <trkpt lat="43.96475" lon="5.34554">
        <ele>647.1</ele>
        <time>2018-04-23T10:08:55Z</time>
      </trkpt>
      <trkpt lat="43.96472" lon="5.34553">
        <ele>647.1</ele>
        <time>2018-04-23T10:09:06Z</time>
      </trkpt>
      <trkpt lat="43.96469" lon="5.34553">
        <ele>647.1</ele>
        <time>2018-04-23T10:09:19Z</time>
      </trkpt>
      <trkpt lat="43.96458" lon="5.34551">
        <ele>647.1</ele>
        <time>2018-04-23T10:09:33Z</time>
      </trkpt>
      <trkpt lat="43.96457" lon="5.34549">
        <ele>648.07</ele>
        <time>2018-04-23T10:09:48Z</time>
      </trkpt>
      <trkpt lat="43.96457" lon="5.34548">
        <ele>648.07</ele>
        <time>2018-04-23T10:09:56Z</time>
      </trkpt>
      <trkpt lat="43.96457" lon="5.34546">
        <ele>647.1</ele>
        <time>2018-04-23T10:10:00Z</time>
      </trkpt>
      <trkpt lat="43.96454" lon="5.3454">
        <ele>647.1</ele>
        <time>2018-04-23T10:10:19Z</time>
      </trkpt>
      <trkpt lat="43.96453" lon="5.34534">
        <ele>647.1</ele>
        <time>2018-04-23T10:10:32Z</time>
      </trkpt>
      <trkpt lat="43.96451" lon="5.34528">
        <ele>647.1</ele>
        <time>2018-04-23T10:10:48Z</time>
      </trkpt>
      <trkpt lat="43.96449" lon="5.34523">
        <ele>647.1</ele>
        <time>2018-04-23T10:11:01Z</time>
      </trkpt>
      <trkpt lat="43.96444" lon="5.34515">
        <ele>647.1</ele>
        <time>2018-04-23T10:11:16Z</time>
      </trkpt>
      <trkpt lat="43.96443" lon="5.34511">
        <ele>646.62</ele>
        <time>2018-04-23T10:11:40Z</time>
      </trkpt>
      <trkpt lat="43.96448" lon="5.34504">
        <ele>646.62</ele>
        <time>2018-04-23T10:11:53Z</time>
      </trkpt>
      <trkpt lat="43.96445" lon="5.34507">
        <ele>646.62</ele>
        <time>2018-04-23T10:12:06Z</time>
      </trkpt>
      <trkpt lat="43.96444" lon="5.345">
        <ele>646.62</ele>
        <time>2018-04-23T10:12:18Z</time>
      </trkpt>
      <trkpt lat="43.96444" lon="5.34499">
        <ele>646.62</ele>
        <time>2018-04-23T10:12:29Z</time>
      </trkpt>
      <trkpt lat="43.96445" lon="5.34498">
        <ele>646.62</ele>
        <time>2018-04-23T10:12:44Z</time>
      </trkpt>
      <trkpt lat="43.96445" lon="5.34497">
        <ele>646.62</ele>
        <time>2018-04-23T10:12:58Z</time>
      </trkpt>
      <trkpt lat="43.96445" lon="5.34496">
        <ele>646.62</ele>
        <time>2018-04-23T10:13:17Z</time>
      </trkpt>
      <trkpt lat="43.96443" lon="5.34492">
        <ele>646.62</ele>
        <time>2018-04-23T10:13:29Z</time>
      </trkpt>
      <trkpt lat="43.96444" lon="5.34482">
        <ele>646.62</ele>
        <time>2018-04-23T10:13:43Z</time>
      </trkpt>
      <trkpt lat="43.96446" lon="5.34478">
        <ele>646.62</ele>
        <time>2018-04-23T10:13:54Z</time>
      </trkpt>
      <trkpt lat="43.96447" lon="5.34471">
        <ele>646.62</ele>
        <time>2018-04-23T10:14:08Z</time>
      </trkpt>
      <trkpt lat="43.96447" lon="5.34469">
        <ele>646.62</ele>
        <time>2018-04-23T10:14:22Z</time>
      </trkpt>
      <trkpt lat="43.96448" lon="5.34467">
        <ele>646.62</ele>
        <time>2018-04-23T10:14:41Z</time>
      </trkpt>
      <trkpt lat="43.96445" lon="5.34463">
        <ele>648.07</ele>
        <time>2018-04-23T10:14:53Z</time>
      </trkpt>
      <trkpt lat="43.96442" lon="5.34457">
        <ele>648.07</ele>
        <time>2018-04-23T10:15:05Z</time>
      </trkpt>
      <trkpt lat="43.96442" lon="5.3445">
        <ele>648.07</ele>
        <time>2018-04-23T10:15:21Z</time>
      </trkpt>
      <trkpt lat="43.9644" lon="5.34448">
        <ele>647.1</ele>
        <time>2018-04-23T10:15:48Z</time>
      </trkpt>
      <trkpt lat="43.96442" lon="5.34443">
        <ele>647.1</ele>
        <time>2018-04-23T10:16:02Z</time>
      </trkpt>
      <trkpt lat="43.96442" lon="5.3444">
        <ele>647.1</ele>
        <time>2018-04-23T10:16:12Z</time>
      </trkpt>
      <trkpt lat="43.9644" lon="5.34436">
        <ele>647.59</ele>
        <time>2018-04-23T10:16:29Z</time>
      </trkpt>
      <trkpt lat="43.96435" lon="5.34435">
        <ele>647.59</ele>
        <time>2018-04-23T10:16:43Z</time>
      </trkpt>
      <trkpt lat="43.96435" lon="5.34434">
        <ele>648.07</ele>
        <time>2018-04-23T10:16:54Z</time>
      </trkpt>
      <trkpt lat="43.96433" lon="5.34433">
        <ele>648.07</ele>
        <time>2018-04-23T10:17:16Z</time>
      </trkpt>
      <trkpt lat="43.96432" lon="5.34433">
        <ele>648.07</ele>
        <time>2018-04-23T10:17:36Z</time>
      </trkpt>
      <trkpt lat="43.96427" lon="5.34432">
        <ele>647.1</ele>
        <time>2018-04-23T10:17:52Z</time>
      </trkpt>
      <trkpt lat="43.96428" lon="5.34426">
        <ele>647.1</ele>
        <time>2018-04-23T10:18:05Z</time>
      </trkpt>
      <trkpt lat="43.96428" lon="5.34421">
        <ele>647.1</ele>
        <time>2018-04-23T10:18:15Z</time>
      </trkpt>
      <trkpt lat="43.96427" lon="5.34415">
        <ele>646.62</ele>
        <time>2018-04-23T10:18:30Z</time>
      </trkpt>
      <trkpt lat="43.96426" lon="5.34411">
        <ele>646.62</ele>
        <time>2018-04-23T10:18:45Z</time>
      </trkpt>
      <trkpt lat="43.96425" lon="5.34403">
        <ele>646.62</ele>
        <time>2018-04-23T10:19:04Z</time>
      </trkpt>
      <trkpt lat="43.96429" lon="5.34399">
        <ele>646.62</ele>
        <time>2018-04-23T10:19:16Z</time>
      </trkpt>
      <trkpt lat="43.96435" lon="5.34396">
        <ele>647.59</ele>
        <time>2018-04-23T10:19:25Z</time>
      </trkpt>
      <trkpt lat="43.96439" lon="5.34391">
        <ele>648.07</ele>
        <time>2018-04-23T10:19:37Z</time>
      </trkpt>
      <trkpt lat="43.96445" lon="5.34396">
        <ele>648.07</ele>
        <time>2018-04-23T10:19:49Z</time>
      </trkpt>
      <trkpt lat="43.96448" lon="5.34397">
        <ele>648.55</ele>
        <time>2018-04-23T10:20:02Z</time>
      </trkpt>
      <trkpt lat="43.96448" lon="5.34398">
        <ele>648.55</ele>
        <time>2018-04-23T10:20:04Z</time>
      </trkpt>
      <trkpt lat="43.9645" lon="5.34403">
        <ele>648.55</ele>
        <time>2018-04-23T10:20:15Z</time>
      </trkpt>
      <trkpt lat="43.96448" lon="5.34398">
        <ele>648.55</ele>
        <time>2018-04-23T10:20:28Z</time>
      </trkpt>
      <trkpt lat="43.96448" lon="5.34397">
        <ele>647.59</ele>
        <time>2018-04-23T10:20:43Z</time>
      </trkpt>
      <trkpt lat="43.96445" lon="5.34392">
        <ele>647.59</ele>
        <time>2018-04-23T10:20:56Z</time>
      </trkpt>
      <trkpt lat="43.96445" lon="5.34392">
        <ele>647.59</ele>
        <time>2018-04-23T10:21:08Z</time>
      </trkpt>
      <trkpt lat="43.96446" lon="5.3439">
        <ele>647.59</ele>
        <time>2018-04-23T10:21:21Z</time>
      </trkpt>
      <trkpt lat="43.96449" lon="5.34389">
        <ele>647.59</ele>
        <time>2018-04-23T10:21:31Z</time>
      </trkpt>
      <trkpt lat="43.96452" lon="5.34389">
        <ele>647.59</ele>
        <time>2018-04-23T10:21:42Z</time>
      </trkpt>
      <trkpt lat="43.96451" lon="5.34386">
        <ele>647.59</ele>
        <time>2018-04-23T10:21:54Z</time>
      </trkpt>
      <trkpt lat="43.96451" lon="5.34385">
        <ele>647.59</ele>
        <time>2018-04-23T10:22:06Z</time>
      </trkpt>
      <trkpt lat="43.9645" lon="5.34382">
        <ele>648.55</ele>
        <time>2018-04-23T10:22:22Z</time>
      </trkpt>
      <trkpt lat="43.9645" lon="5.34381">
        <ele>648.55</ele>
        <time>2018-04-23T10:22:23Z</time>
      </trkpt>
      <trkpt lat="43.96445" lon="5.34379">
        <ele>647.1</ele>
        <time>2018-04-23T10:22:35Z</time>
      </trkpt>
      <trkpt lat="43.96451" lon="5.34379">
        <ele>647.1</ele>
        <time>2018-04-23T10:22:46Z</time>
      </trkpt>
      <trkpt lat="43.9645" lon="5.34381">
        <ele>647.1</ele>
        <time>2018-04-23T10:23:01Z</time>
      </trkpt>
      <trkpt lat="43.96446" lon="5.3438">
        <ele>647.59</ele>
        <time>2018-04-23T10:23:16Z</time>
      </trkpt>
      <trkpt lat="43.96442" lon="5.34375">
        <ele>646.62</ele>
        <time>2018-04-23T10:23:33Z</time>
      </trkpt>
      <trkpt lat="43.96441" lon="5.34369">
        <ele>646.62</ele>
        <time>2018-04-23T10:23:47Z</time>
      </trkpt>
      <trkpt lat="43.9644" lon="5.3437">
        <ele>648.07</ele>
        <time>2018-04-23T10:23:53Z</time>
      </trkpt>
      <trkpt lat="43.96442" lon="5.3437">
        <ele>648.07</ele>
        <time>2018-04-23T10:24:06Z</time>
      </trkpt>
      <trkpt lat="43.96443" lon="5.34367">
        <ele>648.07</ele>
        <time>2018-04-23T10:24:17Z</time>
      </trkpt>
      <trkpt lat="43.96442" lon="5.34367">
        <ele>648.07</ele>
        <time>2018-04-23T10:24:35Z</time>
      </trkpt>
      <trkpt lat="43.96444" lon="5.34366">
        <ele>648.07</ele>
        <time>2018-04-23T10:24:54Z</time>
      </trkpt>
      <trkpt lat="43.96446" lon="5.34363">
        <ele>648.07</ele>
        <time>2018-04-23T10:24:59Z</time>
      </trkpt>
      <trkpt lat="43.96443" lon="5.34355">
        <ele>648.07</ele>
        <time>2018-04-23T10:25:12Z</time>
      </trkpt>
      <trkpt lat="43.96443" lon="5.34354">
        <ele>646.62</ele>
        <time>2018-04-23T10:25:14Z</time>
      </trkpt>
      <trkpt lat="43.96443" lon="5.34354">
        <ele>646.62</ele>
        <time>2018-04-23T10:25:26Z</time>
      </trkpt>
      <trkpt lat="43.96444" lon="5.34355">
        <ele>646.62</ele>
        <time>2018-04-23T10:25:40Z</time>
      </trkpt>
      <trkpt lat="43.96443" lon="5.34345">
        <ele>646.62</ele>
        <time>2018-04-23T10:25:53Z</time>
      </trkpt>
      <trkpt lat="43.96441" lon="5.3434">
        <ele>646.62</ele>
        <time>2018-04-23T10:26:04Z</time>
      </trkpt>
      <trkpt lat="43.96436" lon="5.34336">
        <ele>646.62</ele>
        <time>2018-04-23T10:26:17Z</time>
      </trkpt>
      <trkpt lat="43.96434" lon="5.34339">
        <ele>646.14</ele>
        <time>2018-04-23T10:26:29Z</time>
      </trkpt>
      <trkpt lat="43.96434" lon="5.34341">
        <ele>646.14</ele>
        <time>2018-04-23T10:26:40Z</time>
      </trkpt>
      <trkpt lat="43.9643" lon="5.34344">
        <ele>646.14</ele>
        <time>2018-04-23T10:26:51Z</time>
      </trkpt>
      <trkpt lat="43.9642" lon="5.34344">
        <ele>646.14</ele>
        <time>2018-04-23T10:27:05Z</time>
      </trkpt>
      <trkpt lat="43.96419" lon="5.34348">
        <ele>645.66</ele>
        <time>2018-04-23T10:27:16Z</time>
      </trkpt>
      <trkpt lat="43.96416" lon="5.3435">
        <ele>645.66</ele>
        <time>2018-04-23T10:27:27Z</time>
      </trkpt>
      <trkpt lat="43.96412" lon="5.34354">
        <ele>645.66</ele>
        <time>2018-04-23T10:27:37Z</time>
      </trkpt>
      <trkpt lat="43.9641" lon="5.34355">
        <ele>645.18</ele>
        <time>2018-04-23T10:27:47Z</time>
      </trkpt>
      <trkpt lat="43.96413" lon="5.34348">
        <ele>645.18</ele>
        <time>2018-04-23T10:28:00Z</time>
      </trkpt>
      <trkpt lat="43.96413" lon="5.34347">
        <ele>645.18</ele>
        <time>2018-04-23T10:28:12Z</time>
      </trkpt>
      <trkpt lat="43.96412" lon="5.34339">
        <ele>644.7</ele>
        <time>2018-04-23T10:28:29Z</time>
      </trkpt>
      <trkpt lat="43.96413" lon="5.34335">
        <ele>645.18</ele>
        <time>2018-04-23T10:28:35Z</time>
      </trkpt>
      <trkpt lat="43.96414" lon="5.34332">
        <ele>644.22</ele>
        <time>2018-04-23T10:28:48Z</time>
      </trkpt>
      <trkpt lat="43.96417" lon="5.34337">
        <ele>644.22</ele>
        <time>2018-04-23T10:28:58Z</time>
      </trkpt>
      <trkpt lat="43.96418" lon="5.34339">
        <ele>645.66</ele>
        <time>2018-04-23T10:29:05Z</time>
      </trkpt>
      <trkpt lat="43.96423" lon="5.34341">
        <ele>646.14</ele>
        <time>2018-04-23T10:29:16Z</time>
      </trkpt>
      <trkpt lat="43.96428" lon="5.34344">
        <ele>646.14</ele>
        <time>2018-04-23T10:29:27Z</time>
      </trkpt>
      <trkpt lat="43.96432" lon="5.34342">
        <ele>646.62</ele>
        <time>2018-04-23T10:29:39Z</time>
      </trkpt>
      <trkpt lat="43.96434" lon="5.34336">
        <ele>646.62</ele>
        <time>2018-04-23T10:29:49Z</time>
      </trkpt>
      <trkpt lat="43.96436" lon="5.3433">
        <ele>646.62</ele>
        <time>2018-04-23T10:30:01Z</time>
      </trkpt>
      <trkpt lat="43.96442" lon="5.34329">
        <ele>646.62</ele>
        <time>2018-04-23T10:30:12Z</time>
      </trkpt>
      <trkpt lat="43.96447" lon="5.34337">
        <ele>646.62</ele>
        <time>2018-04-23T10:30:24Z</time>
      </trkpt>
      <trkpt lat="43.96443" lon="5.34338">
        <ele>646.62</ele>
        <time>2018-04-23T10:30:37Z</time>
      </trkpt>
      <trkpt lat="43.96437" lon="5.34338">
        <ele>646.62</ele>
        <time>2018-04-23T10:30:50Z</time>
      </trkpt>
      <trkpt lat="43.96433" lon="5.34333">
        <ele>646.62</ele>
        <time>2018-04-23T10:31:03Z</time>
      </trkpt>
      <trkpt lat="43.96433" lon="5.34334">
        <ele>646.62</ele>
        <time>2018-04-23T10:31:14Z</time>
      </trkpt>
      <trkpt lat="43.96431" lon="5.34335">
        <ele>645.18</ele>
        <time>2018-04-23T10:31:28Z</time>
      </trkpt>
      <trkpt lat="43.96431" lon="5.34335">
        <ele>645.18</ele>
        <time>2018-04-23T10:31:29Z</time>
      </trkpt>
      <trkpt lat="43.96427" lon="5.3433">
        <ele>645.18</ele>
        <time>2018-04-23T10:31:44Z</time>
      </trkpt>
      <trkpt lat="43.96423" lon="5.34325">
        <ele>644.7</ele>
        <time>2018-04-23T10:31:57Z</time>
      </trkpt>
      <trkpt lat="43.96421" lon="5.34325">
        <ele>644.7</ele>
        <time>2018-04-23T10:32:10Z</time>
      </trkpt>
      <trkpt lat="43.9642" lon="5.34325">
        <ele>644.7</ele>
        <time>2018-04-23T10:32:22Z</time>
      </trkpt>
      <trkpt lat="43.96421" lon="5.34323">
        <ele>644.7</ele>
        <time>2018-04-23T10:32:28Z</time>
      </trkpt>
      <trkpt lat="43.96422" lon="5.3432">
        <ele>644.7</ele>
        <time>2018-04-23T10:32:39Z</time>
      </trkpt>
      <trkpt lat="43.96421" lon="5.34317">
        <ele>644.22</ele>
        <time>2018-04-23T10:32:54Z</time>
      </trkpt>
      <trkpt lat="43.96421" lon="5.34317">
        <ele>643.26</ele>
        <time>2018-04-23T10:33:08Z</time>
      </trkpt>
      <trkpt lat="43.96425" lon="5.34321">
        <ele>643.26</ele>
        <time>2018-04-23T10:33:21Z</time>
      </trkpt>
      <trkpt lat="43.96429" lon="5.34321">
        <ele>644.7</ele>
        <time>2018-04-23T10:33:38Z</time>
      </trkpt>
      <trkpt lat="43.9643" lon="5.34325">
        <ele>645.18</ele>
        <time>2018-04-23T10:33:53Z</time>
      </trkpt>
      <trkpt lat="43.96429" lon="5.34326">
        <ele>643.26</ele>
        <time>2018-04-23T10:33:58Z</time>
      </trkpt>
      <trkpt lat="43.96429" lon="5.34327">
        <ele>644.7</ele>
        <time>2018-04-23T10:34:07Z</time>
      </trkpt>
      <trkpt lat="43.96429" lon="5.34324">
        <ele>645.18</ele>
        <time>2018-04-23T10:34:25Z</time>
      </trkpt>
      <trkpt lat="43.96427" lon="5.34325">
        <ele>645.18</ele>
        <time>2018-04-23T10:34:50Z</time>
      </trkpt>
      <trkpt lat="43.96427" lon="5.34323">
        <ele>645.18</ele>
        <time>2018-04-23T10:35:07Z</time>
      </trkpt>
      <trkpt lat="43.96425" lon="5.34322">
        <ele>644.22</ele>
        <time>2018-04-23T10:35:23Z</time>
      </trkpt>
      <trkpt lat="43.96422" lon="5.3432">
        <ele>643.74</ele>
        <time>2018-04-23T10:35:37Z</time>
      </trkpt>
      <trkpt lat="43.9642" lon="5.34316">
        <ele>643.26</ele>
        <time>2018-04-23T10:35:53Z</time>
      </trkpt>
      <trkpt lat="43.96418" lon="5.34316">
        <ele>643.26</ele>
        <time>2018-04-23T10:36:08Z</time>
      </trkpt>
      <trkpt lat="43.9642" lon="5.34314">
        <ele>642.78</ele>
        <time>2018-04-23T10:36:26Z</time>
      </trkpt>
      <trkpt lat="43.96414" lon="5.34317">
        <ele>643.26</ele>
        <time>2018-04-23T10:36:40Z</time>
      </trkpt>
      <trkpt lat="43.96412" lon="5.34314">
        <ele>641.82</ele>
        <time>2018-04-23T10:36:54Z</time>
      </trkpt>
      <trkpt lat="43.96412" lon="5.34312">
        <ele>641.82</ele>
        <time>2018-04-23T10:37:13Z</time>
      </trkpt>
      <trkpt lat="43.9641" lon="5.34312">
        <ele>643.74</ele>
        <time>2018-04-23T10:37:33Z</time>
      </trkpt>
      <trkpt lat="43.9641" lon="5.34312">
        <ele>643.74</ele>
        <time>2018-04-23T10:37:34Z</time>
      </trkpt>
      <trkpt lat="43.9641" lon="5.34313">
        <ele>642.3</ele>
        <time>2018-04-23T10:37:36Z</time>
      </trkpt>
      <trkpt lat="43.96407" lon="5.34314">
        <ele>641.82</ele>
        <time>2018-04-23T10:37:51Z</time>
      </trkpt>
      <trkpt lat="43.96407" lon="5.34313">
        <ele>640.86</ele>
        <time>2018-04-23T10:37:53Z</time>
      </trkpt>
      <trkpt lat="43.96406" lon="5.34313">
        <ele>641.82</ele>
        <time>2018-04-23T10:38:05Z</time>
      </trkpt>
      <trkpt lat="43.96405" lon="5.34312">
        <ele>641.82</ele>
        <time>2018-04-23T10:38:18Z</time>
      </trkpt>
      <trkpt lat="43.96406" lon="5.34313">
        <ele>640.86</ele>
        <time>2018-04-23T10:38:32Z</time>
      </trkpt>
      <trkpt lat="43.96408" lon="5.34308">
        <ele>640.86</ele>
        <time>2018-04-23T10:38:50Z</time>
      </trkpt>
      <trkpt lat="43.96403" lon="5.34302">
        <ele>640.38</ele>
        <time>2018-04-23T10:39:06Z</time>
      </trkpt>
      <trkpt lat="43.96402" lon="5.34299">
        <ele>640.38</ele>
        <time>2018-04-23T10:39:21Z</time>
      </trkpt>
      <trkpt lat="43.96399" lon="5.34297">
        <ele>640.38</ele>
        <time>2018-04-23T10:39:36Z</time>
      </trkpt>
      <trkpt lat="43.96397" lon="5.34294">
        <ele>640.38</ele>
        <time>2018-04-23T10:39:47Z</time>
      </trkpt>
      <trkpt lat="43.96397" lon="5.34286">
        <ele>639.89</ele>
        <time>2018-04-23T10:39:59Z</time>
      </trkpt>
      <trkpt lat="43.96397" lon="5.3428">
        <ele>638.45</ele>
        <time>2018-04-23T10:40:07Z</time>
      </trkpt>
      <trkpt lat="43.96392" lon="5.34281">
        <ele>638.45</ele>
        <time>2018-04-23T10:40:16Z</time>
      </trkpt>
      <trkpt lat="43.96397" lon="5.34279">
        <ele>639.89</ele>
        <time>2018-04-23T10:40:28Z</time>
      </trkpt>
      <trkpt lat="43.96397" lon="5.34279">
        <ele>639.89</ele>
        <time>2018-04-23T10:40:36Z</time>
      </trkpt>
      <trkpt lat="43.96393" lon="5.34282">
        <ele>639.89</ele>
        <time>2018-04-23T10:40:47Z</time>
      </trkpt>
      <trkpt lat="43.9639" lon="5.34281">
        <ele>639.89</ele>
        <time>2018-04-23T10:41:01Z</time>
      </trkpt>
      <trkpt lat="43.96394" lon="5.34277">
        <ele>639.89</ele>
        <time>2018-04-23T10:41:13Z</time>
      </trkpt>
      <trkpt lat="43.96396" lon="5.34278">
        <ele>639.89</ele>
        <time>2018-04-23T10:41:25Z</time>
      </trkpt>
      <trkpt lat="43.96396" lon="5.34277">
        <ele>639.89</ele>
        <time>2018-04-23T10:41:44Z</time>
      </trkpt>
      <trkpt lat="43.96399" lon="5.34271">
        <ele>637.01</ele>
        <time>2018-04-23T10:41:59Z</time>
      </trkpt>
      <trkpt lat="43.96394" lon="5.34266">
        <ele>637.01</ele>
        <time>2018-04-23T10:42:11Z</time>
      </trkpt>
      <trkpt lat="43.96394" lon="5.34266">
        <ele>637.01</ele>
        <time>2018-04-23T10:42:12Z</time>
      </trkpt>
      <trkpt lat="43.96394" lon="5.34261">
        <ele>637.01</ele>
        <time>2018-04-23T10:42:23Z</time>
      </trkpt>
      <trkpt lat="43.96394" lon="5.34252">
        <ele>635.57</ele>
        <time>2018-04-23T10:42:34Z</time>
      </trkpt>
      <trkpt lat="43.96394" lon="5.3424">
        <ele>634.61</ele>
        <time>2018-04-23T10:42:49Z</time>
      </trkpt>
      <trkpt lat="43.96393" lon="5.34239">
        <ele>634.61</ele>
        <time>2018-04-23T10:42:50Z</time>
      </trkpt>
      <trkpt lat="43.96393" lon="5.34235">
        <ele>634.13</ele>
        <time>2018-04-23T10:42:54Z</time>
      </trkpt>
      <trkpt lat="43.96387" lon="5.34236">
        <ele>635.57</ele>
        <time>2018-04-23T10:43:02Z</time>
      </trkpt>
      <trkpt lat="43.96384" lon="5.34234">
        <ele>635.57</ele>
        <time>2018-04-23T10:43:09Z</time>
      </trkpt>
      <trkpt lat="43.96387" lon="5.34238">
        <ele>635.57</ele>
        <time>2018-04-23T10:43:14Z</time>
      </trkpt>
      <trkpt lat="43.96385" lon="5.34241">
        <ele>635.57</ele>
        <time>2018-04-23T10:43:16Z</time>
      </trkpt>
      <trkpt lat="43.96385" lon="5.34245">
        <ele>636.05</ele>
        <time>2018-04-23T10:43:21Z</time>
      </trkpt>
      <trkpt lat="43.96387" lon="5.34245">
        <ele>636.05</ele>
        <time>2018-04-23T10:43:23Z</time>
      </trkpt>
      <trkpt lat="43.96391" lon="5.34247">
        <ele>636.05</ele>
        <time>2018-04-23T10:43:37Z</time>
      </trkpt>
      <trkpt lat="43.9639" lon="5.34246">
        <ele>636.53</ele>
        <time>2018-04-23T10:44:04Z</time>
      </trkpt>
      <trkpt lat="43.9639" lon="5.34246">
        <ele>636.53</ele>
        <time>2018-04-23T10:44:06Z</time>
      </trkpt>
      <trkpt lat="43.96378" lon="5.34246">
        <ele>637.01</ele>
        <time>2018-04-23T10:44:18Z</time>
      </trkpt>
      <trkpt lat="43.96369" lon="5.34253">
        <ele>638.93</ele>
        <time>2018-04-23T10:44:30Z</time>
      </trkpt>
      <trkpt lat="43.96369" lon="5.3425">
        <ele>639.41</ele>
        <time>2018-04-23T10:44:35Z</time>
      </trkpt>
      <trkpt lat="43.96362" lon="5.34242">
        <ele>637.49</ele>
        <time>2018-04-23T10:44:47Z</time>
      </trkpt>
      <trkpt lat="43.96361" lon="5.34242">
        <ele>637.49</ele>
        <time>2018-04-23T10:44:54Z</time>
      </trkpt>
      <trkpt lat="43.96365" lon="5.34244">
        <ele>637.49</ele>
        <time>2018-04-23T10:44:58Z</time>
      </trkpt>
      <trkpt lat="43.96368" lon="5.34251">
        <ele>638.93</ele>
        <time>2018-04-23T10:45:04Z</time>
      </trkpt>
      <trkpt lat="43.96369" lon="5.34252">
        <ele>638.93</ele>
        <time>2018-04-23T10:45:05Z</time>
      </trkpt>
      <trkpt lat="43.96379" lon="5.34248">
        <ele>637.01</ele>
        <time>2018-04-23T10:45:17Z</time>
      </trkpt>
      <trkpt lat="43.96381" lon="5.34249">
        <ele>636.53</ele>
        <time>2018-04-23T10:45:19Z</time>
      </trkpt>
      <trkpt lat="43.96384" lon="5.34248">
        <ele>636.53</ele>
        <time>2018-04-23T10:45:22Z</time>
      </trkpt>
      <trkpt lat="43.96391" lon="5.34249">
        <ele>636.53</ele>
        <time>2018-04-23T10:45:32Z</time>
      </trkpt>
      <trkpt lat="43.9639" lon="5.34248">
        <ele>636.05</ele>
        <time>2018-04-23T10:45:34Z</time>
      </trkpt>
      <trkpt lat="43.96383" lon="5.34249">
        <ele>636.05</ele>
        <time>2018-04-23T10:45:46Z</time>
      </trkpt>
      <trkpt lat="43.96378" lon="5.34249">
        <ele>637.01</ele>
        <time>2018-04-23T10:45:54Z</time>
      </trkpt>
      <trkpt lat="43.96374" lon="5.34249">
        <ele>637.97</ele>
        <time>2018-04-23T10:46:03Z</time>
      </trkpt>
      <trkpt lat="43.96371" lon="5.34252">
        <ele>638.45</ele>
        <time>2018-04-23T10:46:14Z</time>
      </trkpt>
      <trkpt lat="43.96373" lon="5.3425">
        <ele>638.45</ele>
        <time>2018-04-23T10:46:16Z</time>
      </trkpt>
      <trkpt lat="43.96372" lon="5.34244">
        <ele>637.01</ele>
        <time>2018-04-23T10:46:22Z</time>
      </trkpt>
      <trkpt lat="43.96368" lon="5.3424">
        <ele>635.09</ele>
        <time>2018-04-23T10:46:34Z</time>
      </trkpt>
      <trkpt lat="43.96363" lon="5.3424">
        <ele>634.61</ele>
        <time>2018-04-23T10:46:45Z</time>
      </trkpt>
      <trkpt lat="43.96362" lon="5.34239">
        <ele>634.61</ele>
        <time>2018-04-23T10:46:54Z</time>
      </trkpt>
      <trkpt lat="43.96358" lon="5.34237">
        <ele>634.13</ele>
        <time>2018-04-23T10:47:07Z</time>
      </trkpt>
      <trkpt lat="43.96357" lon="5.34236">
        <ele>634.13</ele>
        <time>2018-04-23T10:47:10Z</time>
      </trkpt>
      <trkpt lat="43.96354" lon="5.34232">
        <ele>632.2</ele>
        <time>2018-04-23T10:47:22Z</time>
      </trkpt>
      <trkpt lat="43.96352" lon="5.34229">
        <ele>632.2</ele>
        <time>2018-04-23T10:47:37Z</time>
      </trkpt>
      <trkpt lat="43.96346" lon="5.34235">
        <ele>634.13</ele>
        <time>2018-04-23T10:47:49Z</time>
      </trkpt>
      <trkpt lat="43.96344" lon="5.34234">
        <ele>634.61</ele>
        <time>2018-04-23T10:47:56Z</time>
      </trkpt>
      <trkpt lat="43.96337" lon="5.34231">
        <ele>634.61</ele>
        <time>2018-04-23T10:48:10Z</time>
      </trkpt>
      <trkpt lat="43.96337" lon="5.34229">
        <ele>633.65</ele>
        <time>2018-04-23T10:48:25Z</time>
      </trkpt>
      <trkpt lat="43.96337" lon="5.34229">
        <ele>633.65</ele>
        <time>2018-04-23T10:48:43Z</time>
      </trkpt>
      <trkpt lat="43.96337" lon="5.34229">
        <ele>633.65</ele>
        <time>2018-04-23T10:49:04Z</time>
      </trkpt>
      <trkpt lat="43.96339" lon="5.34231">
        <ele>633.65</ele>
        <time>2018-04-23T10:49:31Z</time>
      </trkpt>
      <trkpt lat="43.96334" lon="5.34226">
        <ele>632.68</ele>
        <time>2018-04-23T10:49:43Z</time>
      </trkpt>
      <trkpt lat="43.96332" lon="5.34223">
        <ele>631.72</ele>
        <time>2018-04-23T10:49:47Z</time>
      </trkpt>
      <trkpt lat="43.96327" lon="5.34218">
        <ele>631.72</ele>
        <time>2018-04-23T10:49:53Z</time>
      </trkpt>
      <trkpt lat="43.96322" lon="5.34206">
        <ele>629.32</ele>
        <time>2018-04-23T10:50:07Z</time>
      </trkpt>
      <trkpt lat="43.96316" lon="5.34197">
        <ele>629.8</ele>
        <time>2018-04-23T10:50:18Z</time>
      </trkpt>
      <trkpt lat="43.96314" lon="5.34193">
        <ele>628.84</ele>
        <time>2018-04-23T10:50:28Z</time>
      </trkpt>
      <trkpt lat="43.96311" lon="5.34195">
        <ele>628.84</ele>
        <time>2018-04-23T10:50:40Z</time>
      </trkpt>
      <trkpt lat="43.96306" lon="5.34188">
        <ele>628.84</ele>
        <time>2018-04-23T10:50:52Z</time>
      </trkpt>
      <trkpt lat="43.96297" lon="5.34189">
        <ele>628.84</ele>
        <time>2018-04-23T10:51:05Z</time>
      </trkpt>
      <trkpt lat="43.96289" lon="5.342">
        <ele>628.84</ele>
        <time>2018-04-23T10:51:20Z</time>
      </trkpt>
      <trkpt lat="43.96282" lon="5.34206">
        <ele>628.36</ele>
        <time>2018-04-23T10:51:34Z</time>
      </trkpt>
      <trkpt lat="43.96281" lon="5.34206">
        <ele>627.88</ele>
        <time>2018-04-23T10:51:36Z</time>
      </trkpt>
      <trkpt lat="43.96278" lon="5.34205">
        <ele>627.4</ele>
        <time>2018-04-23T10:51:39Z</time>
      </trkpt>
      <trkpt lat="43.96273" lon="5.34205">
        <ele>626.92</ele>
        <time>2018-04-23T10:51:44Z</time>
      </trkpt>
      <trkpt lat="43.96262" lon="5.34198">
        <ele>624.99</ele>
        <time>2018-04-23T10:51:56Z</time>
      </trkpt>
      <trkpt lat="43.9626" lon="5.34192">
        <ele>624.51</ele>
        <time>2018-04-23T10:52:08Z</time>
      </trkpt>
      <trkpt lat="43.96259" lon="5.34191">
        <ele>624.03</ele>
        <time>2018-04-23T10:52:23Z</time>
      </trkpt>
      <trkpt lat="43.96255" lon="5.34182">
        <ele>624.03</ele>
        <time>2018-04-23T10:52:29Z</time>
      </trkpt>
      <trkpt lat="43.96248" lon="5.34178">
        <ele>623.07</ele>
        <time>2018-04-23T10:52:36Z</time>
      </trkpt>
      <trkpt lat="43.9624" lon="5.34165">
        <ele>621.63</ele>
        <time>2018-04-23T10:52:52Z</time>
      </trkpt>
      <trkpt lat="43.96237" lon="5.34163">
        <ele>620.67</ele>
        <time>2018-04-23T10:53:05Z</time>
      </trkpt>
      <trkpt lat="43.96239" lon="5.34162">
        <ele>620.67</ele>
        <time>2018-04-23T10:53:25Z</time>
      </trkpt>
      <trkpt lat="43.96236" lon="5.34163">
        <ele>620.19</ele>
        <time>2018-04-23T10:53:48Z</time>
      </trkpt>
      <trkpt lat="43.96234" lon="5.34163">
        <ele>620.19</ele>
        <time>2018-04-23T10:54:07Z</time>
      </trkpt>
      <trkpt lat="43.96221" lon="5.34161">
        <ele>617.78</ele>
        <time>2018-04-23T10:54:27Z</time>
      </trkpt>
      <trkpt lat="43.96208" lon="5.34162">
        <ele>615.38</ele>
        <time>2018-04-23T10:54:44Z</time>
      </trkpt>
      <trkpt lat="43.96205" lon="5.34162">
        <ele>614.9</ele>
        <time>2018-04-23T10:54:59Z</time>
      </trkpt>
      <trkpt lat="43.96205" lon="5.34162">
        <ele>616.34</ele>
        <time>2018-04-23T10:55:14Z</time>
      </trkpt>
      <trkpt lat="43.96204" lon="5.34162">
        <ele>614.9</ele>
        <time>2018-04-23T10:55:29Z</time>
      </trkpt>
      <trkpt lat="43.96204" lon="5.34162">
        <ele>617.3</ele>
        <time>2018-04-23T10:55:36Z</time>
      </trkpt>
      <trkpt lat="43.96204" lon="5.34162">
        <ele>613.94</ele>
        <time>2018-04-23T10:55:38Z</time>
      </trkpt>
      <trkpt lat="43.96204" lon="5.34162">
        <ele>618.26</ele>
        <time>2018-04-23T10:55:48Z</time>
      </trkpt>
      <trkpt lat="43.96199" lon="5.34166">
        <ele>614.9</ele>
        <time>2018-04-23T10:56:01Z</time>
      </trkpt>
      <trkpt lat="43.96197" lon="5.34164">
        <ele>614.9</ele>
        <time>2018-04-23T10:56:21Z</time>
      </trkpt>
      <trkpt lat="43.96197" lon="5.34164">
        <ele>614.42</ele>
        <time>2018-04-23T10:56:43Z</time>
      </trkpt>
      <trkpt lat="43.96198" lon="5.34168">
        <ele>613.94</ele>
        <time>2018-04-23T10:57:00Z</time>
      </trkpt>
      <trkpt lat="43.962" lon="5.34166">
        <ele>613.94</ele>
        <time>2018-04-23T10:57:37Z</time>
      </trkpt>
      <trkpt lat="43.96199" lon="5.34167">
        <ele>613.94</ele>
        <time>2018-04-23T10:58:16Z</time>
      </trkpt>
      <trkpt lat="43.96199" lon="5.34165">
        <ele>613.94</ele>
        <time>2018-04-23T10:58:49Z</time>
      </trkpt>
      <trkpt lat="43.96198" lon="5.34166">
        <ele>613.94</ele>
        <time>2018-04-23T10:59:07Z</time>
      </trkpt>
      <trkpt lat="43.96196" lon="5.34168">
        <ele>613.94</ele>
        <time>2018-04-23T10:59:48Z</time>
      </trkpt>
      <trkpt lat="43.96198" lon="5.34165">
        <ele>613.94</ele>
        <time>2018-04-23T11:00:25Z</time>
      </trkpt>
      <trkpt lat="43.96198" lon="5.34167">
        <ele>614.42</ele>
        <time>2018-04-23T11:01:03Z</time>
      </trkpt>
      <trkpt lat="43.96197" lon="5.34167">
        <ele>614.42</ele>
        <time>2018-04-23T11:01:39Z</time>
      </trkpt>
      <trkpt lat="43.96195" lon="5.34167">
        <ele>614.42</ele>
        <time>2018-04-23T11:02:19Z</time>
      </trkpt>
      <trkpt lat="43.96194" lon="5.34168">
        <ele>614.42</ele>
        <time>2018-04-23T11:02:56Z</time>
      </trkpt>
      <trkpt lat="43.96195" lon="5.34169">
        <ele>614.42</ele>
        <time>2018-04-23T11:03:32Z</time>
      </trkpt>
      <trkpt lat="43.96195" lon="5.34169">
        <ele>615.38</ele>
        <time>2018-04-23T11:03:38Z</time>
      </trkpt>
      <trkpt lat="43.96195" lon="5.3417">
        <ele>615.38</ele>
        <time>2018-04-23T11:04:17Z</time>
      </trkpt>
      <trkpt lat="43.96195" lon="5.34169">
        <ele>615.38</ele>
        <time>2018-04-23T11:04:52Z</time>
      </trkpt>
      <trkpt lat="43.96196" lon="5.34168">
        <ele>615.38</ele>
        <time>2018-04-23T11:05:36Z</time>
      </trkpt>
      <trkpt lat="43.96197" lon="5.34169">
        <ele>615.86</ele>
        <time>2018-04-23T11:06:11Z</time>
      </trkpt>
      <trkpt lat="43.96197" lon="5.34167">
        <ele>615.86</ele>
        <time>2018-04-23T11:06:52Z</time>
      </trkpt>
      <trkpt lat="43.96197" lon="5.34167">
        <ele>615.86</ele>
        <time>2018-04-23T11:07:37Z</time>
      </trkpt>
      <trkpt lat="43.96197" lon="5.34165">
        <ele>615.86</ele>
        <time>2018-04-23T11:08:14Z</time>
      </trkpt>
      <trkpt lat="43.96198" lon="5.34163">
        <ele>615.86</ele>
        <time>2018-04-23T11:08:52Z</time>
      </trkpt>
      <trkpt lat="43.96199" lon="5.34164">
        <ele>615.86</ele>
        <time>2018-04-23T11:09:31Z</time>
      </trkpt>
      <trkpt lat="43.96197" lon="5.34166">
        <ele>615.86</ele>
        <time>2018-04-23T11:10:05Z</time>
      </trkpt>
      <trkpt lat="43.96195" lon="5.34169">
        <ele>615.86</ele>
        <time>2018-04-23T11:10:43Z</time>
      </trkpt>
      <trkpt lat="43.96195" lon="5.34168">
        <ele>615.86</ele>
        <time>2018-04-23T11:11:20Z</time>
      </trkpt>
      <trkpt lat="43.96197" lon="5.34165">
        <ele>615.86</ele>
        <time>2018-04-23T11:11:59Z</time>
      </trkpt>
      <trkpt lat="43.96198" lon="5.34165">
        <ele>615.86</ele>
        <time>2018-04-23T11:12:37Z</time>
      </trkpt>
      <trkpt lat="43.96198" lon="5.34164">
        <ele>615.86</ele>
        <time>2018-04-23T11:13:12Z</time>
      </trkpt>
      <trkpt lat="43.96199" lon="5.34166">
        <ele>615.86</ele>
        <time>2018-04-23T11:13:50Z</time>
      </trkpt>
      <trkpt lat="43.96198" lon="5.34165">
        <ele>615.86</ele>
        <time>2018-04-23T11:14:34Z</time>
      </trkpt>
      <trkpt lat="43.96197" lon="5.34166">
        <ele>616.34</ele>
        <time>2018-04-23T11:15:16Z</time>
      </trkpt>
      <trkpt lat="43.96197" lon="5.34167">
        <ele>616.82</ele>
        <time>2018-04-23T11:15:43Z</time>
      </trkpt>
      <trkpt lat="43.96198" lon="5.34166">
        <ele>616.82</ele>
        <time>2018-04-23T11:16:00Z</time>
      </trkpt>
      <trkpt lat="43.96197" lon="5.34167">
        <ele>616.82</ele>
        <time>2018-04-23T11:16:25Z</time>
      </trkpt>
      <trkpt lat="43.96195" lon="5.34166">
        <ele>616.82</ele>
        <time>2018-04-23T11:16:57Z</time>
      </trkpt>
      <trkpt lat="43.96195" lon="5.34165">
        <ele>616.82</ele>
        <time>2018-04-23T11:17:36Z</time>
      </trkpt>
      <trkpt lat="43.96197" lon="5.34166">
        <ele>616.82</ele>
        <time>2018-04-23T11:18:09Z</time>
      </trkpt>
      <trkpt lat="43.96199" lon="5.34165">
        <ele>616.82</ele>
        <time>2018-04-23T11:18:42Z</time>
      </trkpt>
      <trkpt lat="43.96201" lon="5.34163">
        <ele>616.82</ele>
        <time>2018-04-23T11:19:02Z</time>
      </trkpt>
      <trkpt lat="43.962" lon="5.34164">
        <ele>617.3</ele>
        <time>2018-04-23T11:19:22Z</time>
      </trkpt>
      <trkpt lat="43.962" lon="5.34167">
        <ele>616.82</ele>
        <time>2018-04-23T11:19:48Z</time>
      </trkpt>
      <trkpt lat="43.962" lon="5.34165">
        <ele>615.86</ele>
        <time>2018-04-23T11:20:12Z</time>
      </trkpt>
      <trkpt lat="43.96197" lon="5.3417">
        <ele>615.86</ele>
        <time>2018-04-23T11:20:42Z</time>
      </trkpt>
      <trkpt lat="43.96194" lon="5.34167">
        <ele>615.86</ele>
        <time>2018-04-23T11:21:17Z</time>
      </trkpt>
      <trkpt lat="43.96195" lon="5.34166">
        <ele>615.86</ele>
        <time>2018-04-23T11:21:51Z</time>
      </trkpt>
      <trkpt lat="43.96196" lon="5.34165">
        <ele>615.86</ele>
        <time>2018-04-23T11:22:32Z</time>
      </trkpt>
      <trkpt lat="43.96196" lon="5.3417">
        <ele>615.86</ele>
        <time>2018-04-23T11:23:07Z</time>
      </trkpt>
      <trkpt lat="43.96195" lon="5.3417">
        <ele>615.38</ele>
        <time>2018-04-23T11:23:47Z</time>
      </trkpt>
      <trkpt lat="43.96198" lon="5.3417">
        <ele>615.38</ele>
        <time>2018-04-23T11:24:27Z</time>
      </trkpt>
      <trkpt lat="43.962" lon="5.34169">
        <ele>614.9</ele>
        <time>2018-04-23T11:25:04Z</time>
      </trkpt>
      <trkpt lat="43.96198" lon="5.3417">
        <ele>614.42</ele>
        <time>2018-04-23T11:25:43Z</time>
      </trkpt>
      <trkpt lat="43.96196" lon="5.34167">
        <ele>614.42</ele>
        <time>2018-04-23T11:26:26Z</time>
      </trkpt>
      <trkpt lat="43.96194" lon="5.34169">
        <ele>614.42</ele>
        <time>2018-04-23T11:27:07Z</time>
      </trkpt>
      <trkpt lat="43.96194" lon="5.34169">
        <ele>613.94</ele>
        <time>2018-04-23T11:27:44Z</time>
      </trkpt>
      <trkpt lat="43.96195" lon="5.34169">
        <ele>613.94</ele>
        <time>2018-04-23T11:28:24Z</time>
      </trkpt>
      <trkpt lat="43.96197" lon="5.3417">
        <ele>613.94</ele>
        <time>2018-04-23T11:29:01Z</time>
      </trkpt>
      <trkpt lat="43.96197" lon="5.3417">
        <ele>614.9</ele>
        <time>2018-04-23T11:29:38Z</time>
      </trkpt>
      <trkpt lat="43.96198" lon="5.34169">
        <ele>614.9</ele>
        <time>2018-04-23T11:30:09Z</time>
      </trkpt>
      <trkpt lat="43.96197" lon="5.34168">
        <ele>614.42</ele>
        <time>2018-04-23T11:30:41Z</time>
      </trkpt>
      <trkpt lat="43.96197" lon="5.34169">
        <ele>614.42</ele>
        <time>2018-04-23T11:31:16Z</time>
      </trkpt>
      <trkpt lat="43.96197" lon="5.34169">
        <ele>614.42</ele>
        <time>2018-04-23T11:31:54Z</time>
      </trkpt>
      <trkpt lat="43.96195" lon="5.34168">
        <ele>614.42</ele>
        <time>2018-04-23T11:32:24Z</time>
      </trkpt>
      <trkpt lat="43.96195" lon="5.3417">
        <ele>614.42</ele>
        <time>2018-04-23T11:32:59Z</time>
      </trkpt>
      <trkpt lat="43.96195" lon="5.34169">
        <ele>614.42</ele>
        <time>2018-04-23T11:33:33Z</time>
      </trkpt>
      <trkpt lat="43.96194" lon="5.34172">
        <ele>614.42</ele>
        <time>2018-04-23T11:34:00Z</time>
      </trkpt>
      <trkpt lat="43.96195" lon="5.3417">
        <ele>613.94</ele>
        <time>2018-04-23T11:34:34Z</time>
      </trkpt>
      <trkpt lat="43.96198" lon="5.34167">
        <ele>615.38</ele>
        <time>2018-04-23T11:35:00Z</time>
      </trkpt>
      <trkpt lat="43.96198" lon="5.34167">
        <ele>612.5</ele>
        <time>2018-04-23T11:35:04Z</time>
      </trkpt>
      <trkpt lat="43.96198" lon="5.34168">
        <ele>616.82</ele>
        <time>2018-04-23T11:35:05Z</time>
      </trkpt>
      <trkpt lat="43.96198" lon="5.34168">
        <ele>614.9</ele>
        <time>2018-04-23T11:35:06Z</time>
      </trkpt>
      <trkpt lat="43.96197" lon="5.34169">
        <ele>612.5</ele>
        <time>2018-04-23T11:35:08Z</time>
      </trkpt>
      <trkpt lat="43.96197" lon="5.34169">
        <ele>614.9</ele>
        <time>2018-04-23T11:35:09Z</time>
      </trkpt>
      <trkpt lat="43.96197" lon="5.3417">
        <ele>618.75</ele>
        <time>2018-04-23T11:35:10Z</time>
      </trkpt>
      <trkpt lat="43.96197" lon="5.3417">
        <ele>618.75</ele>
        <time>2018-04-23T11:35:11Z</time>
      </trkpt>
      <trkpt lat="43.96197" lon="5.3417">
        <ele>611.54</ele>
        <time>2018-04-23T11:35:12Z</time>
      </trkpt>
      <trkpt lat="43.96197" lon="5.3417">
        <ele>618.26</ele>
        <time>2018-04-23T11:35:13Z</time>
      </trkpt>
      <trkpt lat="43.96197" lon="5.3417">
        <ele>615.38</ele>
        <time>2018-04-23T11:35:14Z</time>
      </trkpt>
      <trkpt lat="43.96198" lon="5.3417">
        <ele>611.54</ele>
        <time>2018-04-23T11:35:19Z</time>
      </trkpt>
      <trkpt lat="43.96198" lon="5.3417">
        <ele>611.54</ele>
        <time>2018-04-23T11:35:20Z</time>
      </trkpt>
      <trkpt lat="43.96199" lon="5.3417">
        <ele>614.9</ele>
        <time>2018-04-23T11:35:22Z</time>
      </trkpt>
      <trkpt lat="43.96199" lon="5.3417">
        <ele>614.9</ele>
        <time>2018-04-23T11:35:23Z</time>
      </trkpt>
      <trkpt lat="43.96199" lon="5.34172">
        <ele>613.94</ele>
        <time>2018-04-23T11:35:26Z</time>
      </trkpt>
      <trkpt lat="43.962" lon="5.34174">
        <ele>615.38</ele>
        <time>2018-04-23T11:35:34Z</time>
      </trkpt>
      <trkpt lat="43.96199" lon="5.34174">
        <ele>618.75</ele>
        <time>2018-04-23T11:35:38Z</time>
      </trkpt>
      <trkpt lat="43.962" lon="5.34174">
        <ele>618.75</ele>
        <time>2018-04-23T11:35:39Z</time>
      </trkpt>
      <trkpt lat="43.96199" lon="5.34175">
        <ele>614.9</ele>
        <time>2018-04-23T11:35:40Z</time>
      </trkpt>
      <trkpt lat="43.962" lon="5.34176">
        <ele>614.9</ele>
        <time>2018-04-23T11:35:41Z</time>
      </trkpt>
      <trkpt lat="43.962" lon="5.34176">
        <ele>612.98</ele>
        <time>2018-04-23T11:35:44Z</time>
      </trkpt>
      <trkpt lat="43.96199" lon="5.34176">
        <ele>615.38</ele>
        <time>2018-04-23T11:35:46Z</time>
      </trkpt>
      <trkpt lat="43.96204" lon="5.34168">
        <ele>614.42</ele>
        <time>2018-04-23T11:36:15Z</time>
      </trkpt>
      <trkpt lat="43.96197" lon="5.34164">
        <ele>613.94</ele>
        <time>2018-04-23T11:36:43Z</time>
      </trkpt>
      <trkpt lat="43.96197" lon="5.34165">
        <ele>613.94</ele>
        <time>2018-04-23T11:37:18Z</time>
      </trkpt>
      <trkpt lat="43.96197" lon="5.34162">
        <ele>614.42</ele>
        <time>2018-04-23T11:37:35Z</time>
      </trkpt>
      <trkpt lat="43.962" lon="5.34163">
        <ele>614.42</ele>
        <time>2018-04-23T11:37:54Z</time>
      </trkpt>
      <trkpt lat="43.96201" lon="5.34163">
        <ele>614.42</ele>
        <time>2018-04-23T11:38:16Z</time>
      </trkpt>
      <trkpt lat="43.962" lon="5.34164">
        <ele>614.42</ele>
        <time>2018-04-23T11:38:39Z</time>
      </trkpt>
      <trkpt lat="43.96205" lon="5.34164">
        <ele>614.42</ele>
        <time>2018-04-23T11:39:15Z</time>
      </trkpt>
      <trkpt lat="43.96203" lon="5.34166">
        <ele>614.42</ele>
        <time>2018-04-23T11:39:38Z</time>
      </trkpt>
      <trkpt lat="43.96201" lon="5.34164">
        <ele>614.42</ele>
        <time>2018-04-23T11:40:06Z</time>
      </trkpt>
      <trkpt lat="43.96194" lon="5.34167">
        <ele>613.94</ele>
        <time>2018-04-23T11:40:24Z</time>
      </trkpt>
      <trkpt lat="43.96181" lon="5.3417">
        <ele>612.02</ele>
        <time>2018-04-23T11:40:43Z</time>
      </trkpt>
      <trkpt lat="43.96165" lon="5.34169">
        <ele>609.13</ele>
        <time>2018-04-23T11:41:03Z</time>
      </trkpt>
      <trkpt lat="43.96154" lon="5.3417">
        <ele>606.73</ele>
        <time>2018-04-23T11:41:20Z</time>
      </trkpt>
      <trkpt lat="43.96143" lon="5.34174">
        <ele>604.33</ele>
        <time>2018-04-23T11:41:36Z</time>
      </trkpt>
      <trkpt lat="43.9613" lon="5.34181">
        <ele>602.4</ele>
        <time>2018-04-23T11:41:53Z</time>
      </trkpt>
      <trkpt lat="43.96118" lon="5.34182">
        <ele>600</ele>
        <time>2018-04-23T11:42:10Z</time>
      </trkpt>
      <trkpt lat="43.96102" lon="5.34181">
        <ele>597.6</ele>
        <time>2018-04-23T11:42:28Z</time>
      </trkpt>
      <trkpt lat="43.96088" lon="5.34188">
        <ele>595.67</ele>
        <time>2018-04-23T11:42:45Z</time>
      </trkpt>
      <trkpt lat="43.96077" lon="5.34194">
        <ele>593.75</ele>
        <time>2018-04-23T11:43:00Z</time>
      </trkpt>
      <trkpt lat="43.96065" lon="5.34206">
        <ele>591.83</ele>
        <time>2018-04-23T11:43:16Z</time>
      </trkpt>
      <trkpt lat="43.96054" lon="5.34224">
        <ele>590.39</ele>
        <time>2018-04-23T11:43:35Z</time>
      </trkpt>
      <trkpt lat="43.96042" lon="5.34239">
        <ele>587.98</ele>
        <time>2018-04-23T11:43:53Z</time>
      </trkpt>
      <trkpt lat="43.96031" lon="5.34258">
        <ele>586.54</ele>
        <time>2018-04-23T11:44:12Z</time>
      </trkpt>
      <trkpt lat="43.96017" lon="5.34271">
        <ele>583.66</ele>
        <time>2018-04-23T11:44:32Z</time>
      </trkpt>
      <trkpt lat="43.96004" lon="5.34285">
        <ele>580.77</ele>
        <time>2018-04-23T11:44:52Z</time>
      </trkpt>
      <trkpt lat="43.95991" lon="5.34292">
        <ele>579.33</ele>
        <time>2018-04-23T11:45:07Z</time>
      </trkpt>
      <trkpt lat="43.95984" lon="5.34297">
        <ele>577.41</ele>
        <time>2018-04-23T11:45:16Z</time>
      </trkpt>
      <trkpt lat="43.95973" lon="5.3431">
        <ele>575.49</ele>
        <time>2018-04-23T11:45:34Z</time>
      </trkpt>
      <trkpt lat="43.9596" lon="5.34331">
        <ele>573.08</ele>
        <time>2018-04-23T11:45:54Z</time>
      </trkpt>
      <trkpt lat="43.9595" lon="5.34345">
        <ele>571.16</ele>
        <time>2018-04-23T11:46:10Z</time>
      </trkpt>
      <trkpt lat="43.95936" lon="5.34354">
        <ele>569.24</ele>
        <time>2018-04-23T11:46:27Z</time>
      </trkpt>
      <trkpt lat="43.95926" lon="5.34366">
        <ele>566.83</ele>
        <time>2018-04-23T11:46:43Z</time>
      </trkpt>
      <trkpt lat="43.95914" lon="5.34377">
        <ele>564.91</ele>
        <time>2018-04-23T11:47:00Z</time>
      </trkpt>
      <trkpt lat="43.95901" lon="5.34389">
        <ele>562.99</ele>
        <time>2018-04-23T11:47:17Z</time>
      </trkpt>
      <trkpt lat="43.95886" lon="5.34399">
        <ele>560.59</ele>
        <time>2018-04-23T11:47:36Z</time>
      </trkpt>
      <trkpt lat="43.95877" lon="5.34402">
        <ele>559.14</ele>
        <time>2018-04-23T11:47:47Z</time>
      </trkpt>
      <trkpt lat="43.95861" lon="5.34399">
        <ele>556.74</ele>
        <time>2018-04-23T11:48:04Z</time>
      </trkpt>
      <trkpt lat="43.95842" lon="5.34397">
        <ele>554.34</ele>
        <time>2018-04-23T11:48:24Z</time>
      </trkpt>
      <trkpt lat="43.9583" lon="5.34395">
        <ele>552.41</ele>
        <time>2018-04-23T11:48:40Z</time>
      </trkpt>
      <trkpt lat="43.95811" lon="5.34399">
        <ele>550.01</ele>
        <time>2018-04-23T11:49:00Z</time>
      </trkpt>
      <trkpt lat="43.95797" lon="5.34403">
        <ele>547.61</ele>
        <time>2018-04-23T11:49:17Z</time>
      </trkpt>
      <trkpt lat="43.95784" lon="5.34404">
        <ele>545.2</ele>
        <time>2018-04-23T11:49:33Z</time>
      </trkpt>
      <trkpt lat="43.95768" lon="5.34407">
        <ele>543.76</ele>
        <time>2018-04-23T11:49:50Z</time>
      </trkpt>
      <trkpt lat="43.95751" lon="5.34406">
        <ele>541.36</ele>
        <time>2018-04-23T11:50:07Z</time>
      </trkpt>
      <trkpt lat="43.95734" lon="5.34396">
        <ele>539.44</ele>
        <time>2018-04-23T11:50:28Z</time>
      </trkpt>
      <trkpt lat="43.95718" lon="5.34395">
        <ele>536.55</ele>
        <time>2018-04-23T11:50:45Z</time>
      </trkpt>
      <trkpt lat="43.95711" lon="5.34389">
        <ele>536.07</ele>
        <time>2018-04-23T11:50:59Z</time>
      </trkpt>
      <trkpt lat="43.9571" lon="5.34389">
        <ele>533.19</ele>
        <time>2018-04-23T11:51:05Z</time>
      </trkpt>
      <trkpt lat="43.9571" lon="5.3439">
        <ele>538.48</ele>
        <time>2018-04-23T11:51:06Z</time>
      </trkpt>
      <trkpt lat="43.95707" lon="5.34392">
        <ele>535.11</ele>
        <time>2018-04-23T11:51:10Z</time>
      </trkpt>
      <trkpt lat="43.95694" lon="5.34398">
        <ele>532.71</ele>
        <time>2018-04-23T11:51:30Z</time>
      </trkpt>
      <trkpt lat="43.95683" lon="5.34403">
        <ele>531.27</ele>
        <time>2018-04-23T11:51:46Z</time>
      </trkpt>
      <trkpt lat="43.9567" lon="5.3441">
        <ele>528.38</ele>
        <time>2018-04-23T11:52:04Z</time>
      </trkpt>
      <trkpt lat="43.95657" lon="5.34415">
        <ele>525.98</ele>
        <time>2018-04-23T11:52:20Z</time>
      </trkpt>
      <trkpt lat="43.95638" lon="5.34426">
        <ele>523.09</ele>
        <time>2018-04-23T11:52:41Z</time>
      </trkpt>
      <trkpt lat="43.95634" lon="5.34427">
        <ele>522.61</ele>
        <time>2018-04-23T11:52:45Z</time>
      </trkpt>
      <trkpt lat="43.95617" lon="5.34434">
        <ele>520.21</ele>
        <time>2018-04-23T11:53:04Z</time>
      </trkpt>
      <trkpt lat="43.95601" lon="5.34434">
        <ele>517.81</ele>
        <time>2018-04-23T11:53:23Z</time>
      </trkpt>
      <trkpt lat="43.95588" lon="5.3444">
        <ele>515.88</ele>
        <time>2018-04-23T11:53:40Z</time>
      </trkpt>
      <trkpt lat="43.95569" lon="5.34447">
        <ele>513</ele>
        <time>2018-04-23T11:53:59Z</time>
      </trkpt>
      <trkpt lat="43.95554" lon="5.34456">
        <ele>511.08</ele>
        <time>2018-04-23T11:54:15Z</time>
      </trkpt>
      <trkpt lat="43.95549" lon="5.34461">
        <ele>510.12</ele>
        <time>2018-04-23T11:54:21Z</time>
      </trkpt>
      <trkpt lat="43.95535" lon="5.34477">
        <ele>508.67</ele>
        <time>2018-04-23T11:54:38Z</time>
      </trkpt>
      <trkpt lat="43.95521" lon="5.34492">
        <ele>506.27</ele>
        <time>2018-04-23T11:54:56Z</time>
      </trkpt>
      <trkpt lat="43.95509" lon="5.34501">
        <ele>503.87</ele>
        <time>2018-04-23T11:55:11Z</time>
      </trkpt>
      <trkpt lat="43.95503" lon="5.34501">
        <ele>503.39</ele>
        <time>2018-04-23T11:55:17Z</time>
      </trkpt>
      <trkpt lat="43.95488" lon="5.34505">
        <ele>500.98</ele>
        <time>2018-04-23T11:55:36Z</time>
      </trkpt>
      <trkpt lat="43.95476" lon="5.34509">
        <ele>499.06</ele>
        <time>2018-04-23T11:55:53Z</time>
      </trkpt>
      <trkpt lat="43.95462" lon="5.34508">
        <ele>496.66</ele>
        <time>2018-04-23T11:56:11Z</time>
      </trkpt>
      <trkpt lat="43.95448" lon="5.34513">
        <ele>494.26</ele>
        <time>2018-04-23T11:56:27Z</time>
      </trkpt>
      <trkpt lat="43.95433" lon="5.34506">
        <ele>491.85</ele>
        <time>2018-04-23T11:56:45Z</time>
      </trkpt>
      <trkpt lat="43.95419" lon="5.34496">
        <ele>490.41</ele>
        <time>2018-04-23T11:57:04Z</time>
      </trkpt>
      <trkpt lat="43.95416" lon="5.34494">
        <ele>489.93</ele>
        <time>2018-04-23T11:57:08Z</time>
      </trkpt>
      <trkpt lat="43.95397" lon="5.34482">
        <ele>486.56</ele>
        <time>2018-04-23T11:57:27Z</time>
      </trkpt>
      <trkpt lat="43.95381" lon="5.34465">
        <ele>484.64</ele>
        <time>2018-04-23T11:57:47Z</time>
      </trkpt>
      <trkpt lat="43.95367" lon="5.34456">
        <ele>482.24</ele>
        <time>2018-04-23T11:58:05Z</time>
      </trkpt>
      <trkpt lat="43.95361" lon="5.3445">
        <ele>481.76</ele>
        <time>2018-04-23T11:58:19Z</time>
      </trkpt>
      <trkpt lat="43.9536" lon="5.34448">
        <ele>476.47</ele>
        <time>2018-04-23T11:58:21Z</time>
      </trkpt>
      <trkpt lat="43.9536" lon="5.34448">
        <ele>486.08</ele>
        <time>2018-04-23T11:58:22Z</time>
      </trkpt>
      <trkpt lat="43.9536" lon="5.34447">
        <ele>482.24</ele>
        <time>2018-04-23T11:58:23Z</time>
      </trkpt>
      <trkpt lat="43.9536" lon="5.3444">
        <ele>481.76</ele>
        <time>2018-04-23T11:58:39Z</time>
      </trkpt>
      <trkpt lat="43.9536" lon="5.34437">
        <ele>481.76</ele>
        <time>2018-04-23T11:59:04Z</time>
      </trkpt>
      <trkpt lat="43.95353" lon="5.34446">
        <ele>480.8</ele>
        <time>2018-04-23T11:59:19Z</time>
      </trkpt>
      <trkpt lat="43.95351" lon="5.34449">
        <ele>480.32</ele>
        <time>2018-04-23T11:59:40Z</time>
      </trkpt>
      <trkpt lat="43.9535" lon="5.34446">
        <ele>480.32</ele>
        <time>2018-04-23T12:00:07Z</time>
      </trkpt>
      <trkpt lat="43.95346" lon="5.34442">
        <ele>479.35</ele>
        <time>2018-04-23T12:00:26Z</time>
      </trkpt>
      <trkpt lat="43.95334" lon="5.34439">
        <ele>477.91</ele>
        <time>2018-04-23T12:00:47Z</time>
      </trkpt>
      <trkpt lat="43.95318" lon="5.34433">
        <ele>475.51</ele>
        <time>2018-04-23T12:01:06Z</time>
      </trkpt>
      <trkpt lat="43.95302" lon="5.34429">
        <ele>473.11</ele>
        <time>2018-04-23T12:01:24Z</time>
      </trkpt>
      <trkpt lat="43.95286" lon="5.34426">
        <ele>471.18</ele>
        <time>2018-04-23T12:01:39Z</time>
      </trkpt>
      <trkpt lat="43.9527" lon="5.34423">
        <ele>469.74</ele>
        <time>2018-04-23T12:01:55Z</time>
      </trkpt>
      <trkpt lat="43.95254" lon="5.34413">
        <ele>467.34</ele>
        <time>2018-04-23T12:02:14Z</time>
      </trkpt>
      <trkpt lat="43.95235" lon="5.34399">
        <ele>464.93</ele>
        <time>2018-04-23T12:02:35Z</time>
      </trkpt>
      <trkpt lat="43.95217" lon="5.34376">
        <ele>463.01</ele>
        <time>2018-04-23T12:02:58Z</time>
      </trkpt>
      <trkpt lat="43.95199" lon="5.34355">
        <ele>460.13</ele>
        <time>2018-04-23T12:03:21Z</time>
      </trkpt>
      <trkpt lat="43.95187" lon="5.34335">
        <ele>458.21</ele>
        <time>2018-04-23T12:03:39Z</time>
      </trkpt>
      <trkpt lat="43.95175" lon="5.34311">
        <ele>456.76</ele>
        <time>2018-04-23T12:03:58Z</time>
      </trkpt>
      <trkpt lat="43.95164" lon="5.34286">
        <ele>455.32</ele>
        <time>2018-04-23T12:04:18Z</time>
      </trkpt>
      <trkpt lat="43.95153" lon="5.34262">
        <ele>451.96</ele>
        <time>2018-04-23T12:04:40Z</time>
      </trkpt>
      <trkpt lat="43.95148" lon="5.34254">
        <ele>451.48</ele>
        <time>2018-04-23T12:04:58Z</time>
      </trkpt>
      <trkpt lat="43.95147" lon="5.34251">
        <ele>451.48</ele>
        <time>2018-04-23T12:05:25Z</time>
      </trkpt>
      <trkpt lat="43.95147" lon="5.34252">
        <ele>451.48</ele>
        <time>2018-04-23T12:05:55Z</time>
      </trkpt>
      <trkpt lat="43.95143" lon="5.34256">
        <ele>451</ele>
        <time>2018-04-23T12:06:11Z</time>
      </trkpt>
      <trkpt lat="43.95137" lon="5.34266">
        <ele>451</ele>
        <time>2018-04-23T12:06:20Z</time>
      </trkpt>
      <trkpt lat="43.95122" lon="5.34304">
        <ele>450.52</ele>
        <time>2018-04-23T12:06:49Z</time>
      </trkpt>
      <trkpt lat="43.95116" lon="5.34338">
        <ele>450.03</ele>
        <time>2018-04-23T12:07:12Z</time>
      </trkpt>
      <trkpt lat="43.95116" lon="5.3437">
        <ele>449.55</ele>
        <time>2018-04-23T12:07:32Z</time>
      </trkpt>
      <trkpt lat="43.95116" lon="5.34406">
        <ele>449.07</ele>
        <time>2018-04-23T12:07:56Z</time>
      </trkpt>
      <trkpt lat="43.95105" lon="5.34418">
        <ele>447.15</ele>
        <time>2018-04-23T12:08:13Z</time>
      </trkpt>
      <trkpt lat="43.95087" lon="5.3441">
        <ele>444.27</ele>
        <time>2018-04-23T12:08:35Z</time>
      </trkpt>
      <trkpt lat="43.95069" lon="5.34404">
        <ele>441.38</ele>
        <time>2018-04-23T12:08:54Z</time>
      </trkpt>
      <trkpt lat="43.95059" lon="5.34402">
        <ele>440.42</ele>
        <time>2018-04-23T12:09:04Z</time>
      </trkpt>
      <trkpt lat="43.95039" lon="5.34399">
        <ele>437.54</ele>
        <time>2018-04-23T12:09:24Z</time>
      </trkpt>
      <trkpt lat="43.95019" lon="5.34396">
        <ele>435.61</ele>
        <time>2018-04-23T12:09:42Z</time>
      </trkpt>
      <trkpt lat="43.95" lon="5.34394">
        <ele>433.21</ele>
        <time>2018-04-23T12:10:00Z</time>
      </trkpt>
      <trkpt lat="43.94983" lon="5.34387">
        <ele>430.81</ele>
        <time>2018-04-23T12:10:19Z</time>
      </trkpt>
      <trkpt lat="43.94962" lon="5.34378">
        <ele>428.4</ele>
        <time>2018-04-23T12:10:39Z</time>
      </trkpt>
      <trkpt lat="43.94943" lon="5.34367">
        <ele>426.48</ele>
        <time>2018-04-23T12:10:58Z</time>
      </trkpt>
      <trkpt lat="43.94925" lon="5.3436">
        <ele>423.6</ele>
        <time>2018-04-23T12:11:18Z</time>
      </trkpt>
      <trkpt lat="43.94902" lon="5.3435">
        <ele>420.71</ele>
        <time>2018-04-23T12:11:41Z</time>
      </trkpt>
      <trkpt lat="43.94884" lon="5.3434">
        <ele>419.27</ele>
        <time>2018-04-23T12:11:58Z</time>
      </trkpt>
      <trkpt lat="43.94866" lon="5.34334">
        <ele>417.35</ele>
        <time>2018-04-23T12:12:15Z</time>
      </trkpt>
      <trkpt lat="43.94855" lon="5.3433">
        <ele>415.43</ele>
        <time>2018-04-23T12:12:27Z</time>
      </trkpt>
      <trkpt lat="43.94834" lon="5.34322">
        <ele>413.02</ele>
        <time>2018-04-23T12:12:47Z</time>
      </trkpt>
      <trkpt lat="43.94815" lon="5.34317">
        <ele>410.62</ele>
        <time>2018-04-23T12:13:08Z</time>
      </trkpt>
      <trkpt lat="43.94801" lon="5.34318">
        <ele>408.7</ele>
        <time>2018-04-23T12:13:21Z</time>
      </trkpt>
      <trkpt lat="43.9478" lon="5.34322">
        <ele>406.29</ele>
        <time>2018-04-23T12:13:42Z</time>
      </trkpt>
      <trkpt lat="43.94762" lon="5.34327">
        <ele>403.89</ele>
        <time>2018-04-23T12:14:01Z</time>
      </trkpt>
      <trkpt lat="43.94744" lon="5.3433">
        <ele>402.45</ele>
        <time>2018-04-23T12:14:20Z</time>
      </trkpt>
      <trkpt lat="43.94726" lon="5.34336">
        <ele>400.53</ele>
        <time>2018-04-23T12:14:37Z</time>
      </trkpt>
      <trkpt lat="43.94707" lon="5.34348">
        <ele>398.6</ele>
        <time>2018-04-23T12:14:56Z</time>
      </trkpt>
      <trkpt lat="43.94691" lon="5.34356">
        <ele>396.68</ele>
        <time>2018-04-23T12:15:19Z</time>
      </trkpt>
      <trkpt lat="43.94688" lon="5.34354">
        <ele>396.2</ele>
        <time>2018-04-23T12:15:47Z</time>
      </trkpt>
      <trkpt lat="43.94678" lon="5.34358">
        <ele>395.72</ele>
        <time>2018-04-23T12:16:02Z</time>
      </trkpt>
      <trkpt lat="43.94673" lon="5.34363">
        <ele>394.76</ele>
        <time>2018-04-23T12:16:20Z</time>
      </trkpt>
      <trkpt lat="43.94658" lon="5.34371">
        <ele>393.32</ele>
        <time>2018-04-23T12:16:39Z</time>
      </trkpt>
      <trkpt lat="43.94652" lon="5.34376">
        <ele>391.87</ele>
        <time>2018-04-23T12:16:57Z</time>
      </trkpt>
      <trkpt lat="43.9464" lon="5.34384">
        <ele>391.39</ele>
        <time>2018-04-23T12:17:13Z</time>
      </trkpt>
      <trkpt lat="43.9463" lon="5.34395">
        <ele>389.95</ele>
        <time>2018-04-23T12:17:28Z</time>
      </trkpt>
      <trkpt lat="43.94616" lon="5.34412">
        <ele>387.55</ele>
        <time>2018-04-23T12:17:47Z</time>
      </trkpt>
      <trkpt lat="43.94592" lon="5.34419">
        <ele>385.15</ele>
        <time>2018-04-23T12:18:11Z</time>
      </trkpt>
      <trkpt lat="43.94575" lon="5.34417">
        <ele>384.66</ele>
        <time>2018-04-23T12:18:32Z</time>
      </trkpt>
      <trkpt lat="43.94576" lon="5.34421">
        <ele>384.66</ele>
        <time>2018-04-23T12:18:54Z</time>
      </trkpt>
      <trkpt lat="43.94576" lon="5.34421">
        <ele>384.18</ele>
        <time>2018-04-23T12:19:12Z</time>
      </trkpt>
      <trkpt lat="43.94576" lon="5.34421">
        <ele>384.18</ele>
        <time>2018-04-23T12:19:25Z</time>
      </trkpt>
      <trkpt lat="43.94574" lon="5.34422">
        <ele>384.18</ele>
        <time>2018-04-23T12:19:39Z</time>
      </trkpt>
      <trkpt lat="43.94571" lon="5.34419">
        <ele>383.7</ele>
        <time>2018-04-23T12:20:08Z</time>
      </trkpt>
      <trkpt lat="43.94552" lon="5.34425">
        <ele>382.26</ele>
        <time>2018-04-23T12:20:26Z</time>
      </trkpt>
      <trkpt lat="43.94534" lon="5.34425">
        <ele>380.34</ele>
        <time>2018-04-23T12:20:45Z</time>
      </trkpt>
      <trkpt lat="43.94528" lon="5.34426">
        <ele>379.86</ele>
        <time>2018-04-23T12:20:52Z</time>
      </trkpt>
      <trkpt lat="43.94513" lon="5.34425">
        <ele>377.94</ele>
        <time>2018-04-23T12:21:08Z</time>
      </trkpt>
      <trkpt lat="43.94498" lon="5.34423">
        <ele>376.49</ele>
        <time>2018-04-23T12:21:24Z</time>
      </trkpt>
      <trkpt lat="43.94477" lon="5.3442">
        <ele>373.61</ele>
        <time>2018-04-23T12:21:45Z</time>
      </trkpt>
      <trkpt lat="43.94459" lon="5.34417">
        <ele>372.17</ele>
        <time>2018-04-23T12:22:02Z</time>
      </trkpt>
      <trkpt lat="43.94442" lon="5.34412">
        <ele>369.76</ele>
        <time>2018-04-23T12:22:19Z</time>
      </trkpt>
      <trkpt lat="43.94425" lon="5.34406">
        <ele>367.84</ele>
        <time>2018-04-23T12:22:37Z</time>
      </trkpt>
      <trkpt lat="43.94415" lon="5.34396">
        <ele>366.4</ele>
        <time>2018-04-23T12:22:49Z</time>
      </trkpt>
      <trkpt lat="43.94394" lon="5.34393">
        <ele>364.48</ele>
        <time>2018-04-23T12:23:09Z</time>
      </trkpt>
      <trkpt lat="43.94375" lon="5.34387">
        <ele>362.07</ele>
        <time>2018-04-23T12:23:29Z</time>
      </trkpt>
      <trkpt lat="43.94353" lon="5.34378">
        <ele>359.19</ele>
        <time>2018-04-23T12:23:50Z</time>
      </trkpt>
      <trkpt lat="43.94333" lon="5.34366">
        <ele>357.75</ele>
        <time>2018-04-23T12:24:12Z</time>
      </trkpt>
      <trkpt lat="43.94313" lon="5.34359">
        <ele>354.86</ele>
        <time>2018-04-23T12:24:32Z</time>
      </trkpt>
      <trkpt lat="43.94295" lon="5.34352">
        <ele>352.94</ele>
        <time>2018-04-23T12:24:50Z</time>
      </trkpt>
      <trkpt lat="43.94274" lon="5.34345">
        <ele>351.02</ele>
        <time>2018-04-23T12:25:11Z</time>
      </trkpt>
      <trkpt lat="43.94253" lon="5.34333">
        <ele>348.62</ele>
        <time>2018-04-23T12:25:32Z</time>
      </trkpt>
      <trkpt lat="43.94231" lon="5.34317">
        <ele>346.21</ele>
        <time>2018-04-23T12:25:55Z</time>
      </trkpt>
      <trkpt lat="43.94215" lon="5.34308">
        <ele>343.81</ele>
        <time>2018-04-23T12:26:14Z</time>
      </trkpt>
      <trkpt lat="43.94196" lon="5.34297">
        <ele>341.41</ele>
        <time>2018-04-23T12:26:33Z</time>
      </trkpt>
      <trkpt lat="43.94175" lon="5.34288">
        <ele>339</ele>
        <time>2018-04-23T12:26:53Z</time>
      </trkpt>
      <trkpt lat="43.94154" lon="5.34277">
        <ele>336.12</ele>
        <time>2018-04-23T12:27:15Z</time>
      </trkpt>
      <trkpt lat="43.94134" lon="5.34265">
        <ele>334.2</ele>
        <time>2018-04-23T12:27:36Z</time>
      </trkpt>
      <trkpt lat="43.94115" lon="5.34254">
        <ele>332.27</ele>
        <time>2018-04-23T12:27:55Z</time>
      </trkpt>
      <trkpt lat="43.941" lon="5.34238">
        <ele>329.87</ele>
        <time>2018-04-23T12:28:13Z</time>
      </trkpt>
      <trkpt lat="43.94082" lon="5.34222">
        <ele>327.95</ele>
        <time>2018-04-23T12:28:33Z</time>
      </trkpt>
      <trkpt lat="43.94064" lon="5.34204">
        <ele>326.99</ele>
        <time>2018-04-23T12:28:53Z</time>
      </trkpt>
      <trkpt lat="43.94056" lon="5.34193">
        <ele>325.54</ele>
        <time>2018-04-23T12:29:05Z</time>
      </trkpt>
      <trkpt lat="43.94045" lon="5.34173">
        <ele>323.62</ele>
        <time>2018-04-23T12:29:20Z</time>
      </trkpt>
      <trkpt lat="43.94043" lon="5.34158">
        <ele>323.14</ele>
        <time>2018-04-23T12:29:37Z</time>
      </trkpt>
      <trkpt lat="43.94043" lon="5.3416">
        <ele>324.1</ele>
        <time>2018-04-23T12:29:40Z</time>
      </trkpt>
      <trkpt lat="43.94044" lon="5.3416">
        <ele>323.14</ele>
        <time>2018-04-23T12:29:55Z</time>
      </trkpt>
      <trkpt lat="43.94043" lon="5.34161">
        <ele>322.66</ele>
        <time>2018-04-23T12:30:12Z</time>
      </trkpt>
      <trkpt lat="43.94041" lon="5.34164">
        <ele>323.62</ele>
        <time>2018-04-23T12:30:35Z</time>
      </trkpt>
      <trkpt lat="43.94041" lon="5.34164">
        <ele>322.18</ele>
        <time>2018-04-23T12:30:37Z</time>
      </trkpt>
      <trkpt lat="43.94041" lon="5.34164">
        <ele>323.62</ele>
        <time>2018-04-23T12:30:39Z</time>
      </trkpt>
      <trkpt lat="43.94042" lon="5.34164">
        <ele>323.14</ele>
        <time>2018-04-23T12:30:50Z</time>
      </trkpt>
      <trkpt lat="43.94043" lon="5.3416">
        <ele>323.14</ele>
        <time>2018-04-23T12:31:11Z</time>
      </trkpt>
      <trkpt lat="43.94044" lon="5.34156">
        <ele>322.18</ele>
        <time>2018-04-23T12:31:27Z</time>
      </trkpt>
      <trkpt lat="43.94046" lon="5.34156">
        <ele>321.22</ele>
        <time>2018-04-23T12:31:39Z</time>
      </trkpt>
      <trkpt lat="43.94045" lon="5.34155">
        <ele>326.02</ele>
        <time>2018-04-23T12:31:42Z</time>
      </trkpt>
      <trkpt lat="43.94045" lon="5.34155">
        <ele>323.14</ele>
        <time>2018-04-23T12:31:43Z</time>
      </trkpt>
      <trkpt lat="43.94047" lon="5.34137">
        <ele>321.22</ele>
        <time>2018-04-23T12:32:01Z</time>
      </trkpt>
      <trkpt lat="43.94048" lon="5.34134">
        <ele>321.22</ele>
        <time>2018-04-23T12:32:03Z</time>
      </trkpt>
      <trkpt lat="43.9405" lon="5.34114">
        <ele>318.81</ele>
        <time>2018-04-23T12:32:17Z</time>
      </trkpt>
      <trkpt lat="43.94055" lon="5.34103">
        <ele>315.93</ele>
        <time>2018-04-23T12:32:30Z</time>
      </trkpt>
      <trkpt lat="43.9408" lon="5.34099">
        <ele>314.97</ele>
        <time>2018-04-23T12:32:51Z</time>
      </trkpt>
      <trkpt lat="43.941" lon="5.3411">
        <ele>314.97</ele>
        <time>2018-04-23T12:33:10Z</time>
      </trkpt>
      <trkpt lat="43.94127" lon="5.34123">
        <ele>314.49</ele>
        <time>2018-04-23T12:33:33Z</time>
      </trkpt>
      <trkpt lat="43.94153" lon="5.34121">
        <ele>314.49</ele>
        <time>2018-04-23T12:33:55Z</time>
      </trkpt>
      <trkpt lat="43.94178" lon="5.34119">
        <ele>313.53</ele>
        <time>2018-04-23T12:34:18Z</time>
      </trkpt>
      <trkpt lat="43.942" lon="5.34116">
        <ele>313.53</ele>
        <time>2018-04-23T12:34:39Z</time>
      </trkpt>
      <trkpt lat="43.94212" lon="5.34115">
        <ele>314.49</ele>
        <time>2018-04-23T12:34:50Z</time>
      </trkpt>
      <trkpt lat="43.94228" lon="5.34111">
        <ele>314.97</ele>
        <time>2018-04-23T12:35:04Z</time>
      </trkpt>
      <trkpt lat="43.94255" lon="5.34105">
        <ele>315.93</ele>
        <time>2018-04-23T12:35:28Z</time>
      </trkpt>
      <trkpt lat="43.94275" lon="5.34099">
        <ele>317.37</ele>
        <time>2018-04-23T12:35:47Z</time>
      </trkpt>
      <trkpt lat="43.94296" lon="5.34091">
        <ele>318.33</ele>
        <time>2018-04-23T12:36:07Z</time>
      </trkpt>
      <trkpt lat="43.94318" lon="5.34081">
        <ele>318.81</ele>
        <time>2018-04-23T12:36:27Z</time>
      </trkpt>
      <trkpt lat="43.94337" lon="5.34072">
        <ele>319.3</ele>
        <time>2018-04-23T12:36:45Z</time>
      </trkpt>
      <trkpt lat="43.9436" lon="5.34064">
        <ele>319.3</ele>
        <time>2018-04-23T12:37:04Z</time>
      </trkpt>
      <trkpt lat="43.94382" lon="5.34057">
        <ele>318.81</ele>
        <time>2018-04-23T12:37:23Z</time>
      </trkpt>
      <trkpt lat="43.94406" lon="5.34061">
        <ele>319.3</ele>
        <time>2018-04-23T12:37:44Z</time>
      </trkpt>
      <trkpt lat="43.94427" lon="5.34061">
        <ele>319.78</ele>
        <time>2018-04-23T12:38:03Z</time>
      </trkpt>
      <trkpt lat="43.94432" lon="5.3406">
        <ele>318.33</ele>
        <time>2018-04-23T12:38:07Z</time>
      </trkpt>
      <trkpt lat="43.94448" lon="5.34056">
        <ele>317.37</ele>
        <time>2018-04-23T12:38:21Z</time>
      </trkpt>
      <trkpt lat="43.94471" lon="5.34048">
        <ele>316.89</ele>
        <time>2018-04-23T12:38:39Z</time>
      </trkpt>
      <trkpt lat="43.945" lon="5.3404">
        <ele>318.33</ele>
        <time>2018-04-23T12:39:02Z</time>
      </trkpt>
      <trkpt lat="43.94523" lon="5.34021">
        <ele>318.81</ele>
        <time>2018-04-23T12:39:22Z</time>
      </trkpt>
      <trkpt lat="43.9454" lon="5.34002">
        <ele>319.78</ele>
        <time>2018-04-23T12:39:41Z</time>
      </trkpt>
      <trkpt lat="43.94559" lon="5.33983">
        <ele>320.74</ele>
        <time>2018-04-23T12:40:02Z</time>
      </trkpt>
      <trkpt lat="43.94579" lon="5.33963">
        <ele>321.22</ele>
        <time>2018-04-23T12:40:23Z</time>
      </trkpt>
      <trkpt lat="43.94595" lon="5.33946">
        <ele>321.7</ele>
        <time>2018-04-23T12:40:41Z</time>
      </trkpt>
      <trkpt lat="43.9461" lon="5.33931">
        <ele>321.7</ele>
        <time>2018-04-23T12:40:59Z</time>
      </trkpt>
      <trkpt lat="43.94608" lon="5.3393">
        <ele>321.7</ele>
        <time>2018-04-23T12:41:20Z</time>
      </trkpt>
      <trkpt lat="43.94608" lon="5.33929">
        <ele>321.7</ele>
        <time>2018-04-23T12:41:46Z</time>
      </trkpt>
      <trkpt lat="43.94608" lon="5.33929">
        <ele>318.33</ele>
        <time>2018-04-23T12:41:52Z</time>
      </trkpt>
      <trkpt lat="43.94608" lon="5.33929">
        <ele>322.18</ele>
        <time>2018-04-23T12:41:54Z</time>
      </trkpt>
      <trkpt lat="43.94608" lon="5.33929">
        <ele>322.18</ele>
        <time>2018-04-23T12:41:55Z</time>
      </trkpt>
      <trkpt lat="43.94607" lon="5.33931">
        <ele>322.18</ele>
        <time>2018-04-23T12:42:20Z</time>
      </trkpt>
      <trkpt lat="43.94613" lon="5.33927">
        <ele>321.7</ele>
        <time>2018-04-23T12:42:47Z</time>
      </trkpt>
      <trkpt lat="43.94614" lon="5.33925">
        <ele>321.7</ele>
        <time>2018-04-23T12:43:16Z</time>
      </trkpt>
      <trkpt lat="43.94622" lon="5.33922">
        <ele>321.22</ele>
        <time>2018-04-23T12:43:39Z</time>
      </trkpt>
      <trkpt lat="43.94623" lon="5.3392">
        <ele>316.89</ele>
        <time>2018-04-23T12:43:57Z</time>
      </trkpt>
      <trkpt lat="43.94624" lon="5.3392">
        <ele>324.1</ele>
        <time>2018-04-23T12:43:58Z</time>
      </trkpt>
      <trkpt lat="43.94624" lon="5.3392">
        <ele>320.74</ele>
        <time>2018-04-23T12:43:59Z</time>
      </trkpt>
      <trkpt lat="43.94624" lon="5.33919">
        <ele>320.26</ele>
        <time>2018-04-23T12:44:19Z</time>
      </trkpt>
      <trkpt lat="43.94629" lon="5.33918">
        <ele>319.78</ele>
        <time>2018-04-23T12:44:34Z</time>
      </trkpt>
      <trkpt lat="43.94641" lon="5.33917">
        <ele>318.81</ele>
        <time>2018-04-23T12:44:49Z</time>
      </trkpt>
      <trkpt lat="43.94653" lon="5.33917">
        <ele>318.81</ele>
        <time>2018-04-23T12:45:04Z</time>
      </trkpt>
      <trkpt lat="43.94669" lon="5.3392">
        <ele>318.33</ele>
        <time>2018-04-23T12:45:18Z</time>
      </trkpt>
      <trkpt lat="43.9468" lon="5.33918">
        <ele>319.78</ele>
        <time>2018-04-23T12:45:33Z</time>
      </trkpt>
      <trkpt lat="43.94692" lon="5.33916">
        <ele>321.22</ele>
        <time>2018-04-23T12:45:51Z</time>
      </trkpt>
      <trkpt lat="43.947" lon="5.33911">
        <ele>321.22</ele>
        <time>2018-04-23T12:46:02Z</time>
      </trkpt>
      <trkpt lat="43.94718" lon="5.33902">
        <ele>322.18</ele>
        <time>2018-04-23T12:46:18Z</time>
      </trkpt>
      <trkpt lat="43.94737" lon="5.33894">
        <ele>322.66</ele>
        <time>2018-04-23T12:46:35Z</time>
      </trkpt>
      <trkpt lat="43.94753" lon="5.33887">
        <ele>323.14</ele>
        <time>2018-04-23T12:46:48Z</time>
      </trkpt>
      <trkpt lat="43.94777" lon="5.33885">
        <ele>322.66</ele>
        <time>2018-04-23T12:47:04Z</time>
      </trkpt>
      <trkpt lat="43.94797" lon="5.33883">
        <ele>323.14</ele>
        <time>2018-04-23T12:47:20Z</time>
      </trkpt>
      <trkpt lat="43.94799" lon="5.33882">
        <ele>323.14</ele>
        <time>2018-04-23T12:47:21Z</time>
      </trkpt>
      <trkpt lat="43.94818" lon="5.33871">
        <ele>324.1</ele>
        <time>2018-04-23T12:47:37Z</time>
      </trkpt>
      <trkpt lat="43.94835" lon="5.33867">
        <ele>324.58</ele>
        <time>2018-04-23T12:47:52Z</time>
      </trkpt>
      <trkpt lat="43.94854" lon="5.33868">
        <ele>324.1</ele>
        <time>2018-04-23T12:48:11Z</time>
      </trkpt>
      <trkpt lat="43.94868" lon="5.33866">
        <ele>324.58</ele>
        <time>2018-04-23T12:48:24Z</time>
      </trkpt>
      <trkpt lat="43.94885" lon="5.33856">
        <ele>325.54</ele>
        <time>2018-04-23T12:48:40Z</time>
      </trkpt>
      <trkpt lat="43.94897" lon="5.33843">
        <ele>326.5</ele>
        <time>2018-04-23T12:48:54Z</time>
      </trkpt>
      <trkpt lat="43.94913" lon="5.33828">
        <ele>326.5</ele>
        <time>2018-04-23T12:49:10Z</time>
      </trkpt>
      <trkpt lat="43.94932" lon="5.33815">
        <ele>327.47</ele>
        <time>2018-04-23T12:49:29Z</time>
      </trkpt>
      <trkpt lat="43.94949" lon="5.33805">
        <ele>328.43</ele>
        <time>2018-04-23T12:49:46Z</time>
      </trkpt>
      <trkpt lat="43.94966" lon="5.33796">
        <ele>328.43</ele>
        <time>2018-04-23T12:50:03Z</time>
      </trkpt>
      <trkpt lat="43.94984" lon="5.33786">
        <ele>329.39</ele>
        <time>2018-04-23T12:50:20Z</time>
      </trkpt>
      <trkpt lat="43.95007" lon="5.33775">
        <ele>329.87</ele>
        <time>2018-04-23T12:50:42Z</time>
      </trkpt>
      <trkpt lat="43.95024" lon="5.33767">
        <ele>332.27</ele>
        <time>2018-04-23T12:51:01Z</time>
      </trkpt>
      <trkpt lat="43.95039" lon="5.33758">
        <ele>334.68</ele>
        <time>2018-04-23T12:51:19Z</time>
      </trkpt>
      <trkpt lat="43.95062" lon="5.33752">
        <ele>336.6</ele>
        <time>2018-04-23T12:51:41Z</time>
      </trkpt>
      <trkpt lat="43.95084" lon="5.33754">
        <ele>336.6</ele>
        <time>2018-04-23T12:51:59Z</time>
      </trkpt>
      <trkpt lat="43.95092" lon="5.33756">
        <ele>335.16</ele>
        <time>2018-04-23T12:52:07Z</time>
      </trkpt>
      <trkpt lat="43.95109" lon="5.33758">
        <ele>334.2</ele>
        <time>2018-04-23T12:52:24Z</time>
      </trkpt>
      <trkpt lat="43.95124" lon="5.33761">
        <ele>333.71</ele>
        <time>2018-04-23T12:52:38Z</time>
      </trkpt>
      <trkpt lat="43.95143" lon="5.33764">
        <ele>333.23</ele>
        <time>2018-04-23T12:52:53Z</time>
      </trkpt>
      <trkpt lat="43.95164" lon="5.33768">
        <ele>334.2</ele>
        <time>2018-04-23T12:53:12Z</time>
      </trkpt>
      <trkpt lat="43.95181" lon="5.33775">
        <ele>334.68</ele>
        <time>2018-04-23T12:53:30Z</time>
      </trkpt>
      <trkpt lat="43.95189" lon="5.33799">
        <ele>334.68</ele>
        <time>2018-04-23T12:53:46Z</time>
      </trkpt>
      <trkpt lat="43.95201" lon="5.33816">
        <ele>334.68</ele>
        <time>2018-04-23T12:54:05Z</time>
      </trkpt>
      <trkpt lat="43.95216" lon="5.33829">
        <ele>335.16</ele>
        <time>2018-04-23T12:54:21Z</time>
      </trkpt>
      <trkpt lat="43.95236" lon="5.33847">
        <ele>336.12</ele>
        <time>2018-04-23T12:54:41Z</time>
      </trkpt>
      <trkpt lat="43.95246" lon="5.33855">
        <ele>336.12</ele>
        <time>2018-04-23T12:54:52Z</time>
      </trkpt>
      <trkpt lat="43.95262" lon="5.33871">
        <ele>336.6</ele>
        <time>2018-04-23T12:55:10Z</time>
      </trkpt>
      <trkpt lat="43.95274" lon="5.33884">
        <ele>337.08</ele>
        <time>2018-04-23T12:55:25Z</time>
      </trkpt>
      <trkpt lat="43.95288" lon="5.339">
        <ele>337.56</ele>
        <time>2018-04-23T12:55:40Z</time>
      </trkpt>
      <trkpt lat="43.95301" lon="5.33915">
        <ele>337.56</ele>
        <time>2018-04-23T12:55:56Z</time>
      </trkpt>
      <trkpt lat="43.95314" lon="5.33929">
        <ele>338.52</ele>
        <time>2018-04-23T12:56:10Z</time>
      </trkpt>
      <trkpt lat="43.95325" lon="5.33939">
        <ele>339</ele>
        <time>2018-04-23T12:56:24Z</time>
      </trkpt>
      <trkpt lat="43.95341" lon="5.33952">
        <ele>339.96</ele>
        <time>2018-04-23T12:56:40Z</time>
      </trkpt>
      <trkpt lat="43.95357" lon="5.33959">
        <ele>340.44</ele>
        <time>2018-04-23T12:56:56Z</time>
      </trkpt>
      <trkpt lat="43.9537" lon="5.33963">
        <ele>340.92</ele>
        <time>2018-04-23T12:57:09Z</time>
      </trkpt>
      <trkpt lat="43.95382" lon="5.33965">
        <ele>340.92</ele>
        <time>2018-04-23T12:57:20Z</time>
      </trkpt>
      <trkpt lat="43.95396" lon="5.3397">
        <ele>340.92</ele>
        <time>2018-04-23T12:57:34Z</time>
      </trkpt>
      <trkpt lat="43.95418" lon="5.33971">
        <ele>340.44</ele>
        <time>2018-04-23T12:57:50Z</time>
      </trkpt>
      <trkpt lat="43.95434" lon="5.33968">
        <ele>340.44</ele>
        <time>2018-04-23T12:58:05Z</time>
      </trkpt>
      <trkpt lat="43.95451" lon="5.33964">
        <ele>340.44</ele>
        <time>2018-04-23T12:58:22Z</time>
      </trkpt>
      <trkpt lat="43.95467" lon="5.33961">
        <ele>340.44</ele>
        <time>2018-04-23T12:58:36Z</time>
      </trkpt>
      <trkpt lat="43.95481" lon="5.33963">
        <ele>340.92</ele>
        <time>2018-04-23T12:58:51Z</time>
      </trkpt>
      <trkpt lat="43.95496" lon="5.3396">
        <ele>341.41</ele>
        <time>2018-04-23T12:59:06Z</time>
      </trkpt>
      <trkpt lat="43.9551" lon="5.33959">
        <ele>341.89</ele>
        <time>2018-04-23T12:59:21Z</time>
      </trkpt>
      <trkpt lat="43.95522" lon="5.33972">
        <ele>342.37</ele>
        <time>2018-04-23T12:59:36Z</time>
      </trkpt>
      <trkpt lat="43.9553" lon="5.33974">
        <ele>342.37</ele>
        <time>2018-04-23T12:59:51Z</time>
      </trkpt>
      <trkpt lat="43.95529" lon="5.33974">
        <ele>342.85</ele>
        <time>2018-04-23T13:00:01Z</time>
      </trkpt>
      <trkpt lat="43.95528" lon="5.33975">
        <ele>340.92</ele>
        <time>2018-04-23T13:00:14Z</time>
      </trkpt>
      <trkpt lat="43.95525" lon="5.33976">
        <ele>341.41</ele>
        <time>2018-04-23T13:00:41Z</time>
      </trkpt>
      <trkpt lat="43.95527" lon="5.33977">
        <ele>341.89</ele>
        <time>2018-04-23T13:01:08Z</time>
      </trkpt>
      <trkpt lat="43.95531" lon="5.33975">
        <ele>341.41</ele>
        <time>2018-04-23T13:01:33Z</time>
      </trkpt>
      <trkpt lat="43.95535" lon="5.33975">
        <ele>341.41</ele>
        <time>2018-04-23T13:01:38Z</time>
      </trkpt>
      <trkpt lat="43.95541" lon="5.33971">
        <ele>341.41</ele>
        <time>2018-04-23T13:01:44Z</time>
      </trkpt>
      <trkpt lat="43.95556" lon="5.33953">
        <ele>343.33</ele>
        <time>2018-04-23T13:02:03Z</time>
      </trkpt>
      <trkpt lat="43.95571" lon="5.33939">
        <ele>344.29</ele>
        <time>2018-04-23T13:02:21Z</time>
      </trkpt>
      <trkpt lat="43.95587" lon="5.33924">
        <ele>345.73</ele>
        <time>2018-04-23T13:02:39Z</time>
      </trkpt>
      <trkpt lat="43.95606" lon="5.33903">
        <ele>346.21</ele>
        <time>2018-04-23T13:02:59Z</time>
      </trkpt>
      <trkpt lat="43.95625" lon="5.33883">
        <ele>346.69</ele>
        <time>2018-04-23T13:03:20Z</time>
      </trkpt>
      <trkpt lat="43.95642" lon="5.3387">
        <ele>345.25</ele>
        <time>2018-04-23T13:03:39Z</time>
      </trkpt>
      <trkpt lat="43.95643" lon="5.3387">
        <ele>345.25</ele>
        <time>2018-04-23T13:03:40Z</time>
      </trkpt>
      <trkpt lat="43.95645" lon="5.33869">
        <ele>346.69</ele>
        <time>2018-04-23T13:03:43Z</time>
      </trkpt>
      <trkpt lat="43.95661" lon="5.33859">
        <ele>348.13</ele>
        <time>2018-04-23T13:04:00Z</time>
      </trkpt>
      <trkpt lat="43.95675" lon="5.33846">
        <ele>350.06</ele>
        <time>2018-04-23T13:04:18Z</time>
      </trkpt>
      <trkpt lat="43.95691" lon="5.3383">
        <ele>351.02</ele>
        <time>2018-04-23T13:04:36Z</time>
      </trkpt>
      <trkpt lat="43.9571" lon="5.33809">
        <ele>352.46</ele>
        <time>2018-04-23T13:04:57Z</time>
      </trkpt>
      <trkpt lat="43.95728" lon="5.33803">
        <ele>352.94</ele>
        <time>2018-04-23T13:05:15Z</time>
      </trkpt>
      <trkpt lat="43.95752" lon="5.33788">
        <ele>353.9</ele>
        <time>2018-04-23T13:05:38Z</time>
      </trkpt>
      <trkpt lat="43.95771" lon="5.33775">
        <ele>354.86</ele>
        <time>2018-04-23T13:05:58Z</time>
      </trkpt>
      <trkpt lat="43.95789" lon="5.33762">
        <ele>355.34</ele>
        <time>2018-04-23T13:06:16Z</time>
      </trkpt>
      <trkpt lat="43.95805" lon="5.33748">
        <ele>353.42</ele>
        <time>2018-04-23T13:06:34Z</time>
      </trkpt>
      <trkpt lat="43.95818" lon="5.33742">
        <ele>352.94</ele>
        <time>2018-04-23T13:06:47Z</time>
      </trkpt>
      <trkpt lat="43.95837" lon="5.33735">
        <ele>353.42</ele>
        <time>2018-04-23T13:07:05Z</time>
      </trkpt>
      <trkpt lat="43.95844" lon="5.33729">
        <ele>353.9</ele>
        <time>2018-04-23T13:07:25Z</time>
      </trkpt>
      <trkpt lat="43.95846" lon="5.33728">
        <ele>353.9</ele>
        <time>2018-04-23T13:07:51Z</time>
      </trkpt>
      <trkpt lat="43.9586" lon="5.33724">
        <ele>354.86</ele>
        <time>2018-04-23T13:08:09Z</time>
      </trkpt>
      <trkpt lat="43.95863" lon="5.33719">
        <ele>353.9</ele>
        <time>2018-04-23T13:08:20Z</time>
      </trkpt>
      <trkpt lat="43.95863" lon="5.33717">
        <ele>352.94</ele>
        <time>2018-04-23T13:08:40Z</time>
      </trkpt>
      <trkpt lat="43.95864" lon="5.33721">
        <ele>359.19</ele>
        <time>2018-04-23T13:08:54Z</time>
      </trkpt>
      <trkpt lat="43.95864" lon="5.33721">
        <ele>354.86</ele>
        <time>2018-04-23T13:08:55Z</time>
      </trkpt>
      <trkpt lat="43.95862" lon="5.33722">
        <ele>353.9</ele>
        <time>2018-04-23T13:09:18Z</time>
      </trkpt>
      <trkpt lat="43.95861" lon="5.33725">
        <ele>355.83</ele>
        <time>2018-04-23T13:09:45Z</time>
      </trkpt>
      <trkpt lat="43.95868" lon="5.33722">
        <ele>355.83</ele>
        <time>2018-04-23T13:09:57Z</time>
      </trkpt>
      <trkpt lat="43.9587" lon="5.33723">
        <ele>346.69</ele>
        <time>2018-04-23T13:10:00Z</time>
      </trkpt>
      <trkpt lat="43.95871" lon="5.33722">
        <ele>355.34</ele>
        <time>2018-04-23T13:10:01Z</time>
      </trkpt>
      <trkpt lat="43.95873" lon="5.3372">
        <ele>357.27</ele>
        <time>2018-04-23T13:10:04Z</time>
      </trkpt>
      <trkpt lat="43.95875" lon="5.33717">
        <ele>360.63</ele>
        <time>2018-04-23T13:10:16Z</time>
      </trkpt>
      <trkpt lat="43.95875" lon="5.33717">
        <ele>357.27</ele>
        <time>2018-04-23T13:10:17Z</time>
      </trkpt>
      <trkpt lat="43.95887" lon="5.33711">
        <ele>357.27</ele>
        <time>2018-04-23T13:10:32Z</time>
      </trkpt>
      <trkpt lat="43.95893" lon="5.33711">
        <ele>357.27</ele>
        <time>2018-04-23T13:10:47Z</time>
      </trkpt>
      <trkpt lat="43.959" lon="5.33708">
        <ele>358.23</ele>
        <time>2018-04-23T13:11:03Z</time>
      </trkpt>
      <trkpt lat="43.9591" lon="5.33703">
        <ele>358.23</ele>
        <time>2018-04-23T13:11:18Z</time>
      </trkpt>
      <trkpt lat="43.9592" lon="5.33699">
        <ele>357.75</ele>
        <time>2018-04-23T13:11:32Z</time>
      </trkpt>
      <trkpt lat="43.95928" lon="5.33696">
        <ele>358.71</ele>
        <time>2018-04-23T13:11:46Z</time>
      </trkpt>
      <trkpt lat="43.95935" lon="5.33692">
        <ele>358.71</ele>
        <time>2018-04-23T13:11:59Z</time>
      </trkpt>
      <trkpt lat="43.95946" lon="5.33687">
        <ele>358.71</ele>
        <time>2018-04-23T13:12:15Z</time>
      </trkpt>
      <trkpt lat="43.95962" lon="5.33686">
        <ele>359.67</ele>
        <time>2018-04-23T13:12:33Z</time>
      </trkpt>
      <trkpt lat="43.95968" lon="5.33699">
        <ele>360.15</ele>
        <time>2018-04-23T13:12:47Z</time>
      </trkpt>
      <trkpt lat="43.95983" lon="5.33701">
        <ele>360.63</ele>
        <time>2018-04-23T13:13:01Z</time>
      </trkpt>
      <trkpt lat="43.9599" lon="5.33694">
        <ele>362.07</ele>
        <time>2018-04-23T13:13:15Z</time>
      </trkpt>
      <trkpt lat="43.95997" lon="5.33682">
        <ele>360.63</ele>
        <time>2018-04-23T13:13:33Z</time>
      </trkpt>
      <trkpt lat="43.9601" lon="5.33674">
        <ele>360.63</ele>
        <time>2018-04-23T13:13:48Z</time>
      </trkpt>
      <trkpt lat="43.96016" lon="5.33674">
        <ele>360.63</ele>
        <time>2018-04-23T13:14:01Z</time>
      </trkpt>
      <trkpt lat="43.96016" lon="5.33675">
        <ele>362.07</ele>
        <time>2018-04-23T13:14:05Z</time>
      </trkpt>
      <trkpt lat="43.96025" lon="5.33678">
        <ele>363.52</ele>
        <time>2018-04-23T13:14:22Z</time>
      </trkpt>
      <trkpt lat="43.96034" lon="5.33676">
        <ele>364.96</ele>
        <time>2018-04-23T13:14:37Z</time>
      </trkpt>
      <trkpt lat="43.96043" lon="5.33674">
        <ele>365.92</ele>
        <time>2018-04-23T13:14:51Z</time>
      </trkpt>
      <trkpt lat="43.9606" lon="5.33674">
        <ele>364</ele>
        <time>2018-04-23T13:15:07Z</time>
      </trkpt>
      <trkpt lat="43.96074" lon="5.33671">
        <ele>364</ele>
        <time>2018-04-23T13:15:21Z</time>
      </trkpt>
      <trkpt lat="43.96077" lon="5.33668">
        <ele>365.44</ele>
        <time>2018-04-23T13:15:26Z</time>
      </trkpt>
      <trkpt lat="43.96091" lon="5.33658">
        <ele>366.4</ele>
        <time>2018-04-23T13:15:40Z</time>
      </trkpt>
      <trkpt lat="43.96098" lon="5.33652">
        <ele>366.88</ele>
        <time>2018-04-23T13:15:47Z</time>
      </trkpt>
      <trkpt lat="43.96111" lon="5.33635">
        <ele>366.88</ele>
        <time>2018-04-23T13:16:05Z</time>
      </trkpt>
      <trkpt lat="43.96129" lon="5.33625">
        <ele>367.36</ele>
        <time>2018-04-23T13:16:22Z</time>
      </trkpt>
      <trkpt lat="43.96144" lon="5.33615">
        <ele>368.32</ele>
        <time>2018-04-23T13:16:40Z</time>
      </trkpt>
      <trkpt lat="43.96146" lon="5.33613">
        <ele>368.8</ele>
        <time>2018-04-23T13:16:43Z</time>
      </trkpt>
      <trkpt lat="43.96163" lon="5.33599">
        <ele>369.28</ele>
        <time>2018-04-23T13:16:59Z</time>
      </trkpt>
      <trkpt lat="43.96172" lon="5.33589">
        <ele>369.76</ele>
        <time>2018-04-23T13:17:09Z</time>
      </trkpt>
      <trkpt lat="43.96185" lon="5.33576">
        <ele>370.24</ele>
        <time>2018-04-23T13:17:23Z</time>
      </trkpt>
      <trkpt lat="43.96195" lon="5.33565">
        <ele>369.76</ele>
        <time>2018-04-23T13:17:37Z</time>
      </trkpt>
      <trkpt lat="43.96209" lon="5.33548">
        <ele>370.73</ele>
        <time>2018-04-23T13:17:53Z</time>
      </trkpt>
      <trkpt lat="43.96221" lon="5.33547">
        <ele>370.73</ele>
        <time>2018-04-23T13:18:10Z</time>
      </trkpt>
      <trkpt lat="43.96231" lon="5.33545">
        <ele>370.24</ele>
        <time>2018-04-23T13:18:26Z</time>
      </trkpt>
      <trkpt lat="43.96246" lon="5.33546">
        <ele>370.73</ele>
        <time>2018-04-23T13:18:44Z</time>
      </trkpt>
      <trkpt lat="43.96253" lon="5.33556">
        <ele>370.73</ele>
        <time>2018-04-23T13:19:01Z</time>
      </trkpt>
      <trkpt lat="43.96261" lon="5.33557">
        <ele>370.24</ele>
        <time>2018-04-23T13:19:18Z</time>
      </trkpt>
      <trkpt lat="43.96267" lon="5.33554">
        <ele>370.24</ele>
        <time>2018-04-23T13:19:38Z</time>
      </trkpt>
      <trkpt lat="43.96271" lon="5.33557">
        <ele>370.73</ele>
        <time>2018-04-23T13:19:57Z</time>
      </trkpt>
      <trkpt lat="43.96285" lon="5.33548">
        <ele>371.21</ele>
        <time>2018-04-23T13:20:13Z</time>
      </trkpt>
      <trkpt lat="43.96294" lon="5.33548">
        <ele>370.73</ele>
        <time>2018-04-23T13:20:28Z</time>
      </trkpt>
      <trkpt lat="43.96302" lon="5.33557">
        <ele>370.24</ele>
        <time>2018-04-23T13:20:49Z</time>
      </trkpt>
      <trkpt lat="43.96308" lon="5.33567">
        <ele>370.24</ele>
        <time>2018-04-23T13:21:04Z</time>
      </trkpt>
      <trkpt lat="43.96315" lon="5.33563">
        <ele>371.21</ele>
        <time>2018-04-23T13:21:16Z</time>
      </trkpt>
      <trkpt lat="43.96322" lon="5.33551">
        <ele>371.21</ele>
        <time>2018-04-23T13:21:32Z</time>
      </trkpt>
      <trkpt lat="43.96327" lon="5.33539">
        <ele>370.73</ele>
        <time>2018-04-23T13:21:47Z</time>
      </trkpt>
      <trkpt lat="43.96337" lon="5.33532">
        <ele>370.73</ele>
        <time>2018-04-23T13:22:01Z</time>
      </trkpt>
      <trkpt lat="43.9635" lon="5.33527">
        <ele>371.21</ele>
        <time>2018-04-23T13:22:16Z</time>
      </trkpt>
      <trkpt lat="43.96361" lon="5.33518">
        <ele>372.17</ele>
        <time>2018-04-23T13:22:33Z</time>
      </trkpt>
      <trkpt lat="43.96371" lon="5.33517">
        <ele>374.09</ele>
        <time>2018-04-23T13:22:49Z</time>
      </trkpt>
      <trkpt lat="43.96378" lon="5.33515">
        <ele>375.05</ele>
        <time>2018-04-23T13:23:03Z</time>
      </trkpt>
      <trkpt lat="43.96387" lon="5.33515">
        <ele>376.01</ele>
        <time>2018-04-23T13:23:16Z</time>
      </trkpt>
      <trkpt lat="43.96395" lon="5.33513">
        <ele>376.01</ele>
        <time>2018-04-23T13:23:33Z</time>
      </trkpt>
      <trkpt lat="43.96401" lon="5.335">
        <ele>376.97</ele>
        <time>2018-04-23T13:23:50Z</time>
      </trkpt>
      <trkpt lat="43.96412" lon="5.33498">
        <ele>377.45</ele>
        <time>2018-04-23T13:24:07Z</time>
      </trkpt>
      <trkpt lat="43.9642" lon="5.33502">
        <ele>376.97</ele>
        <time>2018-04-23T13:24:29Z</time>
      </trkpt>
      <trkpt lat="43.96435" lon="5.33497">
        <ele>376.97</ele>
        <time>2018-04-23T13:24:45Z</time>
      </trkpt>
      <trkpt lat="43.96444" lon="5.33496">
        <ele>377.45</ele>
        <time>2018-04-23T13:24:59Z</time>
      </trkpt>
      <trkpt lat="43.96457" lon="5.33505">
        <ele>378.9</ele>
        <time>2018-04-23T13:25:11Z</time>
      </trkpt>
      <trkpt lat="43.96471" lon="5.33532">
        <ele>378.42</ele>
        <time>2018-04-23T13:25:26Z</time>
      </trkpt>
      <trkpt lat="43.96478" lon="5.33541">
        <ele>378.9</ele>
        <time>2018-04-23T13:25:38Z</time>
      </trkpt>
      <trkpt lat="43.96484" lon="5.33555">
        <ele>379.38</ele>
        <time>2018-04-23T13:25:53Z</time>
      </trkpt>
      <trkpt lat="43.96491" lon="5.3357">
        <ele>380.34</ele>
        <time>2018-04-23T13:26:06Z</time>
      </trkpt>
      <trkpt lat="43.96498" lon="5.33583">
        <ele>381.78</ele>
        <time>2018-04-23T13:26:20Z</time>
      </trkpt>
      <trkpt lat="43.96509" lon="5.3359">
        <ele>382.26</ele>
        <time>2018-04-23T13:26:35Z</time>
      </trkpt>
      <trkpt lat="43.96527" lon="5.33586">
        <ele>382.74</ele>
        <time>2018-04-23T13:26:53Z</time>
      </trkpt>
      <trkpt lat="43.96536" lon="5.3357">
        <ele>383.22</ele>
        <time>2018-04-23T13:27:11Z</time>
      </trkpt>
      <trkpt lat="43.96548" lon="5.33562">
        <ele>384.18</ele>
        <time>2018-04-23T13:27:30Z</time>
      </trkpt>
      <trkpt lat="43.96562" lon="5.33567">
        <ele>385.15</ele>
        <time>2018-04-23T13:27:47Z</time>
      </trkpt>
      <trkpt lat="43.96578" lon="5.33595">
        <ele>385.15</ele>
        <time>2018-04-23T13:28:03Z</time>
      </trkpt>
      <trkpt lat="43.96591" lon="5.33618">
        <ele>385.63</ele>
        <time>2018-04-23T13:28:18Z</time>
      </trkpt>
      <trkpt lat="43.96601" lon="5.33651">
        <ele>386.11</ele>
        <time>2018-04-23T13:28:34Z</time>
      </trkpt>
      <trkpt lat="43.96609" lon="5.33678">
        <ele>386.11</ele>
        <time>2018-04-23T13:28:49Z</time>
      </trkpt>
      <trkpt lat="43.96613" lon="5.33691">
        <ele>386.59</ele>
        <time>2018-04-23T13:29:00Z</time>
      </trkpt>
      <trkpt lat="43.96621" lon="5.33703">
        <ele>387.07</ele>
        <time>2018-04-23T13:29:14Z</time>
      </trkpt>
      <trkpt lat="43.96629" lon="5.33715">
        <ele>388.03</ele>
        <time>2018-04-23T13:29:27Z</time>
      </trkpt>
      <trkpt lat="43.96634" lon="5.33722">
        <ele>388.51</ele>
        <time>2018-04-23T13:29:37Z</time>
      </trkpt>
      <trkpt lat="43.96642" lon="5.33734">
        <ele>388.51</ele>
        <time>2018-04-23T13:29:49Z</time>
      </trkpt>
      <trkpt lat="43.96652" lon="5.33746">
        <ele>388.99</ele>
        <time>2018-04-23T13:30:05Z</time>
      </trkpt>
      <trkpt lat="43.96666" lon="5.33757">
        <ele>389.95</ele>
        <time>2018-04-23T13:30:24Z</time>
      </trkpt>
      <trkpt lat="43.96681" lon="5.33771">
        <ele>389.95</ele>
        <time>2018-04-23T13:30:37Z</time>
      </trkpt>
      <trkpt lat="43.96687" lon="5.33778">
        <ele>390.91</ele>
        <time>2018-04-23T13:30:51Z</time>
      </trkpt>
      <trkpt lat="43.96697" lon="5.33791">
        <ele>391.39</ele>
        <time>2018-04-23T13:31:05Z</time>
      </trkpt>
      <trkpt lat="43.96701" lon="5.33811">
        <ele>391.39</ele>
        <time>2018-04-23T13:31:19Z</time>
      </trkpt>
      <trkpt lat="43.96707" lon="5.33828">
        <ele>391.87</ele>
        <time>2018-04-23T13:31:34Z</time>
      </trkpt>
      <trkpt lat="43.96713" lon="5.33841">
        <ele>392.36</ele>
        <time>2018-04-23T13:31:46Z</time>
      </trkpt>
      <trkpt lat="43.9672" lon="5.33859">
        <ele>392.36</ele>
        <time>2018-04-23T13:32:00Z</time>
      </trkpt>
      <trkpt lat="43.96723" lon="5.33871">
        <ele>393.32</ele>
        <time>2018-04-23T13:32:17Z</time>
      </trkpt>
      <trkpt lat="43.96721" lon="5.33875">
        <ele>386.11</ele>
        <time>2018-04-23T13:32:26Z</time>
      </trkpt>
      <trkpt lat="43.96721" lon="5.33875">
        <ele>386.11</ele>
        <time>2018-04-23T13:32:27Z</time>
      </trkpt>
      <trkpt lat="43.96721" lon="5.33875">
        <ele>399.08</ele>
        <time>2018-04-23T13:32:28Z</time>
      </trkpt>
      <trkpt lat="43.96721" lon="5.33875">
        <ele>394.28</ele>
        <time>2018-04-23T13:32:29Z</time>
      </trkpt>
      <trkpt lat="43.9672" lon="5.33874">
        <ele>392.84</ele>
        <time>2018-04-23T13:32:32Z</time>
      </trkpt>
      <trkpt lat="43.96723" lon="5.33883">
        <ele>393.32</ele>
        <time>2018-04-23T13:32:54Z</time>
      </trkpt>
      <trkpt lat="43.96722" lon="5.33883">
        <ele>389.47</ele>
        <time>2018-04-23T13:33:10Z</time>
      </trkpt>
      <trkpt lat="43.96721" lon="5.33883">
        <ele>394.76</ele>
        <time>2018-04-23T13:33:13Z</time>
      </trkpt>
      <trkpt lat="43.96721" lon="5.33884">
        <ele>391.87</ele>
        <time>2018-04-23T13:33:16Z</time>
      </trkpt>
      <trkpt lat="43.9672" lon="5.33895">
        <ele>391.87</ele>
        <time>2018-04-23T13:33:44Z</time>
      </trkpt>
      <trkpt lat="43.96718" lon="5.33895">
        <ele>392.36</ele>
        <time>2018-04-23T13:34:17Z</time>
      </trkpt>
      <trkpt lat="43.96718" lon="5.33893">
        <ele>393.32</ele>
        <time>2018-04-23T13:34:22Z</time>
      </trkpt>
      <trkpt lat="43.9671" lon="5.33871">
        <ele>394.28</ele>
        <time>2018-04-23T13:34:43Z</time>
      </trkpt>
      <trkpt lat="43.96709" lon="5.33865">
        <ele>394.28</ele>
        <time>2018-04-23T13:35:09Z</time>
      </trkpt>
      <trkpt lat="43.9671" lon="5.33858">
        <ele>394.28</ele>
        <time>2018-04-23T13:35:30Z</time>
      </trkpt>
      <trkpt lat="43.967" lon="5.33851">
        <ele>396.2</ele>
        <time>2018-04-23T13:35:52Z</time>
      </trkpt>
      <trkpt lat="43.96695" lon="5.33843">
        <ele>399.08</ele>
        <time>2018-04-23T13:36:08Z</time>
      </trkpt>
      <trkpt lat="43.96682" lon="5.33823">
        <ele>401.97</ele>
        <time>2018-04-23T13:36:31Z</time>
      </trkpt>
      <trkpt lat="43.96672" lon="5.3381">
        <ele>403.41</ele>
        <time>2018-04-23T13:36:50Z</time>
      </trkpt>
      <trkpt lat="43.96655" lon="5.338">
        <ele>405.81</ele>
        <time>2018-04-23T13:37:09Z</time>
      </trkpt>
      <trkpt lat="43.96638" lon="5.33791">
        <ele>407.74</ele>
        <time>2018-04-23T13:37:29Z</time>
      </trkpt>
      <trkpt lat="43.96632" lon="5.33785">
        <ele>406.77</ele>
        <time>2018-04-23T13:37:38Z</time>
      </trkpt>
      <trkpt lat="43.96629" lon="5.33782">
        <ele>408.22</ele>
        <time>2018-04-23T13:37:42Z</time>
      </trkpt>
      <trkpt lat="43.96619" lon="5.3377">
        <ele>409.66</ele>
        <time>2018-04-23T13:38:00Z</time>
      </trkpt>
      <trkpt lat="43.9661" lon="5.33754">
        <ele>410.62</ele>
        <time>2018-04-23T13:38:18Z</time>
      </trkpt>
      <trkpt lat="43.96608" lon="5.33754">
        <ele>409.66</ele>
        <time>2018-04-23T13:38:22Z</time>
      </trkpt>
      <trkpt lat="43.96607" lon="5.33754">
        <ele>411.58</ele>
        <time>2018-04-23T13:38:24Z</time>
      </trkpt>
      <trkpt lat="43.96595" lon="5.33745">
        <ele>413.5</ele>
        <time>2018-04-23T13:38:43Z</time>
      </trkpt>
      <trkpt lat="43.96586" lon="5.33737">
        <ele>416.87</ele>
        <time>2018-04-23T13:39:01Z</time>
      </trkpt>
      <trkpt lat="43.96583" lon="5.33733">
        <ele>419.75</ele>
        <time>2018-04-23T13:39:15Z</time>
      </trkpt>
      <trkpt lat="43.96582" lon="5.33733">
        <ele>419.75</ele>
        <time>2018-04-23T13:39:16Z</time>
      </trkpt>
      <trkpt lat="43.96581" lon="5.33728">
        <ele>420.23</ele>
        <time>2018-04-23T13:39:29Z</time>
      </trkpt>
      <trkpt lat="43.96573" lon="5.33719">
        <ele>422.64</ele>
        <time>2018-04-23T13:39:48Z</time>
      </trkpt>
      <trkpt lat="43.96564" lon="5.33704">
        <ele>423.6</ele>
        <time>2018-04-23T13:40:07Z</time>
      </trkpt>
      <trkpt lat="43.96554" lon="5.33693">
        <ele>426</ele>
        <time>2018-04-23T13:40:24Z</time>
      </trkpt>
      <trkpt lat="43.96541" lon="5.33688">
        <ele>428.89</ele>
        <time>2018-04-23T13:40:44Z</time>
      </trkpt>
      <trkpt lat="43.96531" lon="5.33691">
        <ele>430.81</ele>
        <time>2018-04-23T13:41:02Z</time>
      </trkpt>
      <trkpt lat="43.96524" lon="5.33695">
        <ele>432.73</ele>
        <time>2018-04-23T13:41:15Z</time>
      </trkpt>
      <trkpt lat="43.96516" lon="5.33697">
        <ele>435.13</ele>
        <time>2018-04-23T13:41:35Z</time>
      </trkpt>
      <trkpt lat="43.96504" lon="5.33698">
        <ele>436.58</ele>
        <time>2018-04-23T13:41:54Z</time>
      </trkpt>
      <trkpt lat="43.96488" lon="5.337">
        <ele>438.5</ele>
        <time>2018-04-23T13:42:16Z</time>
      </trkpt>
      <trkpt lat="43.96484" lon="5.33697">
        <ele>437.06</ele>
        <time>2018-04-23T13:42:21Z</time>
      </trkpt>
      <trkpt lat="43.96481" lon="5.33699">
        <ele>437.54</ele>
        <time>2018-04-23T13:42:43Z</time>
      </trkpt>
      <trkpt lat="43.96473" lon="5.33689">
        <ele>436.1</ele>
        <time>2018-04-23T13:43:07Z</time>
      </trkpt>
      <trkpt lat="43.96465" lon="5.33679">
        <ele>435.13</ele>
        <time>2018-04-23T13:43:25Z</time>
      </trkpt>
      <trkpt lat="43.96451" lon="5.33663">
        <ele>434.17</ele>
        <time>2018-04-23T13:43:45Z</time>
      </trkpt>
      <trkpt lat="43.9643" lon="5.3366">
        <ele>433.21</ele>
        <time>2018-04-23T13:44:06Z</time>
      </trkpt>
      <trkpt lat="43.9641" lon="5.33657">
        <ele>434.65</ele>
        <time>2018-04-23T13:44:24Z</time>
      </trkpt>
      <trkpt lat="43.96405" lon="5.33657">
        <ele>434.65</ele>
        <time>2018-04-23T13:44:29Z</time>
      </trkpt>
      <trkpt lat="43.96394" lon="5.33658">
        <ele>433.69</ele>
        <time>2018-04-23T13:44:40Z</time>
      </trkpt>
      <trkpt lat="43.96389" lon="5.33658">
        <ele>433.69</ele>
        <time>2018-04-23T13:44:47Z</time>
      </trkpt>
      <trkpt lat="43.96368" lon="5.33659">
        <ele>432.73</ele>
        <time>2018-04-23T13:45:08Z</time>
      </trkpt>
      <trkpt lat="43.9635" lon="5.33665">
        <ele>431.29</ele>
        <time>2018-04-23T13:45:27Z</time>
      </trkpt>
      <trkpt lat="43.96334" lon="5.33674">
        <ele>429.85</ele>
        <time>2018-04-23T13:45:47Z</time>
      </trkpt>
      <trkpt lat="43.96317" lon="5.3368">
        <ele>428.4</ele>
        <time>2018-04-23T13:46:08Z</time>
      </trkpt>
      <trkpt lat="43.96301" lon="5.33682">
        <ele>426.48</ele>
        <time>2018-04-23T13:46:28Z</time>
      </trkpt>
      <trkpt lat="43.96288" lon="5.33683">
        <ele>425.52</ele>
        <time>2018-04-23T13:46:44Z</time>
      </trkpt>
      <trkpt lat="43.96277" lon="5.33681">
        <ele>424.08</ele>
        <time>2018-04-23T13:47:00Z</time>
      </trkpt>
      <trkpt lat="43.96272" lon="5.33679">
        <ele>422.64</ele>
        <time>2018-04-23T13:47:19Z</time>
      </trkpt>
      <trkpt lat="43.96269" lon="5.33675">
        <ele>424.08</ele>
        <time>2018-04-23T13:47:33Z</time>
      </trkpt>
      <trkpt lat="43.96267" lon="5.33674">
        <ele>424.56</ele>
        <time>2018-04-23T13:47:56Z</time>
      </trkpt>
    </trkseg>
  </trk>
</gpx>